
Distance (Route):
Temperature : 7.5°C
Humidity : 82.8%
Pressure : 0hPa| Receiver | Frames | First received | Last received |
|---|---|---|---|
| PETON7-10 | 334 | 2026-09-06 02:29:09 | 2026-09-06 04:03:39 |
| OE5DRO-10 | 211 | 2026-09-06 02:28:19 | 2026-09-06 03:48:22 |
| PG1ADW-2 | 201 | 2026-09-06 02:34:04 | 2026-09-06 03:51:26 |
| OE8JPQ-2 | 200 | 2026-09-06 02:25:39 | 2026-09-06 03:44:00 |
| OE3JTB-15 | 129 | 2026-09-06 02:28:03 | 2026-09-06 04:09:49 |
| OE5DXL-15 | 94 | 2026-09-06 02:33:03 | 2026-09-06 03:39:11 |
| S52SK | 27 | 2026-09-06 02:26:08 | 2026-09-06 04:29:55 |
| OM5KV | 26 | 2026-09-06 02:25:58 | 2026-09-06 04:11:24 |
| OE3OSB-13 | 12 | 2026-09-06 03:47:02 | 2026-09-06 04:10:20 |
| DB0NH | 2 | 2026-09-06 03:17:15 | 2026-09-06 03:17:45 |
| Receiver | Date | Latitude | Longitude | Direction | Speed | Altitude | Climb | Temperature | Humidity | Pressure | Voltage | Killtimer | Uptime | BKT | XDATA |
|---|---|---|---|---|---|---|---|---|---|---|---|---|---|---|---|
| S52SK | 2026-09-06 04:29:55 | 46.12924 | 17.16543 | 117° | 40km/h | 2383m | -2.4m/s | 7.5°C | 82.8% | 0hPa | 2.6V | 00:00:00 | 00:00:00 | 00:00:00 | |
| S52SK | 2026-09-06 04:29:48 | 46.12951 | 17.16461 | 117° | 42km/h | 2398m | -2.2m/s | 7.4°C | 82.5% | 0hPa | 2.6V | 00:00:00 | 00:00:00 | 00:00:00 | |
| S52SK | 2026-09-06 04:28:42 | 46.13273 | 17.15584 | 110° | 44km/h | 2566m | -2.5m/s | 6.1°C | 75.1% | 0hPa | 2.6V | 00:00:00 | 00:00:00 | 00:00:00 | |
| S52SK | 2026-09-06 04:28:37 | 46.13297 | 17.15491 | 112° | 46km/h | 2580m | -2.1m/s | 6.0°C | 75.5% | 0hPa | 2.6V | 00:00:00 | 00:00:00 | 00:00:00 | |
| S52SK | 2026-09-06 04:27:24 | 46.13844 | 17.14292 | 120° | 60km/h | 2756m | -2.5m/s | 4.7°C | 73.7% | 0hPa | 2.6V | 00:00:00 | 00:00:00 | 00:00:00 | |
| S52SK | 2026-09-06 04:25:02 | 46.14349 | 17.11809 | 108° | 47km/h | 3107m | -2.5m/s | 3.2°C | 90.9% | 0hPa | 2.6V | 00:00:00 | 00:00:00 | 00:00:00 | |
| S52SK | 2026-09-06 04:24:56 | 46.14370 | 17.11712 | 110° | 53km/h | 3121m | -2.9m/s | 3.3°C | 89.7% | 0hPa | 2.6V | 00:00:00 | 00:00:00 | 00:00:00 | |
| S52SK | 2026-09-06 04:23:47 | 46.14641 | 17.10323 | 112° | 53km/h | 3304m | -2.8m/s | 2.9°C | 78.9% | 0hPa | 2.6V | 00:00:00 | 00:00:00 | 00:00:00 | |
| S52SK | 2026-09-06 04:23:41 | 46.14660 | 17.10232 | 106° | 53km/h | 3318m | -3.0m/s | 2.8°C | 79.8% | 0hPa | 2.6V | 00:00:00 | 00:00:00 | 00:00:00 | |
| S52SK | 2026-09-06 04:21:26 | 46.15495 | 17.07338 | 119° | 57km/h | 3684m | -2.7m/s | 0.1°C | 66.8% | 0hPa | 2.6V | 00:00:00 | 00:00:00 | 00:00:00 | |
| S52SK | 2026-09-06 04:21:18 | 46.15552 | 17.07209 | 126° | 66km/h | 3703m | -2.6m/s | -0.0°C | 61.6% | 0hPa | 2.6V | 00:00:00 | 00:00:00 | 00:00:00 | |
| S52SK | 2026-09-06 04:20:09 | 46.16120 | 17.05800 | 117° | 55km/h | 3873m | -2.3m/s | -1.1°C | 24.9% | 0hPa | 2.6V | 00:00:00 | 00:00:00 | 00:00:00 | |
| S52SK | 2026-09-06 04:18:58 | 46.16625 | 17.04340 | 124° | 66km/h | 4035m | -2.3m/s | -1.4°C | 18.6% | 0hPa | 2.6V | 00:00:00 | 00:00:00 | 00:00:00 | |
| S52SK | 2026-09-06 04:13:15 | 46.19998 | 16.98561 | 124° | 69km/h | 4998m | -2.9m/s | -3.4°C | 5.2% | 0hPa | 2.6V | 00:00:00 | 00:00:00 | 00:00:00 | |
| OM5KV | 2026-09-06 04:11:24 | 46.20925 | 16.96426 | 127° | 57km/h | 5312m | -2.6m/s | 0°C | 0% | 0hPa | 2.6V | 07:37:00 | 00:00:00 | 00:00:00 | |
| OM5KV | 2026-09-06 04:11:06 | 46.21081 | 16.96110 | 126° | 71km/h | 5361m | -2.8m/s | 0°C | 0% | 0hPa | 2.6V | 07:37:00 | 00:00:00 | 00:00:00 | |
| S52SK | 2026-09-06 04:10:56 | 46.21165 | 16.95872 | 122° | 57km/h | 5391m | -2.6m/s | -6.1°C | 5.6% | 0hPa | 2.6V | 07:37:00 | 00:00:00 | 00:00:00 | |
| S52SK | 2026-09-06 04:10:50 | 46.21212 | 16.95782 | 129° | 66km/h | 5404m | -2.6m/s | -6.2°C | 5.7% | 0hPa | 2.6V | 00:00:00 | 00:00:00 | 00:00:00 | |
| OM5KV | 2026-09-06 04:10:33 | 46.21400 | 16.95434 | 125° | 73km/h | 5453m | -2.6m/s | 0°C | 0% | 0hPa | 2.6V | 00:00:00 | 00:00:00 | 00:00:00 | |
| OE3OSB-13 | 2026-09-06 04:10:20 | 46.21516 | 16.95137 | 127° | 64km/h | 5491m | -2.6m/s | -6.8°C | 6.0% | -1.0hPa | 2.6V | 00:00:00 | 00:00:00 | 00:00:00 | |
| OE3JTB-15 | 2026-09-06 04:09:49 | 46.21795 | 16.94523 | 121° | 69km/h | 5572m | -2.6m/s | -7.3°C | 6.0% | 0hPa | 2.6V | 00:00:00 | 02:23:25 | 00:00:00 | |
| S52SK | 2026-09-06 04:09:42 | 46.21860 | 16.94356 | 121° | 75km/h | 5590m | -2.6m/s | -7.4°C | 5.4% | 0hPa | 2.6V | 00:00:00 | 00:00:00 | 00:00:00 | |
| S52SK | 2026-09-06 04:09:35 | 46.21922 | 16.94218 | 126° | 75km/h | 5606m | -2.8m/s | -7.4°C | 4.7% | 0hPa | 2.6V | 00:00:00 | 00:00:00 | 00:00:00 | |
| OE3JTB-15 | 2026-09-06 04:09:18 | 46.22079 | 16.93856 | 114° | 73km/h | 5653m | -2.7m/s | -7.7°C | 5.3% | 0hPa | 2.6V | 00:00:00 | 00:00:00 | 00:00:00 | |
| OE3JTB-15 | 2026-09-06 04:08:48 | 46.22388 | 16.93186 | 128° | 78km/h | 5737m | -2.8m/s | -7.7°C | 5.2% | 0hPa | 2.7V | 07:39:00 | 00:00:00 | 00:00:00 | |
| OE3OSB-13 | 2026-09-06 04:08:47 | 46.22482 | 16.92996 | 125° | 80km/h | 5760m | -2.7m/s | 0°C | -1.0% | -1.0hPa | 2.7V | 00:00:00 | 00:00:00 | 00:00:00 | |
| OE3JTB-15 | 2026-09-06 04:08:19 | 46.22738 | 16.92541 | 125° | 75km/h | 5819m | -2.8m/s | -8.1°C | 19.7% | 0hPa | 2.7V | 00:00:00 | 02:21:55 | 00:00:00 | |
| OE3OSB-13 | 2026-09-06 04:08:16 | 46.22776 | 16.92455 | 120° | 71km/h | 5831m | -3.0m/s | 0°C | -1.0% | -1.0hPa | 2.7V | 00:00:00 | 00:00:00 | 00:00:00 | |
| OE3JTB-15 | 2026-09-06 04:07:50 | 46.23069 | 16.91909 | 130° | 71km/h | 5905m | -3.0m/s | -8.3°C | 31.5% | 0hPa | 2.7V | 00:00:00 | 00:00:00 | 00:00:00 | |
| OE3OSB-13 | 2026-09-06 04:07:45 | 46.23134 | 16.91773 | 120° | 68km/h | 5926m | -3.0m/s | -8.4°C | 30.0% | -1.0hPa | 2.6V | 00:00:00 | 00:00:00 | 00:00:00 | |
| OE3JTB-15 | 2026-09-06 04:07:21 | 46.23347 | 16.91263 | 125° | 71km/h | 5995m | -3.3m/s | -8.2°C | 31.2% | 0hPa | 2.6V | 00:00:00 | 00:00:00 | 00:00:00 | |
| S52SK | 2026-09-06 04:07:11 | 46.23475 | 16.91045 | 134° | 69km/h | 6027m | -3.1m/s | -8.3°C | 27.5% | 0hPa | 2.6V | 00:00:00 | 00:00:00 | 00:00:00 | |
| OE3JTB-15 | 2026-09-06 04:06:52 | 46.23651 | 16.90659 | 119° | 75km/h | 6090m | -3.2m/s | -8.7°C | 29.2% | 0hPa | 2.6V | 00:00:00 | 02:20:28 | 00:00:00 | |
| OE3JTB-15 | 2026-09-06 04:06:23 | 46.23968 | 16.90016 | 131° | 71km/h | 6187m | -3.4m/s | -9.4°C | 29.3% | 0hPa | 2.6V | 00:00:00 | 00:00:00 | 00:00:00 | |
| OE3OSB-13 | 2026-09-06 04:06:12 | 46.24077 | 16.89782 | 119° | 68km/h | 6225m | -3.4m/s | -9.7°C | 27.6% | -1.0hPa | 2.6V | 00:00:00 | 00:00:00 | 00:00:00 | |
| OE3JTB-15 | 2026-09-06 04:05:54 | 46.24250 | 16.89388 | 130° | 68km/h | 6282m | -3.3m/s | -10.2°C | 30.0% | 0hPa | 2.6V | 00:00:00 | 00:00:00 | 00:00:00 | |
| S52SK | 2026-09-06 04:05:52 | 46.24263 | 16.89367 | 132° | 77km/h | 6285m | -3.2m/s | -10.3°C | 28.9% | 0hPa | 2.6V | 07:42:00 | 00:00:00 | 00:00:00 | |
| S52SK | 2026-09-06 04:05:46 | 46.24335 | 16.89251 | 133° | 68km/h | 6305m | -3.6m/s | -10.5°C | 29.2% | 0hPa | 2.6V | 00:00:00 | 00:00:00 | 00:00:00 | |
| OE3JTB-15 | 2026-09-06 04:05:25 | 46.24580 | 16.88854 | 132° | 68km/h | 6379m | -3.3m/s | -11.1°C | 32.0% | 0hPa | 2.6V | 00:00:00 | 02:19:01 | 00:00:00 | |
| OE3OSB-13 | 2026-09-06 04:05:10 | 46.24756 | 16.88495 | 119° | 68km/h | 6442m | -3.5m/s | -11.6°C | 31.6% | -1.0hPa | 2.6V | 00:00:00 | 00:00:00 | 00:00:00 | |
| OE3JTB-15 | 2026-09-06 04:04:56 | 46.24858 | 16.88257 | 126° | 78km/h | 6476m | -3.3m/s | -11.8°C | 33.3% | 0hPa | 2.6V | 07:43:00 | 00:00:00 | 00:00:00 | |
| OE3JTB-15 | 2026-09-06 04:04:27 | 46.25215 | 16.87604 | 126° | 73km/h | 6570m | -3.2m/s | -12.3°C | 29.3% | 0hPa | 2.7V | 00:00:00 | 00:00:00 | 00:00:00 | |
| OE3OSB-13 | 2026-09-06 04:04:08 | 46.25469 | 16.87195 | 129° | 66km/h | 6631m | -3.0m/s | -12.8°C | 27.1% | -1.0hPa | 2.7V | 00:00:00 | 00:00:00 | 00:00:00 | |
| OE3JTB-15 | 2026-09-06 04:03:58 | 46.25554 | 16.87017 | 122° | 77km/h | 6659m | -3.2m/s | -12.9°C | 29.3% | 0hPa | 2.7V | 00:00:00 | 02:17:34 | 00:00:00 | |
| PETON7-10 | 2026-09-06 04:03:39 | 46.25743 | 16.86562 | 123° | 80km/h | 6719m | -3.1m/s | -13.2°C | 27.3% | 0hPa | 2.7V | 00:00:00 | 02:17:15 | 00:00:00 | |
| OE3JTB-15 | 2026-09-06 04:03:29 | 46.25853 | 16.86315 | 124° | 77km/h | 6750m | -3.1m/s | -13.4°C | 27.0% | 0hPa | 2.7V | 00:00:00 | 00:00:00 | 00:00:00 | |
| PETON7-10 | 2026-09-06 04:03:24 | 46.25912 | 16.86190 | 126° | 78km/h | 6766m | -3.0m/s | -13.4°C | 26.4% | 0hPa | 2.7V | 00:00:00 | 00:00:00 | 00:00:00 | |
| PETON7-10 | 2026-09-06 04:03:09 | 46.26104 | 16.85869 | 128° | 73km/h | 6810m | -2.8m/s | -13.7°C | 25.5% | 0hPa | 2.7V | 00:00:00 | 00:00:00 | 00:00:00 | |
| OE3OSB-13 | 2026-09-06 04:03:05 | 46.26145 | 16.85785 | 123° | 71km/h | 6820m | -2.8m/s | -13.8°C | -1.0% | -1.0hPa | 2.7V | 00:00:00 | 00:00:00 | 00:00:00 | |
| OE3JTB-15 | 2026-09-06 04:03:00 | 46.26196 | 16.85672 | 124° | 80km/h | 6835m | -2.8m/s | -13.9°C | 25.5% | 0hPa | 2.7V | 00:00:00 | 00:00:00 | 00:00:00 | |
| PETON7-10 | 2026-09-06 04:02:54 | 46.26261 | 16.85534 | 125° | 80km/h | 6851m | -2.9m/s | -14.0°C | 25.5% | 0hPa | 2.7V | 00:00:00 | 02:16:30 | 00:00:00 | |
| PETON7-10 | 2026-09-06 04:02:39 | 46.26430 | 16.85174 | 125° | 84km/h | 6895m | -2.8m/s | -14.3°C | 24.6% | 0hPa | 2.7V | 00:00:00 | 00:00:00 | 00:00:00 | |
| OE3JTB-15 | 2026-09-06 04:02:31 | 46.26542 | 16.84971 | 133° | 80km/h | 6917m | -2.7m/s | -14.4°C | 23.1% | 0hPa | 2.7V | 00:00:00 | 02:16:07 | 00:00:00 | |
| OE3JTB-15 | 2026-09-06 04:02:02 | 46.26914 | 16.84305 | 127° | 86km/h | 6996m | -2.7m/s | -15.0°C | 23.7% | 0hPa | 2.7V | 00:00:00 | 00:00:00 | 00:00:00 | |
| OE3JTB-15 | 2026-09-06 04:01:33 | 46.27332 | 16.83626 | 131° | 84km/h | 7074m | -2.6m/s | -15.5°C | 22.2% | 0hPa | 2.7V | 00:00:00 | 00:00:00 | 00:00:00 | |
| OE3OSB-13 | 2026-09-06 04:01:32 | 46.27356 | 16.83583 | 128° | 75km/h | 7079m | -2.6m/s | -15.6°C | 20.8% | -1.0hPa | 2.7V | 00:00:00 | 00:00:00 | 00:00:00 | |
| OE3JTB-15 | 2026-09-06 04:01:04 | 46.27694 | 16.82913 | 130° | 86km/h | 7151m | -2.7m/s | -16.0°C | 20.7% | 0hPa | 2.7V | 07:47:00 | 02:14:40 | 00:00:00 | |
| PETON7-10 | 2026-09-06 04:00:46 | 46.27970 | 16.82507 | 132° | 93km/h | 7199m | -2.6m/s | -16.3°C | 18.7% | 0hPa | 2.7V | 07:47:00 | 00:00:00 | 00:00:00 | |
| OE3JTB-15 | 2026-09-06 04:00:35 | 46.28114 | 16.82240 | 129° | 89km/h | 7230m | -2.6m/s | -16.4°C | 17.7% | 0hPa | 2.7V | 00:00:00 | 00:00:00 | 00:00:00 | |
| PETON7-10 | 2026-09-06 04:00:26 | 46.28258 | 16.82002 | 135° | 89km/h | 7254m | -2.6m/s | -16.6°C | 17.2% | 0hPa | 2.7V | 00:00:00 | 02:14:02 | 00:00:00 | |
| PETON7-10 | 2026-09-06 04:00:11 | 46.28504 | 16.81674 | 135° | 88km/h | 7294m | -2.7m/s | -16.9°C | 17.3% | 0hPa | 2.7V | 00:00:00 | 00:00:00 | 00:00:00 | |
| OE3JTB-15 | 2026-09-06 04:00:06 | 46.28570 | 16.81561 | 128° | 95km/h | 7308m | -2.6m/s | -17.0°C | 17.7% | 0hPa | 2.6V | 00:00:00 | 00:00:00 | 00:00:00 | |
| PETON7-10 | 2026-09-06 03:59:56 | 46.28712 | 16.81296 | 130° | 97km/h | 7334m | -2.8m/s | -17.3°C | 19.0% | 0hPa | 2.6V | 00:00:00 | 00:00:00 | 00:00:00 | |
| PETON7-10 | 2026-09-06 03:59:41 | 46.28963 | 16.80904 | 137° | 89km/h | 7375m | -2.7m/s | -17.7°C | 20.8% | 0hPa | 2.6V | 00:00:00 | 02:13:17 | 00:00:00 | |
| OE3JTB-15 | 2026-09-06 03:59:37 | 46.29032 | 16.80810 | 137° | 86km/h | 7386m | -2.8m/s | -17.8°C | 20.9% | 0hPa | 2.6V | 00:00:00 | 02:13:13 | 00:00:00 | |
| PETON7-10 | 2026-09-06 03:59:26 | 46.29206 | 16.80566 | 136° | 84km/h | 7415m | -2.7m/s | -18.0°C | 21.5% | 0hPa | 2.6V | 00:00:00 | 00:00:00 | 00:00:00 | |
| PETON7-10 | 2026-09-06 03:59:11 | 46.29412 | 16.80215 | 127° | 95km/h | 7455m | -2.6m/s | -18.4°C | 21.6% | 0hPa | 2.6V | 00:00:00 | 00:00:00 | 00:00:00 | |
| OE3JTB-15 | 2026-09-06 03:59:08 | 46.29453 | 16.80134 | 127° | 95km/h | 7464m | -2.8m/s | -18.4°C | 21.7% | 0hPa | 2.6V | 00:00:00 | 00:00:00 | 00:00:00 | |
| OM5KV | 2026-09-06 03:59:06 | 46.29481 | 16.80080 | 127° | 91km/h | 7469m | -2.7m/s | -18.5°C | 20.3% | 0hPa | 2.5V | 07:49:00 | 00:00:00 | 00:00:00 | |
| OM5KV | 2026-09-06 03:59:01 | 46.29549 | 16.79943 | 127° | 93km/h | 7483m | -2.8m/s | -18.7°C | 20.5% | 0hPa | 2.5V | 07:49:00 | 00:00:00 | 00:00:00 | |
| OE3JTB-15 | 2026-09-06 03:58:39 | 46.29910 | 16.79370 | 138° | 86km/h | 7543m | -2.6m/s | -19.2°C | 23.0% | 0hPa | 2.5V | 00:00:00 | 00:00:00 | 00:00:00 | |
| OE3JTB-15 | 2026-09-06 03:58:10 | 46.30322 | 16.78683 | 127° | 95km/h | 7623m | -2.8m/s | -20.0°C | 24.3% | 0hPa | 2.5V | 00:00:00 | 02:11:46 | 00:00:00 | |
| OE3JTB-15 | 2026-09-06 03:57:41 | 46.30798 | 16.77945 | 131° | 93km/h | 7706m | -2.8m/s | -20.7°C | 25.7% | 0hPa | 2.5V | 00:00:00 | 00:00:00 | 00:00:00 | |
| PETON7-10 | 2026-09-06 03:57:27 | 46.31033 | 16.77576 | 138° | 84km/h | 7745m | -2.9m/s | -21.1°C | 25.9% | 0hPa | 2.6V | 00:00:00 | 02:11:03 | 00:00:00 | |
| OE3JTB-15 | 2026-09-06 03:57:12 | 46.31282 | 16.77260 | 136° | 91km/h | 7790m | -2.9m/s | -21.4°C | 25.2% | 0hPa | 2.6V | 07:51:00 | 00:00:00 | 00:00:00 | |
| PETON7-10 | 2026-09-06 03:57:11 | 46.31297 | 16.77240 | 135° | 88km/h | 7793m | -2.8m/s | -21.5°C | 25.1% | 0hPa | 2.6V | 07:51:00 | 00:00:00 | 00:00:00 | |
| PETON7-10 | 2026-09-06 03:56:56 | 46.31514 | 16.76870 | 133° | 97km/h | 7837m | -2.9m/s | -21.8°C | 24.6% | 0hPa | 2.6V | 00:00:00 | 00:00:00 | 00:00:00 | |
| OE3JTB-15 | 2026-09-06 03:56:43 | 46.31750 | 16.76556 | 142° | 84km/h | 7876m | -3.0m/s | -22.2°C | 25.2% | 0hPa | 2.6V | 00:00:00 | 02:10:19 | 00:00:00 | |
| PETON7-10 | 2026-09-06 03:56:41 | 46.31786 | 16.76515 | 142° | 82km/h | 7882m | -2.9m/s | -22.3°C | 25.4% | 0hPa | 2.6V | 00:00:00 | 02:10:17 | 00:00:00 | |
| PETON7-10 | 2026-09-06 03:56:26 | 46.32009 | 16.76204 | 135° | 86km/h | 7927m | -3.1m/s | -22.7°C | 25.7% | 0hPa | 2.6V | 00:00:00 | 00:00:00 | 00:00:00 | |
| OE3JTB-15 | 2026-09-06 03:56:14 | 46.32176 | 16.75923 | 130° | 95km/h | 7964m | -3.1m/s | -23.0°C | 27.8% | 0hPa | 2.5V | 00:00:00 | 00:00:00 | 00:00:00 | |
| PETON7-10 | 2026-09-06 03:56:11 | 46.32221 | 16.75844 | 131° | 97km/h | 7973m | -3.1m/s | -23.1°C | 28.1% | 0hPa | 2.5V | 00:00:00 | 00:00:00 | 00:00:00 | |
| PETON7-10 | 2026-09-06 03:55:56 | 46.32477 | 16.75460 | 138° | 91km/h | 8021m | -3.3m/s | -23.5°C | 29.9% | 0hPa | 2.5V | 00:00:00 | 02:09:33 | 00:00:00 | |
| OE3JTB-15 | 2026-09-06 03:55:45 | 46.32674 | 16.75220 | 142° | 82km/h | 8057m | -3.2m/s | -23.7°C | 28.8% | 0hPa | 2.5V | 00:00:00 | 00:00:00 | 00:00:00 | |
| PETON7-10 | 2026-09-06 03:55:41 | 46.32739 | 16.75142 | 139° | 82km/h | 8070m | -3.1m/s | -23.8°C | 26.9% | 0hPa | 2.5V | 00:00:00 | 00:00:00 | 00:00:00 | |
| PETON7-10 | 2026-09-06 03:55:26 | 46.32971 | 16.74845 | 139° | 82km/h | 8119m | -3.3m/s | -24.1°C | 25.8% | 0hPa | 2.6V | 00:00:00 | 00:00:00 | 00:00:00 | |
| OE3JTB-15 | 2026-09-06 03:55:16 | 46.33116 | 16.74637 | 132° | 80km/h | 8152m | -3.3m/s | -24.3°C | 24.9% | 0hPa | 2.6V | 00:00:00 | 02:08:53 | 00:00:00 | |
| PETON7-10 | 2026-09-06 03:55:11 | 46.33186 | 16.74527 | 135° | 80km/h | 8170m | -3.3m/s | -24.5°C | 24.8% | 0hPa | 2.6V | 07:53:00 | 02:08:48 | 00:00:00 | |
| PETON7-10 | 2026-09-06 03:54:56 | 46.33407 | 16.74220 | 137° | 80km/h | 8220m | -3.4m/s | -24.9°C | 24.7% | 0hPa | 2.6V | 00:00:00 | 00:00:00 | 00:00:00 | |
| OE3JTB-15 | 2026-09-06 03:54:47 | 46.33536 | 16.74033 | 133° | 82km/h | 8251m | -3.4m/s | -25.1°C | 24.3% | 0hPa | 2.5V | 00:00:00 | 00:00:00 | 00:00:00 | |
| PETON7-10 | 2026-09-06 03:54:41 | 46.33618 | 16.73898 | 132° | 82km/h | 8271m | -3.3m/s | -25.3°C | 24.4% | 0hPa | 2.6V | 00:00:00 | 00:00:00 | 00:00:00 | |
| PETON7-10 | 2026-09-06 03:54:26 | 46.33821 | 16.73558 | 130° | 91km/h | 8324m | -3.5m/s | -25.7°C | 24.1% | 0hPa | 2.6V | 00:00:00 | 02:08:03 | 00:00:00 | |
| OE3JTB-15 | 2026-09-06 03:54:18 | 46.33929 | 16.73357 | 129° | 88km/h | 8353m | -3.5m/s | -25.9°C | 23.8% | 0hPa | 2.6V | 00:00:00 | 00:00:00 | 00:00:00 | |
| PETON7-10 | 2026-09-06 03:54:11 | 46.34040 | 16.73166 | 130° | 84km/h | 8378m | -3.8m/s | -26.2°C | 23.9% | 0hPa | 2.6V | 00:00:00 | 00:00:00 | 00:00:00 | |
| PETON7-10 | 2026-09-06 03:53:56 | 46.34252 | 16.72827 | 137° | 93km/h | 8431m | -3.7m/s | -26.6°C | 24.8% | 0hPa | 2.6V | 00:00:00 | 00:00:00 | 00:00:00 | |
| OE3JTB-15 | 2026-09-06 03:53:49 | 46.34363 | 16.72682 | 139° | 84km/h | 8456m | -3.5m/s | -26.8°C | 25.0% | 0hPa | 2.6V | 00:00:00 | 02:07:26 | 00:00:00 | |
| S52SK | 2026-09-06 03:53:45 | 46.34430 | 16.72596 | 140° | 88km/h | 8471m | -3.5m/s | -27.0°C | 22.8% | 0hPa | 2.6V | 00:00:00 | 00:00:00 | 00:00:00 | |
| OE3JTB-15 | 2026-09-06 03:53:20 | 46.34784 | 16.72043 | 129° | 91km/h | 8558m | -3.5m/s | -27.7°C | 25.0% | 0hPa | 2.6V | 07:55:00 | 00:00:00 | 00:00:00 | |
| OE3OSB-13 | 2026-09-06 03:53:15 | 46.34972 | 16.71685 | 129° | 97km/h | 8607m | -3.4m/s | -28.2°C | 23.1% | -1.0hPa | 2.5V | 00:00:00 | 00:00:00 | 00:00:00 | |
| OE3JTB-15 | 2026-09-06 03:52:51 | 46.35224 | 16.71312 | 138° | 84km/h | 8659m | -3.4m/s | -28.6°C | 26.5% | 0hPa | 2.5V | 00:00:00 | 00:00:00 | 00:00:00 | |
| OM5KV | 2026-09-06 03:52:47 | 46.35283 | 16.71228 | 134° | 80km/h | 8673m | -3.5m/s | -28.8°C | 24.0% | 0hPa | 2.5V | 07:56:00 | 00:00:00 | 00:00:00 | |
| OE3JTB-15 | 2026-09-06 03:52:22 | 46.35599 | 16.70618 | 125° | 97km/h | 8759m | -3.4m/s | -29.5°C | 27.7% | 0hPa | 2.5V | 00:00:00 | 02:05:59 | 00:00:00 | |
| PETON7-10 | 2026-09-06 03:52:06 | 46.35838 | 16.70174 | 132° | 95km/h | 8814m | -3.4m/s | -30.0°C | 28.1% | 0hPa | 2.5V | 00:00:00 | 02:05:43 | 00:00:00 | |
| OE3JTB-15 | 2026-09-06 03:51:53 | 46.36056 | 16.69843 | 137° | 84km/h | 8857m | -3.2m/s | -30.4°C | 28.0% | 0hPa | 2.5V | 00:00:00 | 00:00:00 | 00:00:00 | |
| PETON7-10 | 2026-09-06 03:51:51 | 46.36090 | 16.69797 | 137° | 84km/h | 8864m | -3.3m/s | -30.4°C | 27.9% | 0hPa | 2.6V | 00:00:00 | 00:00:00 | 00:00:00 | |
| PETON7-10 | 2026-09-06 03:51:36 | 46.36321 | 16.69478 | 134° | 80km/h | 8915m | -3.2m/s | -30.9°C | 28.2% | 0hPa | 2.5V | 07:56:00 | 00:00:00 | 00:00:00 | |
| PG1ADW-2 | 2026-09-06 03:51:26 | 46.36453 | 16.69256 | 132° | 84km/h | 8948m | -3.2m/s | -31.1°C | 26.5% | 0hPa | 2.5V | 00:00:00 | 02:05:03 | 00:00:00 | |
| OE3JTB-15 | 2026-09-06 03:51:24 | 46.36480 | 16.69213 | 133° | 88km/h | 8954m | -3.2m/s | -31.2°C | 26.0% | 0hPa | 2.5V | 00:00:00 | 00:00:00 | 00:00:00 | |
| PETON7-10 | 2026-09-06 03:51:21 | 46.36521 | 16.69149 | 133° | 84km/h | 8964m | -3.2m/s | -31.3°C | 26.4% | 0hPa | 2.5V | 00:00:00 | 02:04:58 | 00:00:00 | |
| PG1ADW-2 | 2026-09-06 03:51:06 | 46.36717 | 16.68782 | 128° | 93km/h | 9013m | -3.2m/s | -31.7°C | 27.8% | 0hPa | 2.5V | 00:00:00 | 00:00:00 | 00:00:00 | |
| OE3JTB-15 | 2026-09-06 03:50:55 | 46.36873 | 16.68479 | 127° | 88km/h | 9050m | -3.2m/s | -32.1°C | 28.4% | 0hPa | 2.5V | 00:00:00 | 02:04:32 | 00:00:00 | |
| PETON7-10 | 2026-09-06 03:50:51 | 46.36929 | 16.68368 | 127° | 89km/h | 9063m | -3.2m/s | -32.2°C | 28.7% | 0hPa | 2.5V | 00:00:00 | 00:00:00 | 00:00:00 | |
| PETON7-10 | 2026-09-06 03:50:36 | 46.37127 | 16.67973 | 131° | 82km/h | 9114m | -3.3m/s | -32.7°C | 29.3% | 0hPa | 2.5V | 00:00:00 | 02:04:13 | 00:00:00 | |
| OE3JTB-15 | 2026-09-06 03:50:26 | 46.37272 | 16.67761 | 137° | 78km/h | 9147m | -3.4m/s | -33.0°C | 29.6% | 0hPa | 2.5V | 00:00:00 | 00:00:00 | 00:00:00 | |
| PETON7-10 | 2026-09-06 03:50:21 | 46.37347 | 16.67656 | 136° | 78km/h | 9163m | -3.3m/s | -33.1°C | 30.1% | 0hPa | 2.5V | 00:00:00 | 00:00:00 | 00:00:00 | |
| PETON7-10 | 2026-09-06 03:50:06 | 46.37549 | 16.67347 | 130° | 75km/h | 9214m | -3.3m/s | -33.5°C | 29.3% | 0hPa | 2.6V | 00:00:00 | 00:00:00 | 00:00:00 | |
| OE3JTB-15 | 2026-09-06 03:49:57 | 46.37657 | 16.67157 | 130° | 88km/h | 9245m | -3.5m/s | -33.8°C | 29.3% | 0hPa | 2.6V | 00:00:00 | 00:00:00 | 00:00:00 | |
| PETON7-10 | 2026-09-06 03:49:51 | 46.37724 | 16.67021 | 123° | 88km/h | 9264m | -3.3m/s | -33.9°C | 28.6% | 0hPa | 2.6V | 00:00:00 | 02:03:28 | 00:00:00 | |
| PETON7-10 | 2026-09-06 03:49:36 | 46.37906 | 16.66618 | 129° | 91km/h | 9316m | -3.4m/s | -34.3°C | 27.9% | 0hPa | 2.6V | 07:58:00 | 00:00:00 | 00:00:00 | |
| OE3JTB-15 | 2026-09-06 03:49:28 | 46.38031 | 16.66410 | 134° | 82km/h | 9343m | -3.3m/s | -34.5°C | 26.7% | 0hPa | 2.6V | 07:58:00 | 02:03:05 | 00:00:00 | |
| PETON7-10 | 2026-09-06 03:49:21 | 46.38140 | 16.66250 | 135° | 82km/h | 9367m | -3.2m/s | -34.7°C | 25.8% | 0hPa | 2.6V | 00:00:00 | 00:00:00 | 00:00:00 | |
| PETON7-10 | 2026-09-06 03:49:06 | 46.38353 | 16.65925 | 129° | 77km/h | 9417m | -3.4m/s | -35.1°C | 25.6% | 0hPa | 2.6V | 00:00:00 | 02:02:43 | 00:00:00 | |
| OE3JTB-15 | 2026-09-06 03:48:59 | 46.38436 | 16.65767 | 126° | 78km/h | 9441m | -3.3m/s | -35.1°C | 24.4% | 0hPa | 2.6V | 00:00:00 | 00:00:00 | 00:00:00 | |
| PETON7-10 | 2026-09-06 03:48:51 | 46.38525 | 16.65587 | 126° | 77km/h | 9467m | -3.3m/s | -35.3°C | 23.9% | 0hPa | 2.5V | 00:00:00 | 00:00:00 | 00:00:00 | |
| PETON7-10 | 2026-09-06 03:48:36 | 46.38683 | 16.65231 | 121° | 84km/h | 9517m | -3.3m/s | -35.7°C | 23.8% | 0hPa | 2.5V | 00:00:00 | 00:00:00 | 00:00:00 | |
| OE3JTB-15 | 2026-09-06 03:48:30 | 46.38747 | 16.65073 | 121° | 89km/h | 9537m | -3.3m/s | -35.9°C | 24.6% | 0hPa | 2.5V | 00:00:00 | 00:00:00 | 00:00:00 | |
| OE5DRO-10 | 2026-09-06 03:48:22 | 46.38833 | 16.64858 | 120° | 88km/h | 9565m | -3.4m/s | -36.1°C | 25.4% | 0hPa | 2.5V | 00:00:00 | 00:00:00 | 00:00:00 | |
| PETON7-10 | 2026-09-06 03:48:21 | 46.38844 | 16.64831 | 120° | 91km/h | 9569m | -3.5m/s | -36.2°C | 25.4% | 0hPa | 2.6V | 00:00:00 | 02:01:58 | 00:00:00 | |
| PETON7-10 | 2026-09-06 03:48:06 | 46.39049 | 16.64430 | 130° | 93km/h | 9618m | -3.3m/s | -36.6°C | 26.8% | 0hPa | 2.6V | 08:00:00 | 00:00:00 | 00:00:00 | |
| OE3OSB-13 | 2026-09-06 03:48:04 | 46.39078 | 16.64378 | 129° | 91km/h | 9625m | -3.4m/s | -36.7°C | 23.5% | -1.0hPa | 2.5V | 00:00:00 | 00:00:00 | 00:00:00 | |
| OE3JTB-15 | 2026-09-06 03:48:01 | 46.39122 | 16.64299 | 129° | 86km/h | 9635m | -3.5m/s | -36.8°C | 27.0% | 0hPa | 2.5V | 00:00:00 | 02:01:38 | 00:00:00 | |
| PETON7-10 | 2026-09-06 03:47:51 | 46.39262 | 16.64017 | 121° | 80km/h | 9671m | -3.5m/s | -37.0°C | 26.1% | 0hPa | 2.5V | 00:00:00 | 00:00:00 | 00:00:00 | |
| OE5DRO-10 | 2026-09-06 03:47:42 | 46.39371 | 16.63805 | 133° | 95km/h | 9702m | -3.4m/s | -37.2°C | 25.9% | 0hPa | 2.5V | 00:00:00 | 00:00:00 | 00:00:00 | |
| PETON7-10 | 2026-09-06 03:47:36 | 46.39452 | 16.63680 | 136° | 97km/h | 9724m | -3.4m/s | -37.4°C | 26.0% | 0hPa | 2.5V | 00:00:00 | 02:01:13 | 00:00:00 | |
| OE3JTB-15 | 2026-09-06 03:47:32 | 46.39516 | 16.63580 | 129° | 97km/h | 9738m | -3.4m/s | -37.6°C | 26.2% | 0hPa | 2.5V | 08:00:00 | 00:00:00 | 00:00:00 | |
| OE5DRO-10 | 2026-09-06 03:47:23 | 46.39649 | 16.63322 | 130° | 97km/h | 9768m | -3.3m/s | -37.8°C | 26.3% | 0hPa | 2.5V | 00:00:00 | 00:00:00 | 00:00:00 | |
| PETON7-10 | 2026-09-06 03:47:21 | 46.39681 | 16.63268 | 132° | 97km/h | 9775m | -3.4m/s | -37.9°C | 26.3% | 0hPa | 2.5V | 00:00:00 | 00:00:00 | 00:00:00 | |
| PETON7-10 | 2026-09-06 03:47:06 | 46.39930 | 16.62880 | 137° | 89km/h | 9826m | -3.2m/s | -38.3°C | 25.9% | 0hPa | 2.6V | 00:00:00 | 00:00:00 | 00:00:00 | |
| OE5DRO-10 | 2026-09-06 03:47:04 | 46.39962 | 16.62835 | 137° | 93km/h | 9833m | -3.3m/s | -38.3°C | 25.7% | 0hPa | 2.6V | 08:01:00 | 00:00:00 | 00:00:00 | |
| OE3JTB-15 | 2026-09-06 03:47:03 | 46.39979 | 16.62812 | 137° | 86km/h | 9836m | -3.3m/s | -38.4°C | 25.6% | 0hPa | 2.5V | 00:00:00 | 00:00:00 | 00:00:00 | |
| OE3OSB-13 | 2026-09-06 03:47:02 | 46.39995 | 16.62790 | 136° | 88km/h | 9839m | -3.4m/s | -38.4°C | 22.1% | -1.0hPa | 2.5V | 00:00:00 | 00:00:00 | 00:00:00 | |
| PETON7-10 | 2026-09-06 03:46:51 | 46.40176 | 16.62543 | 137° | 84km/h | 9877m | -3.3m/s | -38.7°C | 25.6% | 0hPa | 2.5V | 00:00:00 | 02:00:28 | 00:00:00 | |
| PETON7-10 | 2026-09-06 03:46:36 | 46.40393 | 16.62212 | 127° | 89km/h | 9928m | -3.4m/s | -39.1°C | 26.0% | 0hPa | 2.5V | 00:00:00 | 00:00:00 | 00:00:00 | |
| PG1ADW-2 | 2026-09-06 03:46:35 | 46.40406 | 16.62187 | 126° | 93km/h | 9931m | -3.2m/s | -39.1°C | 26.2% | 0hPa | 2.6V | 08:01:00 | 00:00:00 | 00:00:00 | |
| OE3JTB-15 | 2026-09-06 03:46:34 | 46.40419 | 16.62161 | 126° | 95km/h | 9935m | -3.3m/s | -39.2°C | 26.2% | 0hPa | 2.5V | 00:00:00 | 02:00:11 | 00:00:00 | |
| PETON7-10 | 2026-09-06 03:46:21 | 46.40590 | 16.61807 | 127° | 99km/h | 9978m | -3.1m/s | -39.6°C | 26.3% | 0hPa | 2.5V | 00:00:00 | 00:00:00 | 00:00:00 | |
| PG1ADW-2 | 2026-09-06 03:46:15 | 46.40684 | 16.61636 | 130° | 91km/h | 9998m | -3.1m/s | -39.7°C | 26.4% | 0hPa | 2.5V | 00:00:00 | 00:00:00 | 00:00:00 | |
| PETON7-10 | 2026-09-06 03:46:06 | 46.40836 | 16.61395 | 137° | 86km/h | 10027m | -3.2m/s | -40.0°C | 28.1% | 0hPa | 2.5V | 00:00:00 | 01:59:43 | 00:00:00 | |
| PG1ADW-2 | 2026-09-06 03:45:52 | 46.41057 | 16.61088 | 134° | 88km/h | 10073m | -3.3m/s | -40.4°C | 28.4% | 0hPa | 2.5V | 00:00:00 | 01:59:29 | 00:00:00 | |
| PETON7-10 | 2026-09-06 03:45:51 | 46.41071 | 16.61066 | 133° | 86km/h | 10076m | -3.2m/s | -40.5°C | 28.5% | 0hPa | 2.5V | 08:02:00 | 00:00:00 | 00:00:00 | |
| PETON7-10 | 2026-09-06 03:45:36 | 46.41264 | 16.60689 | 126° | 99km/h | 10126m | -3.2m/s | -40.9°C | 29.1% | 0hPa | 2.6V | 00:00:00 | 00:00:00 | 00:00:00 | |
| PG1ADW-2 | 2026-09-06 03:45:32 | 46.41321 | 16.60575 | 127° | 102km/h | 10139m | -3.3m/s | -41.0°C | 29.6% | 0hPa | 2.6V | 00:00:00 | 00:00:00 | 00:00:00 | |
| PETON7-10 | 2026-09-06 03:45:21 | 46.41489 | 16.60253 | 129° | 100km/h | 10176m | -3.5m/s | -41.3°C | 31.1% | 0hPa | 2.6V | 00:00:00 | 01:58:58 | 00:00:00 | |
| PG1ADW-2 | 2026-09-06 03:45:12 | 46.41649 | 16.60001 | 138° | 91km/h | 10206m | -3.1m/s | -41.6°C | 32.8% | 0hPa | 2.6V | 00:00:00 | 00:00:00 | 00:00:00 | |
| OE3JTB-15 | 2026-09-06 03:45:07 | 46.41740 | 16.59883 | 138° | 93km/h | 10223m | -3.3m/s | -41.7°C | 33.8% | 0hPa | 2.6V | 00:00:00 | 01:58:44 | 00:00:00 | |
| PETON7-10 | 2026-09-06 03:45:06 | 46.41757 | 16.59861 | 138° | 89km/h | 10226m | -3.2m/s | -41.7°C | 34.0% | 0hPa | 2.6V | 00:00:00 | 00:00:00 | 00:00:00 | |
| OE5DRO-10 | 2026-09-06 03:45:03 | 46.41806 | 16.59793 | 135° | 91km/h | 10236m | -3.2m/s | -41.8°C | 34.3% | 0hPa | 2.6V | 00:00:00 | 00:00:00 | 00:00:00 | |
| PG1ADW-2 | 2026-09-06 03:44:52 | 46.41965 | 16.59512 | 127° | 99km/h | 10271m | -3.1m/s | -42.1°C | 37.8% | 0hPa | 2.6V | 00:00:00 | 00:00:00 | 00:00:00 | |
| PETON7-10 | 2026-09-06 03:44:51 | 46.41980 | 16.59485 | 127° | 97km/h | 10275m | -3.2m/s | -42.1°C | 38.1% | 0hPa | 2.6V | 00:00:00 | 00:00:00 | 00:00:00 | |
| OE5DRO-10 | 2026-09-06 03:44:44 | 46.42079 | 16.59288 | 127° | 104km/h | 10298m | -3.3m/s | -42.2°C | 35.9% | 0hPa | 2.6V | 00:00:00 | 00:00:00 | 00:00:00 | |
| OE3JTB-15 | 2026-09-06 03:44:38 | 46.42165 | 16.59114 | 125° | 104km/h | 10317m | -3.1m/s | -42.3°C | 35.9% | 0hPa | 2.6V | 00:00:00 | 00:00:00 | 00:00:00 | |
| PETON7-10 | 2026-09-06 03:44:36 | 46.42195 | 16.59053 | 125° | 110km/h | 10324m | -3.3m/s | -42.4°C | 36.1% | 0hPa | 2.6V | 00:00:00 | 01:58:13 | 00:00:00 | |
| PG1ADW-2 | 2026-09-06 03:44:32 | 46.42256 | 16.58926 | 126° | 104km/h | 10338m | -3.3m/s | -42.5°C | 36.8% | 0hPa | 2.6V | 00:00:00 | 01:58:09 | 00:00:00 | |
| OE5DRO-10 | 2026-09-06 03:44:25 | 46.42383 | 16.58705 | 136° | 100km/h | 10360m | -3.1m/s | -42.7°C | 37.2% | 0hPa | 2.5V | 00:00:00 | 00:00:00 | 00:00:00 | |
| PETON7-10 | 2026-09-06 03:44:21 | 46.42460 | 16.58597 | 136° | 99km/h | 10373m | -3.0m/s | -42.8°C | 37.3% | 0hPa | 2.6V | 00:00:00 | 00:00:00 | 00:00:00 | |
| PG1ADW-2 | 2026-09-06 03:44:12 | 46.42614 | 16.58370 | 135° | 106km/h | 10402m | -3.2m/s | -43.0°C | 37.2% | 0hPa | 2.5V | 00:00:00 | 00:00:00 | 00:00:00 | |
| OE3JTB-15 | 2026-09-06 03:44:09 | 46.42667 | 16.58293 | 136° | 104km/h | 10412m | -3.2m/s | -43.1°C | 36.9% | 0hPa | 2.5V | 00:00:00 | 00:00:00 | 00:00:00 | |
| PETON7-10 | 2026-09-06 03:44:06 | 46.42723 | 16.58213 | 135° | 108km/h | 10421m | -3.3m/s | -43.2°C | 37.2% | 0hPa | 2.5V | 00:00:00 | 00:00:00 | 00:00:00 | |
| OE8JPQ-2 | 2026-09-06 03:44:00 | 46.42835 | 16.58054 | 137° | 106km/h | 10442m | -3.5m/s | -43.4°C | 37.7% | 0hPa | 2.5V | 00:00:00 | 01:57:37 | 00:00:00 | |
| PG1ADW-2 | 2026-09-06 03:43:52 | 46.42988 | 16.57812 | 126° | 106km/h | 10477m | -4.5m/s | -43.7°C | 37.3% | 0hPa | 2.5V | 00:00:00 | 00:00:00 | 00:00:00 | |
| PETON7-10 | 2026-09-06 03:43:51 | 46.43005 | 16.57779 | 125° | 102km/h | 10481m | -4.4m/s | -43.8°C | 37.3% | 0hPa | 2.5V | 00:00:00 | 01:57:28 | 00:00:00 | |
| OE5DRO-10 | 2026-09-06 03:43:45 | 46.43092 | 16.57601 | 131° | 106km/h | 10508m | -4.4m/s | -44.0°C | 36.5% | 0hPa | 2.5V | 00:00:00 | 00:00:00 | 00:00:00 | |
| OE3JTB-15 | 2026-09-06 03:43:40 | 46.43178 | 16.57476 | 138° | 108km/h | 10531m | -4.6m/s | -44.2°C | 36.0% | 0hPa | 2.5V | 00:00:00 | 01:57:17 | 00:00:00 | |
| OE8JPQ-2 | 2026-09-06 03:43:38 | 46.43218 | 16.57422 | 136° | 111km/h | 10540m | -4.6m/s | -44.3°C | 36.2% | 0hPa | 2.5V | 00:00:00 | 00:00:00 | 00:00:00 | |
| PETON7-10 | 2026-09-06 03:43:36 | 46.43258 | 16.57362 | 133° | 104km/h | 10549m | -4.4m/s | -44.4°C | 36.3% | 0hPa | 2.6V | 08:04:00 | 00:00:00 | 00:00:00 | |
| PG1ADW-2 | 2026-09-06 03:43:32 | 46.43333 | 16.57232 | 127° | 104km/h | 10567m | -4.7m/s | -44.5°C | 36.6% | 0hPa | 2.6V | 08:04:00 | 00:00:00 | 00:00:00 | |
| OE5DRO-10 | 2026-09-06 03:43:26 | 46.43424 | 16.57044 | 126° | 106km/h | 10595m | -4.7m/s | -44.8°C | 37.9% | 0hPa | 2.6V | 00:00:00 | 00:00:00 | 00:00:00 | |
| PETON7-10 | 2026-09-06 03:43:21 | 46.43501 | 16.56914 | 136° | 110km/h | 10618m | -4.6m/s | -45.0°C | 38.5% | 0hPa | 2.5V | 00:00:00 | 00:00:00 | 00:00:00 | |
| PG1ADW-2 | 2026-09-06 03:43:12 | 46.43672 | 16.56647 | 129° | 104km/h | 10658m | -4.6m/s | -45.3°C | 37.8% | 0hPa | 2.5V | 00:00:00 | 01:56:49 | 00:00:00 | |
| OE3JTB-15 | 2026-09-06 03:43:11 | 46.43690 | 16.56614 | 128° | 104km/h | 10663m | -4.5m/s | -45.4°C | 37.8% | 0hPa | 2.5V | 08:05:00 | 00:00:00 | 00:00:00 | |
| OE5DRO-10 | 2026-09-06 03:43:07 | 46.43753 | 16.56480 | 123° | 102km/h | 10680m | -4.2m/s | -45.5°C | 36.4% | 0hPa | 2.5V | 00:00:00 | 00:00:00 | 00:00:00 | |
| PETON7-10 | 2026-09-06 03:43:06 | 46.43767 | 16.56448 | 123° | 100km/h | 10685m | -4.5m/s | -45.5°C | 35.8% | 0hPa | 2.5V | 00:00:00 | 01:56:43 | 00:00:00 | |
| PG1ADW-2 | 2026-09-06 03:42:52 | 46.43998 | 16.56059 | 129° | 100km/h | 10749m | -4.4m/s | -45.8°C | 31.6% | 0hPa | 2.5V | 00:00:00 | 00:00:00 | 00:00:00 | |
| PETON7-10 | 2026-09-06 03:42:51 | 46.44015 | 16.56026 | 127° | 100km/h | 10754m | -4.3m/s | -45.8°C | 31.1% | 0hPa | 2.5V | 00:00:00 | 00:00:00 | 00:00:00 | |
| OE5DRO-10 | 2026-09-06 03:42:48 | 46.44063 | 16.55925 | 124° | 102km/h | 10768m | -4.8m/s | -45.9°C | 29.6% | 0hPa | 2.6V | 00:00:00 | 00:00:00 | 00:00:00 | |
| OE3JTB-15 | 2026-09-06 03:42:42 | 46.44148 | 16.55750 | 131° | 102km/h | 10795m | -4.4m/s | -45.8°C | 27.1% | 0hPa | 2.6V | 00:00:00 | 00:00:00 | 00:00:00 | |
| PETON7-10 | 2026-09-06 03:42:36 | 46.44253 | 16.55602 | 139° | 104km/h | 10823m | -4.8m/s | -46.0°C | 26.8% | 0hPa | 2.6V | 00:00:00 | 00:00:00 | 00:00:00 | |
| OE5DRO-10 | 2026-09-06 03:42:29 | 46.44386 | 16.55388 | 125° | 102km/h | 10856m | -4.2m/s | -46.3°C | 26.9% | 0hPa | 2.6V | 08:05:00 | 00:00:00 | 00:00:00 | |
| PG1ADW-2 | 2026-09-06 03:42:27 | 46.44414 | 16.55325 | 124° | 102km/h | 10866m | -4.8m/s | -46.4°C | 27.0% | 0hPa | 2.5V | 00:00:00 | 00:00:00 | 00:00:00 | |
| PETON7-10 | 2026-09-06 03:42:21 | 46.44503 | 16.55169 | 137° | 104km/h | 10894m | -4.6m/s | -46.6°C | 26.4% | 0hPa | 2.6V | 00:00:00 | 01:55:58 | 00:00:00 | |
| OE8JPQ-2 | 2026-09-06 03:42:18 | 46.44558 | 16.55094 | 137° | 97km/h | 10908m | -4.4m/s | -46.7°C | 25.8% | 0hPa | 2.6V | 00:00:00 | 00:00:00 | 00:00:00 | |
| OE3JTB-15 | 2026-09-06 03:42:13 | 46.44653 | 16.54944 | 128° | 100km/h | 10931m | -4.4m/s | -46.8°C | 24.4% | 0hPa | 2.6V | 00:00:00 | 01:55:50 | 00:00:00 | |
| OE5DRO-10 | 2026-09-06 03:42:10 | 46.44699 | 16.54847 | 124° | 99km/h | 10944m | -4.6m/s | -46.9°C | 23.8% | 0hPa | 2.6V | 00:00:00 | 00:00:00 | 00:00:00 | |
| PETON7-10 | 2026-09-06 03:42:06 | 46.44753 | 16.54726 | 124° | 97km/h | 10964m | -4.8m/s | -47.0°C | 23.8% | 0hPa | 2.6V | 00:00:00 | 00:00:00 | 00:00:00 | |
| OE8JPQ-2 | 2026-09-06 03:41:57 | 46.44890 | 16.54501 | 138° | 100km/h | 11007m | -4.4m/s | -47.4°C | 22.9% | 0hPa | 2.5V | 00:00:00 | 01:55:34 | 00:00:00 | |
| PETON7-10 | 2026-09-06 03:41:51 | 46.45005 | 16.54331 | 131° | 97km/h | 11036m | -4.9m/s | -47.6°C | 21.1% | 0hPa | 2.5V | 00:00:00 | 00:00:00 | 00:00:00 | |
| OE3JTB-15 | 2026-09-06 03:41:44 | 46.45112 | 16.54118 | 127° | 97km/h | 11069m | -4.8m/s | -47.9°C | 20.9% | 0hPa | 2.5V | 00:00:00 | 00:00:00 | 00:00:00 | |
| OE8JPQ-2 | 2026-09-06 03:41:37 | 46.45221 | 16.53951 | 139° | 106km/h | 11103m | -5.1m/s | -48.2°C | 21.5% | 0hPa | 2.6V | 08:06:00 | 00:00:00 | 00:00:00 | |
| PETON7-10 | 2026-09-06 03:41:36 | 46.45240 | 16.53927 | 139° | 100km/h | 11108m | -5.0m/s | -48.2°C | 21.6% | 0hPa | 2.5V | 00:00:00 | 01:55:13 | 00:00:00 | |
| PG1ADW-2 | 2026-09-06 03:41:34 | 46.45279 | 16.53876 | 137° | 100km/h | 11118m | -4.8m/s | -48.3°C | 21.9% | 0hPa | 2.5V | 00:00:00 | 01:55:11 | 00:00:00 | |
| OE5DRO-10 | 2026-09-06 03:41:32 | 46.45319 | 16.53818 | 133° | 99km/h | 11128m | -5.0m/s | -48.4°C | 22.2% | 0hPa | 2.5V | 00:00:00 | 00:00:00 | 00:00:00 | |
| PETON7-10 | 2026-09-06 03:41:21 | 46.45485 | 16.53506 | 136° | 104km/h | 11182m | -4.7m/s | -49.0°C | 23.0% | 0hPa | 2.5V | 08:07:00 | 00:00:00 | 00:00:00 | |
| OE3JTB-15 | 2026-09-06 03:41:15 | 46.45597 | 16.53362 | 138° | 104km/h | 11212m | -5.0m/s | -49.2°C | 23.7% | 0hPa | 2.5V | 00:00:00 | 00:00:00 | 00:00:00 | |
| PG1ADW-2 | 2026-09-06 03:41:14 | 46.45617 | 16.53335 | 136° | 102km/h | 11217m | -4.9m/s | -49.3°C | 23.9% | 0hPa | 2.5V | 00:00:00 | 00:00:00 | 00:00:00 | |
| OE5DRO-10 | 2026-09-06 03:41:13 | 46.45637 | 16.53306 | 134° | 102km/h | 11222m | -4.9m/s | -49.3°C | 24.0% | 0hPa | 2.6V | 00:00:00 | 00:00:00 | 00:00:00 | |
| OE8JPQ-2 | 2026-09-06 03:41:08 | 46.45724 | 16.53147 | 125° | 110km/h | 11247m | -4.9m/s | -49.6°C | 24.7% | 0hPa | 2.6V | 00:00:00 | 00:00:00 | 00:00:00 | |
| PETON7-10 | 2026-09-06 03:41:06 | 46.45752 | 16.53089 | 126° | 102km/h | 11257m | -4.8m/s | -49.7°C | 25.0% | 0hPa | 2.6V | 00:00:00 | 00:00:00 | 00:00:00 | |
| PG1ADW-2 | 2026-09-06 03:40:54 | 46.45968 | 16.52781 | 132° | 104km/h | 11315m | -4.6m/s | -50.2°C | 26.0% | 0hPa | 2.6V | 00:00:00 | 00:00:00 | 00:00:00 | |
| PETON7-10 | 2026-09-06 03:40:51 | 46.46023 | 16.52687 | 129° | 100km/h | 11330m | -4.7m/s | -50.4°C | 26.2% | 0hPa | 2.6V | 00:00:00 | 01:54:28 | 00:00:00 | |
| OE8JPQ-2 | 2026-09-06 03:40:47 | 46.46090 | 16.52559 | 125° | 104km/h | 11350m | -5.1m/s | -50.5°C | 26.7% | 0hPa | 2.6V | 00:00:00 | 01:54:24 | 00:00:00 | |
| OE3JTB-15 | 2026-09-06 03:40:46 | 46.46104 | 16.52528 | 125° | 102km/h | 11356m | -5.3m/s | -50.6°C | 26.9% | 0hPa | 2.6V | 00:00:00 | 01:54:23 | 00:00:00 | |
| PETON7-10 | 2026-09-06 03:40:36 | 46.46277 | 16.52273 | 138° | 104km/h | 11405m | -4.9m/s | -50.8°C | 27.6% | 0hPa | 2.6V | 00:00:00 | 00:00:00 | 00:00:00 | |
| OE5DRO-10 | 2026-09-06 03:40:35 | 46.46298 | 16.52245 | 137° | 104km/h | 11410m | -5.2m/s | -50.9°C | 27.6% | 0hPa | 2.5V | 00:00:00 | 00:00:00 | 00:00:00 | |
| PG1ADW-2 | 2026-09-06 03:40:34 | 46.46319 | 16.52215 | 135° | 104km/h | 11416m | -5.2m/s | -50.9°C | 27.6% | 0hPa | 2.5V | 00:00:00 | 00:00:00 | 00:00:00 | |
| PETON7-10 | 2026-09-06 03:40:21 | 46.46536 | 16.51847 | 140° | 110km/h | 11481m | -5.4m/s | -51.4°C | 28.8% | 0hPa | 2.5V | 00:00:00 | 00:00:00 | 00:00:00 | |
| OE3JTB-15 | 2026-09-06 03:40:17 | 46.46617 | 16.51751 | 140° | 106km/h | 11502m | -5.0m/s | -51.6°C | 29.5% | 0hPa | 2.5V | 00:00:00 | 00:00:00 | 00:00:00 | |
| OE5DRO-10 | 2026-09-06 03:40:16 | 46.46638 | 16.51724 | 139° | 104km/h | 11507m | -5.0m/s | -51.7°C | 29.5% | 0hPa | 2.5V | 00:00:00 | 00:00:00 | 00:00:00 | |
| PG1ADW-2 | 2026-09-06 03:40:14 | 46.46681 | 16.51666 | 136° | 102km/h | 11517m | -5.2m/s | -51.8°C | 29.9% | 0hPa | 2.5V | 08:08:00 | 01:53:51 | 00:00:00 | |
| PETON7-10 | 2026-09-06 03:40:06 | 46.46825 | 16.51422 | 130° | 100km/h | 11559m | -5.1m/s | -52.2°C | 31.3% | 0hPa | 2.5V | 00:00:00 | 01:53:43 | 00:00:00 | |
| OE5DRO-10 | 2026-09-06 03:39:57 | 46.46980 | 16.51207 | 143° | 104km/h | 11605m | -5.8m/s | -52.6°C | 34.3% | 0hPa | 2.5V | 00:00:00 | 00:00:00 | 00:00:00 | |
| PG1ADW-2 | 2026-09-06 03:39:54 | 46.47043 | 16.51135 | 141° | 104km/h | 11622m | -5.2m/s | -52.8°C | 36.0% | 0hPa | 2.5V | 00:00:00 | 00:00:00 | 00:00:00 | |
| PETON7-10 | 2026-09-06 03:39:51 | 46.47109 | 16.51049 | 134° | 100km/h | 11638m | -5.2m/s | -52.9°C | 36.3% | 0hPa | 2.5V | 00:00:00 | 00:00:00 | 00:00:00 | |
| OE8JPQ-2 | 2026-09-06 03:39:48 | 46.47164 | 16.50955 | 129° | 104km/h | 11654m | -5.4m/s | -53.1°C | 36.6% | 0hPa | 2.6V | 00:00:00 | 00:00:00 | 00:00:00 | |
| OE5DRO-10 | 2026-09-06 03:39:38 | 46.47334 | 16.50707 | 143° | 104km/h | 11708m | -5.5m/s | -53.6°C | 40.7% | 0hPa | 2.5V | 08:08:00 | 00:00:00 | 00:00:00 | |
| PETON7-10 | 2026-09-06 03:39:36 | 46.47375 | 16.50662 | 144° | 106km/h | 11719m | -5.6m/s | -53.7°C | 41.6% | 0hPa | 2.5V | 00:00:00 | 00:00:00 | 00:00:00 | |
| PG1ADW-2 | 2026-09-06 03:39:34 | 46.47420 | 16.50612 | 142° | 104km/h | 11730m | -5.6m/s | -53.8°C | 41.8% | 0hPa | 2.5V | 00:00:00 | 00:00:00 | 00:00:00 | |
| OE8JPQ-2 | 2026-09-06 03:39:28 | 46.47540 | 16.50434 | 129° | 104km/h | 11763m | -5.4m/s | -54.1°C | 41.9% | 0hPa | 2.5V | 00:00:00 | 00:00:00 | 00:00:00 | |
| PETON7-10 | 2026-09-06 03:39:21 | 46.47652 | 16.50253 | 140° | 110km/h | 11801m | -5.5m/s | -54.4°C | 42.9% | 0hPa | 2.5V | 00:00:00 | 01:52:58 | 00:00:00 | |
| OE5DRO-10 | 2026-09-06 03:39:19 | 46.47690 | 16.50210 | 143° | 106km/h | 11813m | -5.7m/s | -54.6°C | 43.0% | 0hPa | 2.5V | 00:00:00 | 00:00:00 | 00:00:00 | |
| PG1ADW-2 | 2026-09-06 03:39:14 | 46.47797 | 16.50085 | 140° | 106km/h | 11839m | -5.6m/s | -54.8°C | 43.6% | 0hPa | 2.5V | 00:00:00 | 00:00:00 | 00:00:00 | |
| OE5DXL-15 | 2026-09-06 03:39:11 | 46.47863 | 16.49996 | 135° | 102km/h | 11856m | -5.5m/s | -55.0°C | 44.0% | 0hPa | 2.6V | 00:00:00 | 00:00:00 | 00:00:00 | |
| OE8JPQ-2 | 2026-09-06 03:39:08 | 46.47920 | 16.49901 | 129° | 104km/h | 11873m | -5.6m/s | -55.1°C | 44.6% | 0hPa | 2.5V | 00:00:00 | 01:52:45 | 00:00:00 | |
| PETON7-10 | 2026-09-06 03:39:06 | 46.47954 | 16.49841 | 129° | 102km/h | 11884m | -5.7m/s | -55.2°C | 45.0% | 0hPa | 2.5V | 08:09:00 | 00:00:00 | 00:00:00 | |
| OE5DRO-10 | 2026-09-06 03:39:00 | 46.48052 | 16.49693 | 142° | 104km/h | 11917m | -5.4m/s | -55.5°C | 46.0% | 0hPa | 2.5V | 00:00:00 | 00:00:00 | 00:00:00 | |
| PG1ADW-2 | 2026-09-06 03:38:54 | 46.48179 | 16.49547 | 137° | 104km/h | 11952m | -5.4m/s | -55.8°C | 48.9% | 0hPa | 2.5V | 00:00:00 | 01:52:31 | 00:00:00 | |
| PETON7-10 | 2026-09-06 03:38:51 | 46.48238 | 16.49453 | 130° | 100km/h | 11968m | -5.8m/s | -55.9°C | 49.9% | 0hPa | 2.5V | 00:00:00 | 00:00:00 | 00:00:00 | |
| OE8JPQ-2 | 2026-09-06 03:38:48 | 46.48289 | 16.49360 | 128° | 102km/h | 11985m | -5.5m/s | -56.1°C | 50.9% | 0hPa | 2.5V | 00:00:00 | 00:00:00 | 00:00:00 | |
| OE5DXL-15 | 2026-09-06 03:38:41 | 46.48402 | 16.49185 | 142° | 106km/h | 12024m | -5.5m/s | -56.4°C | 52.9% | 0hPa | 2.6V | 00:00:00 | 00:00:00 | 00:00:00 | |
| PETON7-10 | 2026-09-06 03:38:36 | 46.48507 | 16.49066 | 140° | 102km/h | 12052m | -6.0m/s | -56.7°C | 54.8% | 0hPa | 2.6V | 00:00:00 | 01:52:13 | 00:00:00 | |
| PG1ADW-2 | 2026-09-06 03:38:34 | 46.48551 | 16.49008 | 135° | 104km/h | 12064m | -5.6m/s | -56.8°C | 55.4% | 0hPa | 2.6V | 00:00:00 | 00:00:00 | 00:00:00 | |
| OE8JPQ-2 | 2026-09-06 03:38:28 | 46.48653 | 16.48829 | 131° | 102km/h | 12097m | -5.5m/s | -57.0°C | 55.3% | 0hPa | 2.6V | 00:00:00 | 00:00:00 | 00:00:00 | |
| OE5DRO-10 | 2026-09-06 03:38:22 | 46.48756 | 16.48696 | 143° | 106km/h | 12132m | -5.9m/s | -57.2°C | 54.6% | 0hPa | 2.6V | 00:00:00 | 00:00:00 | 00:00:00 | |
| PETON7-10 | 2026-09-06 03:38:21 | 46.48776 | 16.48673 | 143° | 110km/h | 12137m | -5.5m/s | -57.3°C | 54.6% | 0hPa | 2.6V | 00:00:00 | 00:00:00 | 00:00:00 | |
| PG1ADW-2 | 2026-09-06 03:38:14 | 46.48918 | 16.48473 | 133° | 104km/h | 12174m | -5.2m/s | -57.6°C | 55.0% | 0hPa | 2.6V | 00:00:00 | 00:00:00 | 00:00:00 | |
| OE5DXL-15 | 2026-09-06 03:38:11 | 46.48976 | 16.48380 | 131° | 104km/h | 12191m | -5.5m/s | -57.8°C | 56.6% | 0hPa | 2.5V | 00:00:00 | 00:00:00 | 00:00:00 | |
| OE8JPQ-2 | 2026-09-06 03:38:08 | 46.49027 | 16.48287 | 129° | 104km/h | 12207m | -5.3m/s | -57.9°C | 57.3% | 0hPa | 2.5V | 00:00:00 | 01:51:45 | 00:00:00 | |
| PETON7-10 | 2026-09-06 03:38:06 | 46.49058 | 16.48232 | 131° | 102km/h | 12218m | -5.5m/s | -58.0°C | 58.4% | 0hPa | 2.5V | 00:00:00 | 00:00:00 | 00:00:00 | |
| OE5DRO-10 | 2026-09-06 03:38:03 | 46.49107 | 16.48159 | 139° | 106km/h | 12234m | -4.9m/s | -58.2°C | 60.4% | 0hPa | 2.5V | 00:00:00 | 00:00:00 | 00:00:00 | |
| PG1ADW-2 | 2026-09-06 03:37:54 | 46.49292 | 16.47949 | 140° | 102km/h | 12283m | -5.3m/s | -58.6°C | 64.2% | 0hPa | 2.5V | 00:00:00 | 00:00:00 | 00:00:00 | |
| PETON7-10 | 2026-09-06 03:37:51 | 46.49355 | 16.47862 | 134° | 100km/h | 12298m | -5.3m/s | -58.7°C | 64.5% | 0hPa | 2.5V | 00:00:00 | 01:51:28 | 00:00:00 | |
| OE8JPQ-2 | 2026-09-06 03:37:48 | 46.49411 | 16.47769 | 130° | 108km/h | 12315m | -5.3m/s | -58.8°C | 65.0% | 0hPa | 2.5V | 08:10:00 | 00:00:00 | 00:00:00 | |
| OE5DRO-10 | 2026-09-06 03:37:44 | 46.49475 | 16.47653 | 131° | 106km/h | 12336m | -5.1m/s | -59.0°C | 64.5% | 0hPa | 2.6V | 00:00:00 | 00:00:00 | 00:00:00 | |
| OE5DXL-15 | 2026-09-06 03:37:41 | 46.49523 | 16.47581 | 138° | 106km/h | 12352m | -5.1m/s | -59.2°C | 63.7% | 0hPa | 2.5V | 00:00:00 | 00:00:00 | 00:00:00 | |
| PG1ADW-2 | 2026-09-06 03:37:34 | 46.49658 | 16.47425 | 143° | 108km/h | 12390m | -5.7m/s | -59.5°C | 63.0% | 0hPa | 2.5V | 00:00:00 | 01:51:11 | 00:00:00 | |
| OE8JPQ-2 | 2026-09-06 03:37:26 | 46.49834 | 16.47197 | 131° | 110km/h | 12437m | -5.2m/s | -59.8°C | 63.4% | 0hPa | 2.5V | 00:00:00 | 00:00:00 | 00:00:00 | |
| OE5DRO-10 | 2026-09-06 03:37:25 | 46.49853 | 16.47164 | 130° | 110km/h | 12442m | -5.6m/s | -59.8°C | 63.2% | 0hPa | 2.5V | 00:00:00 | 00:00:00 | 00:00:00 | |
| PETON7-10 | 2026-09-06 03:37:21 | 46.49920 | 16.47050 | 134° | 111km/h | 12464m | -5.8m/s | -60.0°C | 63.6% | 0hPa | 2.5V | 00:00:00 | 00:00:00 | 00:00:00 | |
| PG1ADW-2 | 2026-09-06 03:37:14 | 46.50058 | 16.46886 | 143° | 111km/h | 12504m | -5.5m/s | -60.4°C | 63.8% | 0hPa | 2.5V | 08:11:00 | 00:00:00 | 00:00:00 | |
| OE5DXL-15 | 2026-09-06 03:37:11 | 46.50127 | 16.46802 | 138° | 113km/h | 12521m | -5.8m/s | -60.5°C | 63.8% | 0hPa | 2.5V | 00:00:00 | 00:00:00 | 00:00:00 | |
| PETON7-10 | 2026-09-06 03:37:06 | 46.50238 | 16.46645 | 133° | 106km/h | 12550m | -6.0m/s | -60.8°C | 64.6% | 0hPa | 2.5V | 00:00:00 | 01:50:43 | 00:00:00 | |
| PG1ADW-2 | 2026-09-06 03:36:54 | 46.50464 | 16.46333 | 145° | 111km/h | 12619m | -5.6m/s | -61.4°C | 64.8% | 0hPa | 2.5V | 00:00:00 | 00:00:00 | 00:00:00 | |
| PETON7-10 | 2026-09-06 03:36:51 | 46.50534 | 16.46261 | 145° | 113km/h | 12636m | -5.8m/s | -61.5°C | 64.5% | 0hPa | 2.5V | 08:11:00 | 00:00:00 | 00:00:00 | |
| OE5DRO-10 | 2026-09-06 03:36:47 | 46.50631 | 16.46147 | 137° | 113km/h | 12659m | -5.6m/s | -61.8°C | 64.7% | 0hPa | 2.6V | 08:11:00 | 00:00:00 | 00:00:00 | |
| OE8JPQ-2 | 2026-09-06 03:36:42 | 46.50732 | 16.45989 | 132° | 113km/h | 12688m | -5.6m/s | -62.1°C | 64.5% | 0hPa | 2.5V | 00:00:00 | 00:00:00 | 00:00:00 | |
| OE5DXL-15 | 2026-09-06 03:36:41 | 46.50750 | 16.45960 | 134° | 111km/h | 12694m | -5.5m/s | -62.1°C | 64.5% | 0hPa | 2.5V | 00:00:00 | 00:00:00 | 00:00:00 | |
| PETON7-10 | 2026-09-06 03:36:36 | 46.50845 | 16.45842 | 145° | 117km/h | 12723m | -5.7m/s | -62.3°C | 64.7% | 0hPa | 2.5V | 00:00:00 | 00:00:00 | 00:00:00 | |
| PG1ADW-2 | 2026-09-06 03:36:34 | 46.50890 | 16.45798 | 147° | 117km/h | 12734m | -5.8m/s | -62.4°C | 65.8% | 0hPa | 2.5V | 00:00:00 | 00:00:00 | 00:00:00 | |
| OE5DRO-10 | 2026-09-06 03:36:28 | 46.51038 | 16.45641 | 140° | 111km/h | 12769m | -5.8m/s | -62.6°C | 65.2% | 0hPa | 2.5V | 00:00:00 | 00:00:00 | 00:00:00 | |
| OE8JPQ-2 | 2026-09-06 03:36:22 | 46.51169 | 16.45460 | 135° | 111km/h | 12803m | -5.6m/s | -62.9°C | 64.2% | 0hPa | 2.5V | 00:00:00 | 00:00:00 | 00:00:00 | |
| PETON7-10 | 2026-09-06 03:36:21 | 46.51189 | 16.45430 | 134° | 108km/h | 12808m | -5.9m/s | -62.9°C | 64.3% | 0hPa | 2.5V | 00:00:00 | 01:49:58 | 00:00:00 | |
| PG1ADW-2 | 2026-09-06 03:36:14 | 46.51321 | 16.45229 | 138° | 113km/h | 12851m | -5.5m/s | -63.1°C | 64.7% | 0hPa | 2.5V | 00:00:00 | 01:49:51 | 00:00:00 | |
| OE5DXL-15 | 2026-09-06 03:36:11 | 46.51381 | 16.45161 | 146° | 126km/h | 12867m | -5.5m/s | -63.3°C | 64.3% | 0hPa | 2.5V | 08:12:00 | 00:00:00 | 00:00:00 | |
| OE5DRO-10 | 2026-09-06 03:36:09 | 46.51427 | 16.45117 | 147° | 115km/h | 12879m | -5.9m/s | -63.3°C | 63.5% | 0hPa | 2.5V | 00:00:00 | 00:00:00 | 00:00:00 | |
| PETON7-10 | 2026-09-06 03:36:06 | 46.51501 | 16.45043 | 144° | 115km/h | 12897m | -6.1m/s | -63.4°C | 62.9% | 0hPa | 2.5V | 00:00:00 | 00:00:00 | 00:00:00 | |
| OE8JPQ-2 | 2026-09-06 03:36:02 | 46.51599 | 16.44925 | 137° | 115km/h | 12921m | -6.1m/s | -63.6°C | 63.2% | 0hPa | 2.6V | 00:00:00 | 01:49:39 | 00:00:00 | |
| PG1ADW-2 | 2026-09-06 03:35:54 | 46.51760 | 16.44690 | 138° | 122km/h | 12967m | -6.0m/s | -63.9°C | 61.9% | 0hPa | 2.6V | 00:00:00 | 00:00:00 | 00:00:00 | |
| PETON7-10 | 2026-09-06 03:35:51 | 46.51821 | 16.44616 | 143° | 126km/h | 12985m | -5.7m/s | -64.0°C | 61.9% | 0hPa | 2.6V | 00:00:00 | 00:00:00 | 00:00:00 | |
| OE5DRO-10 | 2026-09-06 03:35:50 | 46.51842 | 16.44592 | 144° | 128km/h | 12990m | -5.6m/s | -64.0°C | 62.0% | 0hPa | 2.6V | 00:00:00 | 00:00:00 | 00:00:00 | |
| OE8JPQ-2 | 2026-09-06 03:35:42 | 46.52041 | 16.44379 | 141° | 124km/h | 13037m | -5.5m/s | -63.7°C | 57.9% | 0hPa | 2.5V | 00:00:00 | 00:00:00 | 00:00:00 | |
| PETON7-10 | 2026-09-06 03:35:36 | 46.52190 | 16.44179 | 134° | 119km/h | 13071m | -5.9m/s | -63.5°C | 55.6% | 0hPa | 2.5V | 00:00:00 | 01:49:13 | 00:00:00 | |
| OE5DXL-15 | 2026-09-06 03:35:34 | 46.52235 | 16.44108 | 132° | 120km/h | 13083m | -5.9m/s | -63.6°C | 55.8% | 0hPa | 2.5V | 00:00:00 | 00:00:00 | 00:00:00 | |
| OE5DRO-10 | 2026-09-06 03:35:31 | 46.52296 | 16.44002 | 129° | 119km/h | 13100m | -5.7m/s | -63.6°C | 56.2% | 0hPa | 2.5V | 00:00:00 | 00:00:00 | 00:00:00 | |
| OE3JTB-15 | 2026-09-06 03:35:30 | 46.52316 | 16.43967 | 129° | 120km/h | 13106m | -5.9m/s | -63.7°C | 56.5% | 0hPa | 2.5V | 00:00:00 | 01:49:07 | 00:00:00 | |
| OE8JPQ-2 | 2026-09-06 03:35:22 | 46.52464 | 16.43722 | 139° | 119km/h | 13152m | -5.9m/s | -64.1°C | 57.6% | 0hPa | 2.5V | 00:00:00 | 00:00:00 | 00:00:00 | |
| PETON7-10 | 2026-09-06 03:35:21 | 46.52486 | 16.43696 | 141° | 126km/h | 13158m | -5.9m/s | -64.2°C | 58.0% | 0hPa | 2.5V | 00:00:00 | 00:00:00 | 00:00:00 | |
| PG1ADW-2 | 2026-09-06 03:35:14 | 46.52655 | 16.43487 | 135° | 124km/h | 13199m | -5.7m/s | -64.5°C | 60.2% | 0hPa | 2.6V | 00:00:00 | 00:00:00 | 00:00:00 | |
| OE5DRO-10 | 2026-09-06 03:35:12 | 46.52702 | 16.43414 | 131° | 122km/h | 13211m | -5.7m/s | -64.7°C | 60.3% | 0hPa | 2.5V | 00:00:00 | 00:00:00 | 00:00:00 | |
| PETON7-10 | 2026-09-06 03:35:06 | 46.52816 | 16.43201 | 131° | 122km/h | 13245m | -5.2m/s | -65.0°C | 60.9% | 0hPa | 2.5V | 00:00:00 | 00:00:00 | 00:00:00 | |
| OE5DXL-15 | 2026-09-06 03:35:04 | 46.52854 | 16.43143 | 137° | 120km/h | 13256m | -5.7m/s | -65.1°C | 60.7% | 0hPa | 2.5V | 00:00:00 | 00:00:00 | 00:00:00 | |
| OE8JPQ-2 | 2026-09-06 03:35:01 | 46.52918 | 16.43061 | 140° | 120km/h | 13273m | -5.7m/s | -65.3°C | 61.7% | 0hPa | 2.5V | 00:00:00 | 01:48:38 | 00:00:00 | |
| PG1ADW-2 | 2026-09-06 03:34:54 | 46.53084 | 16.42829 | 131° | 119km/h | 13311m | -5.3m/s | -65.6°C | 62.6% | 0hPa | 2.5V | 00:00:00 | 01:48:31 | 00:00:00 | |
| OE5DRO-10 | 2026-09-06 03:34:53 | 46.53105 | 16.42792 | 129° | 117km/h | 13316m | -5.2m/s | -65.7°C | 62.4% | 0hPa | 2.5V | 00:00:00 | 00:00:00 | 00:00:00 | |
| PETON7-10 | 2026-09-06 03:34:51 | 46.53144 | 16.42717 | 127° | 115km/h | 13326m | -5.6m/s | -65.8°C | 62.8% | 0hPa | 2.5V | 00:00:00 | 01:48:28 | 00:00:00 | |
| OE8JPQ-2 | 2026-09-06 03:34:41 | 46.53320 | 16.42401 | 137° | 124km/h | 13382m | -5.5m/s | -66.3°C | 63.5% | 0hPa | 2.5V | 08:13:00 | 00:00:00 | 00:00:00 | |
| PETON7-10 | 2026-09-06 03:34:36 | 46.53432 | 16.42250 | 137° | 122km/h | 13409m | -5.8m/s | -66.6°C | 62.5% | 0hPa | 2.5V | 08:13:00 | 00:00:00 | 00:00:00 | |
| OE5DXL-15 | 2026-09-06 03:34:34 | 46.53480 | 16.42182 | 134° | 128km/h | 13421m | -6.0m/s | -66.6°C | 62.2% | 0hPa | 2.5V | 00:00:00 | 00:00:00 | 00:00:00 | |
| OE3JTB-15 | 2026-09-06 03:34:30 | 46.53565 | 16.42030 | 125° | 126km/h | 13444m | -5.8m/s | -66.8°C | 62.6% | 0hPa | 2.6V | 00:00:00 | 00:00:00 | 00:00:00 | |
| OE8JPQ-2 | 2026-09-06 03:34:21 | 46.53724 | 16.41727 | 133° | 133km/h | 13495m | -5.7m/s | -67.1°C | 62.3% | 0hPa | 2.6V | 00:00:00 | 00:00:00 | 00:00:00 | |
| OE5DRO-10 | 2026-09-06 03:34:15 | 46.53851 | 16.41542 | 138° | 135km/h | 13530m | -5.8m/s | -66.5°C | 57.3% | 0hPa | 2.6V | 00:00:00 | 00:00:00 | 00:00:00 | |
| PG1ADW-2 | 2026-09-06 03:34:14 | 46.53875 | 16.41510 | 138° | 135km/h | 13536m | -6.3m/s | -66.5°C | 56.8% | 0hPa | 2.6V | 08:14:00 | 00:00:00 | 00:00:00 | |
| PETON7-10 | 2026-09-06 03:34:06 | 46.54076 | 16.41207 | 128° | 131km/h | 13585m | -5.9m/s | -66.2°C | 52.4% | 0hPa | 2.6V | 00:00:00 | 01:47:43 | 00:00:00 | |
| OE5DXL-15 | 2026-09-06 03:34:03 | 46.54137 | 16.41081 | 125° | 131km/h | 13603m | -6.3m/s | -66.1°C | 49.5% | 0hPa | 2.6V | 00:00:00 | 00:00:00 | 00:00:00 | |
| OE3JTB-15 | 2026-09-06 03:34:01 | 46.54175 | 16.41001 | 125° | 130km/h | 13615m | -6.1m/s | -66.2°C | 48.6% | 0hPa | 2.6V | 00:00:00 | 01:47:38 | 00:00:00 | |
| OE5DRO-10 | 2026-09-06 03:33:56 | 46.54274 | 16.40827 | 135° | 135km/h | 13645m | -6.0m/s | -66.3°C | 46.1% | 0hPa | 2.6V | 08:14:00 | 00:00:00 | 00:00:00 | |
| PG1ADW-2 | 2026-09-06 03:33:54 | 46.54321 | 16.40761 | 137° | 133km/h | 13657m | -6.2m/s | -66.3°C | 45.7% | 0hPa | 2.5V | 00:00:00 | 00:00:00 | 00:00:00 | |
| PETON7-10 | 2026-09-06 03:33:51 | 46.54398 | 16.40653 | 135° | 137km/h | 13676m | -5.9m/s | -66.4°C | 45.3% | 0hPa | 2.5V | 00:00:00 | 00:00:00 | 00:00:00 | |
| OE8JPQ-2 | 2026-09-06 03:33:41 | 46.54618 | 16.40241 | 127° | 124km/h | 13735m | -6.0m/s | -66.1°C | 40.2% | 0hPa | 2.5V | 00:00:00 | 00:00:00 | 00:00:00 | |
| OE5DRO-10 | 2026-09-06 03:33:37 | 46.54693 | 16.40108 | 133° | 122km/h | 13760m | -6.1m/s | -66.2°C | 38.9% | 0hPa | 2.6V | 00:00:00 | 00:00:00 | 00:00:00 | |
| PETON7-10 | 2026-09-06 03:33:36 | 46.54712 | 16.40077 | 134° | 126km/h | 13766m | -6.2m/s | -66.2°C | 38.8% | 0hPa | 2.6V | 00:00:00 | 00:00:00 | 00:00:00 | |
| PG1ADW-2 | 2026-09-06 03:33:34 | 46.54755 | 16.40017 | 137° | 120km/h | 13778m | -6.2m/s | -66.2°C | 38.4% | 0hPa | 2.6V | 00:00:00 | 01:47:11 | 00:00:00 | |
| OE5DXL-15 | 2026-09-06 03:33:33 | 46.54778 | 16.39986 | 137° | 120km/h | 13784m | -6.0m/s | -66.2°C | 38.4% | 0hPa | 2.6V | 00:00:00 | 00:00:00 | 00:00:00 | |
| OE3JTB-15 | 2026-09-06 03:33:32 | 46.54801 | 16.39953 | 135° | 120km/h | 13790m | -5.7m/s | -66.1°C | 37.7% | 0hPa | 2.6V | 00:00:00 | 00:00:00 | 00:00:00 | |
| OE8JPQ-2 | 2026-09-06 03:33:21 | 46.55008 | 16.39534 | 121° | 117km/h | 13857m | -6.2m/s | -65.0°C | 30.4% | 0hPa | 2.6V | 00:00:00 | 00:00:00 | 00:00:00 | |
| OE5DRO-10 | 2026-09-06 03:33:18 | 46.55052 | 16.39434 | 126° | 119km/h | 13875m | -6.3m/s | -64.6°C | 28.1% | 0hPa | 2.6V | 00:00:00 | 00:00:00 | 00:00:00 | |
| PG1ADW-2 | 2026-09-06 03:33:14 | 46.55119 | 16.39315 | 133° | 124km/h | 13899m | -6.1m/s | -64.4°C | 27.0% | 0hPa | 2.6V | 00:00:00 | 00:00:00 | 00:00:00 | |
| PETON7-10 | 2026-09-06 03:33:06 | 46.55287 | 16.39069 | 137° | 124km/h | 13948m | -6.3m/s | -64.4°C | 26.4% | 0hPa | 2.5V | 00:00:00 | 00:00:00 | 00:00:00 | |
| OE3JTB-15 | 2026-09-06 03:33:03 | 46.55356 | 16.38972 | 135° | 120km/h | 13968m | -6.2m/s | -64.5°C | 26.1% | 0hPa | 2.5V | 00:00:00 | 00:00:00 | 00:00:00 | |
| OE8JPQ-2 | 2026-09-06 03:33:01 | 46.55401 | 16.38901 | 132° | 117km/h | 13980m | -6.0m/s | -64.6°C | 25.5% | 0hPa | 2.5V | 00:00:00 | 01:46:38 | 00:00:00 | |
| OE5DRO-10 | 2026-09-06 03:32:59 | 46.55444 | 16.38826 | 129° | 113km/h | 13992m | -6.7m/s | -64.6°C | 24.8% | 0hPa | 2.5V | 00:00:00 | 00:00:00 | 00:00:00 | |
| PG1ADW-2 | 2026-09-06 03:32:54 | 46.55537 | 16.38645 | 127° | 111km/h | 14024m | -5.8m/s | -64.3°C | 23.0% | 0hPa | 2.5V | 00:00:00 | 00:00:00 | 00:00:00 | |
| PETON7-10 | 2026-09-06 03:32:51 | 46.55587 | 16.38552 | 131° | 111km/h | 14042m | -6.3m/s | -64.4°C | 23.1% | 0hPa | 2.5V | 00:00:00 | 00:00:00 | 00:00:00 | |
| OE8JPQ-2 | 2026-09-06 03:32:41 | 46.55792 | 16.38295 | 141° | 102km/h | 14108m | -6.1m/s | -64.0°C | 20.9% | 0hPa | 2.5V | 00:00:00 | 00:00:00 | 00:00:00 | |
| OE5DRO-10 | 2026-09-06 03:32:40 | 46.55816 | 16.38266 | 140° | 102km/h | 14114m | -6.2m/s | -64.0°C | 20.6% | 0hPa | 2.6V | 00:00:00 | 00:00:00 | 00:00:00 | |
| PETON7-10 | 2026-09-06 03:32:36 | 46.55903 | 16.38141 | 132° | 97km/h | 14139m | -6.4m/s | -64.0°C | 19.6% | 0hPa | 2.6V | 00:00:00 | 01:46:13 | 00:00:00 | |
| PG1ADW-2 | 2026-09-06 03:32:34 | 46.55941 | 16.38077 | 130° | 93km/h | 14152m | -6.3m/s | -63.9°C | 18.9% | 0hPa | 2.6V | 00:00:00 | 00:00:00 | 00:00:00 | |
| OE5DXL-15 | 2026-09-06 03:32:33 | 46.55958 | 16.38046 | 129° | 97km/h | 14159m | -6.3m/s | -63.8°C | 18.5% | 0hPa | 2.6V | 00:00:00 | 00:00:00 | 00:00:00 | |
| OE3JTB-15 | 2026-09-06 03:32:32 | 46.55974 | 16.38016 | 128° | 95km/h | 14165m | -6.4m/s | -63.7°C | 18.2% | 0hPa | 2.6V | 00:00:00 | 01:46:09 | 00:00:00 | |
| PETON7-10 | 2026-09-06 03:32:21 | 46.56136 | 16.37740 | 141° | 99km/h | 14237m | -6.5m/s | -64.0°C | 17.4% | 0hPa | 2.6V | 08:16:00 | 00:00:00 | 00:00:00 | |
| PG1ADW-2 | 2026-09-06 03:32:14 | 46.56269 | 16.37589 | 139° | 97km/h | 14280m | -6.2m/s | -64.1°C | 16.0% | 0hPa | 2.5V | 00:00:00 | 01:45:51 | 00:00:00 | |
| PETON7-10 | 2026-09-06 03:32:06 | 46.56409 | 16.37361 | 126° | 89km/h | 14330m | -6.3m/s | -64.0°C | 14.3% | 0hPa | 2.5V | 00:00:00 | 00:00:00 | 00:00:00 | |
| OE5DXL-15 | 2026-09-06 03:32:03 | 46.56451 | 16.37267 | 121° | 89km/h | 14349m | -6.5m/s | -63.8°C | 13.9% | 0hPa | 2.5V | 00:00:00 | 00:00:00 | 00:00:00 | |
| OE5DRO-10 | 2026-09-06 03:32:02 | 46.56463 | 16.37236 | 119° | 84km/h | 14356m | -6.5m/s | -63.8°C | 13.7% | 0hPa | 2.5V | 00:00:00 | 00:00:00 | 00:00:00 | |
| OE8JPQ-2 | 2026-09-06 03:32:01 | 46.56474 | 16.37205 | 119° | 84km/h | 14362m | -6.6m/s | -63.9°C | 13.7% | 0hPa | 2.5V | 00:00:00 | 01:45:38 | 00:00:00 | |
| OE3JTB-15 | 2026-09-06 03:31:56 | 46.56527 | 16.37066 | 121° | 86km/h | 14394m | -6.4m/s | -63.8°C | 12.9% | 0hPa | 2.5V | 08:16:00 | 00:00:00 | 00:00:00 | |
| PG1ADW-2 | 2026-09-06 03:31:54 | 46.56548 | 16.37017 | 124° | 89km/h | 14407m | -6.3m/s | -63.8°C | 12.5% | 0hPa | 2.6V | 00:00:00 | 00:00:00 | 00:00:00 | |
| PETON7-10 | 2026-09-06 03:31:51 | 46.56581 | 16.36945 | 125° | 89km/h | 14426m | -6.3m/s | -63.9°C | 12.4% | 0hPa | 2.6V | 00:00:00 | 01:45:28 | 00:00:00 | |
| OE5DRO-10 | 2026-09-06 03:31:43 | 46.56679 | 16.36747 | 127° | 106km/h | 14476m | -6.2m/s | -63.6°C | 11.4% | 0hPa | 2.6V | 00:00:00 | 00:00:00 | 00:00:00 | |
| OE8JPQ-2 | 2026-09-06 03:31:41 | 46.56707 | 16.36691 | 126° | 108km/h | 14489m | -6.6m/s | -63.4°C | 11.1% | 0hPa | 2.6V | 08:16:00 | 00:00:00 | 00:00:00 | |
| PETON7-10 | 2026-09-06 03:31:36 | 46.56774 | 16.36535 | 119° | 111km/h | 14522m | -6.3m/s | -62.8°C | 10.2% | 0hPa | 2.5V | 00:00:00 | 00:00:00 | 00:00:00 | |
| PG1ADW-2 | 2026-09-06 03:31:34 | 46.56799 | 16.36466 | 117° | 108km/h | 14534m | -6.4m/s | -62.8°C | 10.1% | 0hPa | 2.5V | 00:00:00 | 00:00:00 | 00:00:00 | |
| OE5DXL-15 | 2026-09-06 03:31:33 | 46.56810 | 16.36430 | 116° | 108km/h | 14541m | -6.5m/s | -62.8°C | 10.0% | 0hPa | 2.5V | 08:16:00 | 00:00:00 | 00:00:00 | |
| OE3JTB-15 | 2026-09-06 03:31:26 | 46.56887 | 16.36167 | 111° | 88km/h | 14587m | -6.9m/s | -62.2°C | 9.1% | 0hPa | 2.5V | 00:00:00 | 00:00:00 | 00:00:00 | |
| OE5DRO-10 | 2026-09-06 03:31:24 | 46.56906 | 16.36086 | 108° | 106km/h | 14601m | -7.0m/s | -62.1°C | 9.0% | 0hPa | 2.5V | 00:00:00 | 00:00:00 | 00:00:00 | |
| OE8JPQ-2 | 2026-09-06 03:31:21 | 46.56927 | 16.35963 | 101° | 108km/h | 14622m | -7.2m/s | -62.0°C | 8.9% | 0hPa | 2.5V | 00:00:00 | 00:00:00 | 00:00:00 | |
| PG1ADW-2 | 2026-09-06 03:31:14 | 46.56963 | 16.35719 | 112° | 104km/h | 14671m | -7.0m/s | -61.9°C | 8.9% | 0hPa | 2.5V | 08:17:00 | 00:00:00 | 00:00:00 | |
| PETON7-10 | 2026-09-06 03:31:06 | 46.57055 | 16.35436 | 113° | 100km/h | 14725m | -6.6m/s | -62.2°C | 9.2% | 0hPa | 2.5V | 00:00:00 | 01:44:43 | 00:00:00 | |
| OE5DRO-10 | 2026-09-06 03:31:05 | 46.57067 | 16.35395 | 112° | 99km/h | 14732m | -6.9m/s | -62.2°C | 9.2% | 0hPa | 2.5V | 08:17:00 | 00:00:00 | 00:00:00 | |
| OE5DXL-15 | 2026-09-06 03:31:03 | 46.57087 | 16.35313 | 108° | 100km/h | 14746m | -6.8m/s | -62.2°C | 9.2% | 0hPa | 2.5V | 00:00:00 | 00:00:00 | 00:00:00 | |
| OE8JPQ-2 | 2026-09-06 03:31:01 | 46.57103 | 16.35233 | 105° | 97km/h | 14759m | -6.7m/s | -62.2°C | 9.1% | 0hPa | 2.5V | 00:00:00 | 01:44:38 | 00:00:00 | |
| PG1ADW-2 | 2026-09-06 03:30:54 | 46.57149 | 16.35004 | 114° | 100km/h | 14808m | -7.2m/s | -61.9°C | 8.8% | 0hPa | 2.5V | 00:00:00 | 01:44:31 | 00:00:00 | |
| PETON7-10 | 2026-09-06 03:30:51 | 46.57180 | 16.34925 | 126° | 104km/h | 14829m | -7.0m/s | -61.8°C | 8.8% | 0hPa | 2.5V | 00:00:00 | 00:00:00 | 00:00:00 | |
| OE5DRO-10 | 2026-09-06 03:30:46 | 46.57257 | 16.34775 | 124° | 99km/h | 14864m | -7.1m/s | -61.7°C | 8.8% | 0hPa | 2.5V | 00:00:00 | 00:00:00 | 00:00:00 | |
| OE8JPQ-2 | 2026-09-06 03:30:41 | 46.57321 | 16.34600 | 114° | 95km/h | 14896m | -6.3m/s | -61.6°C | 8.5% | 0hPa | 2.5V | 00:00:00 | 00:00:00 | 00:00:00 | |
| PETON7-10 | 2026-09-06 03:30:36 | 46.57370 | 16.34427 | 112° | 91km/h | 14929m | -6.9m/s | -61.5°C | 8.5% | 0hPa | 2.5V | 00:00:00 | 00:00:00 | 00:00:00 | |
| PG1ADW-2 | 2026-09-06 03:30:34 | 46.57388 | 16.34358 | 111° | 97km/h | 14943m | -6.5m/s | -61.3°C | 8.2% | 0hPa | 2.5V | 00:00:00 | 00:00:00 | 00:00:00 | |
| OE5DXL-15 | 2026-09-06 03:30:33 | 46.57396 | 16.34326 | 111° | 97km/h | 14950m | -7.1m/s | -61.2°C | 8.2% | 0hPa | 2.5V | 00:00:00 | 00:00:00 | 00:00:00 | |
| OE5DRO-10 | 2026-09-06 03:30:27 | 46.57449 | 16.34153 | 119° | 104km/h | 14990m | -6.9m/s | -61.1°C | 8.1% | 0hPa | 2.5V | 00:00:00 | 00:00:00 | 00:00:00 | |
| OE8JPQ-2 | 2026-09-06 03:30:21 | 46.57524 | 16.33982 | 126° | 97km/h | 15031m | -6.9m/s | -60.5°C | 7.5% | 0hPa | 2.5V | 00:00:00 | 00:00:00 | 00:00:00 | |
| PG1ADW-2 | 2026-09-06 03:30:14 | 46.57629 | 16.33742 | 116° | 99km/h | 15081m | -6.5m/s | -60.4°C | 7.4% | 0hPa | 2.5V | 00:00:00 | 00:00:00 | 00:00:00 | |
| OE5DRO-10 | 2026-09-06 03:30:08 | 46.57687 | 16.33529 | 113° | 95km/h | 15123m | -7.1m/s | -60.4°C | 7.3% | 0hPa | 2.5V | 00:00:00 | 00:00:00 | 00:00:00 | |
| PETON7-10 | 2026-09-06 03:30:06 | 46.57705 | 16.33472 | 119° | 97km/h | 15137m | -6.9m/s | -60.5°C | 7.3% | 0hPa | 2.5V | 08:18:00 | 00:00:00 | 00:00:00 | |
| OE8JPQ-2 | 2026-09-06 03:29:58 | 46.57822 | 16.33271 | 130° | 95km/h | 15192m | -6.5m/s | -60.6°C | 7.4% | 0hPa | 2.5V | 00:00:00 | 01:43:35 | 00:00:00 | |
| PG1ADW-2 | 2026-09-06 03:29:54 | 46.57882 | 16.33139 | 120° | 89km/h | 15220m | -7.0m/s | -60.6°C | 7.3% | 0hPa | 2.5V | 00:00:00 | 00:00:00 | 00:00:00 | |
| PETON7-10 | 2026-09-06 03:29:51 | 46.57914 | 16.33043 | 116° | 86km/h | 15241m | -7.0m/s | -60.6°C | 7.2% | 0hPa | 2.5V | 00:00:00 | 00:00:00 | 00:00:00 | |
| OE5DRO-10 | 2026-09-06 03:29:49 | 46.57932 | 16.32988 | 117° | 88km/h | 15255m | -7.1m/s | -60.6°C | 7.2% | 0hPa | 2.5V | 00:00:00 | 00:00:00 | 00:00:00 | |
| OE8JPQ-2 | 2026-09-06 03:29:38 | 46.58078 | 16.32731 | 126° | 89km/h | 15332m | -6.7m/s | -60.9°C | 7.3% | 0hPa | 2.5V | 00:00:00 | 00:00:00 | 00:00:00 | |
| PETON7-10 | 2026-09-06 03:29:36 | 46.58106 | 16.32668 | 122° | 82km/h | 15345m | -7.2m/s | -60.8°C | 7.2% | 0hPa | 2.5V | 00:00:00 | 01:43:13 | 00:00:00 | |
| PG1ADW-2 | 2026-09-06 03:29:34 | 46.58130 | 16.32605 | 117° | 86km/h | 15359m | -7.3m/s | -60.6°C | 7.1% | 0hPa | 2.5V | 00:00:00 | 01:43:11 | 00:00:00 | |
| OE5DXL-15 | 2026-09-06 03:29:33 | 46.58140 | 16.32574 | 116° | 82km/h | 15366m | -7.3m/s | -60.6°C | 7.1% | 0hPa | 2.5V | 00:00:00 | 00:00:00 | 00:00:00 | |
| OE5DRO-10 | 2026-09-06 03:29:30 | 46.58168 | 16.32486 | 116° | 86km/h | 15389m | -7.3m/s | -60.5°C | 7.1% | 0hPa | 2.5V | 00:00:00 | 00:00:00 | 00:00:00 | |
| PETON7-10 | 2026-09-06 03:29:21 | 46.58267 | 16.32283 | 136° | 84km/h | 15457m | -6.9m/s | -60.7°C | 7.2% | 0hPa | 2.5V | 00:00:00 | 00:00:00 | 00:00:00 | |
| PG1ADW-2 | 2026-09-06 03:29:14 | 46.58364 | 16.32083 | 114° | 82km/h | 15508m | -7.8m/s | -60.6°C | 7.1% | 0hPa | 2.6V | 00:00:00 | 00:00:00 | 00:00:00 | |
| OE5DRO-10 | 2026-09-06 03:29:11 | 46.58388 | 16.31997 | 111° | 78km/h | 15530m | -7.3m/s | -60.4°C | 7.0% | 0hPa | 2.5V | 00:00:00 | 00:00:00 | 00:00:00 | |
| OE8JPQ-2 | 2026-09-06 03:29:08 | 46.58407 | 16.31927 | 117° | 80km/h | 15552m | -7.6m/s | -60.4°C | 7.0% | 0hPa | 2.6V | 00:00:00 | 00:00:00 | 00:00:00 | |
| PETON7-10 | 2026-09-06 03:29:06 | 46.58425 | 16.31889 | 128° | 82km/h | 15568m | -7.4m/s | -60.4°C | 7.0% | 0hPa | 2.6V | 00:00:00 | 00:00:00 | 00:00:00 | |
| OE5DXL-15 | 2026-09-06 03:29:03 | 46.58461 | 16.31826 | 131° | 80km/h | 15590m | -6.6m/s | -60.6°C | 7.2% | 0hPa | 2.6V | 00:00:00 | 00:00:00 | 00:00:00 | |
| PG1ADW-2 | 2026-09-06 03:28:54 | 46.58549 | 16.31563 | 104° | 77km/h | 15656m | -7.2m/s | -60.1°C | 7.0% | 0hPa | 2.6V | 00:00:00 | 00:00:00 | 00:00:00 | |
| OE5DRO-10 | 2026-09-06 03:28:52 | 46.58558 | 16.31516 | 109° | 78km/h | 15671m | -7.3m/s | -59.9°C | 6.9% | 0hPa | 2.6V | 00:00:00 | 00:00:00 | 00:00:00 | |
| PETON7-10 | 2026-09-06 03:28:51 | 46.58564 | 16.31494 | 111° | 77km/h | 15678m | -7.3m/s | -59.9°C | 6.9% | 0hPa | 2.6V | 00:00:00 | 01:42:28 | 00:00:00 | |
| OE8JPQ-2 | 2026-09-06 03:28:48 | 46.58585 | 16.31434 | 125° | 80km/h | 15699m | -7.3m/s | -59.6°C | 6.9% | 0hPa | 2.6V | 00:00:00 | 01:42:25 | 00:00:00 | |
| PETON7-10 | 2026-09-06 03:28:36 | 46.58720 | 16.31137 | 114° | 71km/h | 15785m | -7.2m/s | -59.1°C | 6.5% | 0hPa | 2.6V | 00:00:00 | 00:00:00 | 00:00:00 | |
| PG1ADW-2 | 2026-09-06 03:28:34 | 46.58736 | 16.31075 | 108° | 75km/h | 15799m | -7.1m/s | -59.1°C | 6.5% | 0hPa | 2.5V | 00:00:00 | 00:00:00 | 00:00:00 | |
| OE5DRO-10 | 2026-09-06 03:28:33 | 46.58742 | 16.31045 | 106° | 75km/h | 15806m | -6.8m/s | -59.1°C | 6.5% | 0hPa | 2.5V | 00:00:00 | 00:00:00 | 00:00:00 | |
| OE8JPQ-2 | 2026-09-06 03:28:28 | 46.58764 | 16.30922 | 112° | 71km/h | 15843m | -7.8m/s | -58.7°C | 6.3% | 0hPa | 2.5V | 08:19:00 | 00:00:00 | 00:00:00 | |
| PETON7-10 | 2026-09-06 03:28:21 | 46.58834 | 16.30786 | 129° | 71km/h | 15895m | -7.7m/s | -58.3°C | 6.1% | 0hPa | 2.6V | 00:00:00 | 00:00:00 | 00:00:00 | |
| PG1ADW-2 | 2026-09-06 03:28:14 | 46.58899 | 16.30590 | 105° | 66km/h | 15946m | -7.6m/s | -58.4°C | 6.1% | 0hPa | 2.6V | 08:20:00 | 01:41:51 | 00:00:00 | |
| OE8JPQ-2 | 2026-09-06 03:28:08 | 46.58930 | 16.30469 | 127° | 73km/h | 15990m | -7.2m/s | -58.6°C | 6.1% | 0hPa | 2.6V | 00:00:00 | 00:00:00 | 00:00:00 | |
| PETON7-10 | 2026-09-06 03:28:06 | 46.58949 | 16.30439 | 136° | 73km/h | 16004m | -7.5m/s | -58.6°C | 6.2% | 0hPa | 2.6V | 00:00:00 | 01:41:43 | 00:00:00 | |
| OE5DXL-15 | 2026-09-06 03:28:03 | 46.58985 | 16.30393 | 139° | 71km/h | 16025m | -7.6m/s | -58.7°C | 6.2% | 0hPa | 2.6V | 00:00:00 | 00:00:00 | 00:00:00 | |
| OE5DRO-10 | 2026-09-06 03:27:55 | 46.59077 | 16.30216 | 121° | 69km/h | 16083m | -6.9m/s | -58.9°C | 6.2% | 0hPa | 2.6V | 00:00:00 | 00:00:00 | 00:00:00 | |
| PG1ADW-2 | 2026-09-06 03:27:54 | 46.59087 | 16.30190 | 118° | 69km/h | 16090m | -7.1m/s | -58.9°C | 6.2% | 0hPa | 2.6V | 00:00:00 | 00:00:00 | 00:00:00 | |
| PETON7-10 | 2026-09-06 03:27:51 | 46.59114 | 16.30111 | 116° | 66km/h | 16112m | -8.1m/s | -59.1°C | 6.3% | 0hPa | 2.6V | 08:20:00 | 00:00:00 | 00:00:00 | |
| OE8JPQ-2 | 2026-09-06 03:27:48 | 46.59138 | 16.30028 | 109° | 71km/h | 16135m | -7.5m/s | -59.1°C | 6.4% | 0hPa | 2.5V | 00:00:00 | 01:41:25 | 00:00:00 | |
| PETON7-10 | 2026-09-06 03:27:36 | 46.59219 | 16.29786 | 133° | 75km/h | 16223m | -7.3m/s | -59.4°C | 6.3% | 0hPa | 2.5V | 00:00:00 | 00:00:00 | 00:00:00 | |
| PG1ADW-2 | 2026-09-06 03:27:34 | 46.59245 | 16.29742 | 127° | 69km/h | 16238m | -7.2m/s | -59.5°C | 6.4% | 0hPa | 2.5V | 00:00:00 | 00:00:00 | 00:00:00 | |
| OE5DXL-15 | 2026-09-06 03:27:33 | 46.59257 | 16.29716 | 123° | 69km/h | 16245m | -7.4m/s | -59.6°C | 6.5% | 0hPa | 2.5V | 00:00:00 | 00:00:00 | 00:00:00 | |
| OE8JPQ-2 | 2026-09-06 03:27:28 | 46.59297 | 16.29569 | 103° | 68km/h | 16280m | -7.6m/s | 0°C | 0% | 0hPa | 2.5V | 00:00:00 | 00:00:00 | 00:00:00 | |
| PETON7-10 | 2026-09-06 03:27:21 | 46.59320 | 16.29418 | 118° | 71km/h | 16334m | -7.3m/s | -59.5°C | 6.5% | 0hPa | 2.5V | 00:00:00 | 01:40:58 | 00:00:00 | |
| OE5DRO-10 | 2026-09-06 03:27:17 | 46.59352 | 16.29349 | 126° | 68km/h | 16363m | -7.3m/s | -59.3°C | 6.4% | 0hPa | 2.5V | 00:00:00 | 00:00:00 | 00:00:00 | |
| PG1ADW-2 | 2026-09-06 03:27:14 | 46.59383 | 16.29280 | 119° | 68km/h | 16385m | -7.5m/s | -59.3°C | 6.4% | 0hPa | 2.5V | 00:00:00 | 00:00:00 | 00:00:00 | |
| OE8JPQ-2 | 2026-09-06 03:27:08 | 46.59418 | 16.29110 | 97° | 66km/h | 16429m | -7.0m/s | -59.4°C | 6.4% | 0hPa | 2.5V | 00:00:00 | 00:00:00 | 00:00:00 | |
| PETON7-10 | 2026-09-06 03:27:06 | 46.59420 | 16.29062 | 93° | 62km/h | 16443m | -7.5m/s | -59.4°C | 6.5% | 0hPa | 2.5V | 00:00:00 | 00:00:00 | 00:00:00 | |
| OE5DRO-10 | 2026-09-06 03:26:58 | 46.59464 | 16.28924 | 130° | 64km/h | 16504m | -7.3m/s | -59.2°C | 6.4% | 0hPa | 2.6V | 00:00:00 | 00:00:00 | 00:00:00 | |
| PG1ADW-2 | 2026-09-06 03:26:54 | 46.59504 | 16.28836 | 115° | 66km/h | 16534m | -7.8m/s | -58.9°C | 6.2% | 0hPa | 2.6V | 00:00:00 | 01:40:31 | 00:00:00 | |
| PETON7-10 | 2026-09-06 03:26:51 | 46.59523 | 16.28755 | 102° | 60km/h | 16557m | -7.8m/s | -58.9°C | 6.2% | 0hPa | 2.6V | 00:00:00 | 00:00:00 | 00:00:00 | |
| OE8JPQ-2 | 2026-09-06 03:26:48 | 46.59530 | 16.28679 | 96° | 66km/h | 16580m | -8.1m/s | -58.9°C | 6.2% | 0hPa | 2.6V | 00:00:00 | 01:40:25 | 00:00:00 | |
| OE5DRO-10 | 2026-09-06 03:26:39 | 46.59582 | 16.28527 | 130° | 64km/h | 16651m | -8.1m/s | -58.6°C | 6.0% | 0hPa | 2.6V | 00:00:00 | 00:00:00 | 00:00:00 | |
| PETON7-10 | 2026-09-06 03:26:36 | 46.59615 | 16.28461 | 122° | 64km/h | 16674m | -7.3m/s | -58.6°C | 6.1% | 0hPa | 2.6V | 00:00:00 | 01:40:13 | 00:00:00 | |
| PG1ADW-2 | 2026-09-06 03:26:34 | 46.59633 | 16.28408 | 111° | 64km/h | 16689m | -7.5m/s | -58.6°C | 6.0% | 0hPa | 2.6V | 00:00:00 | 00:00:00 | 00:00:00 | |
| OE5DXL-15 | 2026-09-06 03:26:33 | 46.59639 | 16.28380 | 108° | 62km/h | 16697m | -7.9m/s | -58.7°C | 6.0% | 0hPa | 2.6V | 00:00:00 | 00:00:00 | 00:00:00 | |
| OE8JPQ-2 | 2026-09-06 03:26:28 | 46.59651 | 16.28251 | 90° | 62km/h | 16735m | -8.0m/s | -58.9°C | 6.1% | 0hPa | 2.6V | 00:00:00 | 00:00:00 | 00:00:00 | |
| PETON7-10 | 2026-09-06 03:26:21 | 46.59668 | 16.28132 | 125° | 68km/h | 16791m | -7.9m/s | -58.8°C | 6.1% | 0hPa | 2.5V | 00:00:00 | 00:00:00 | 00:00:00 | |
| OE5DRO-10 | 2026-09-06 03:26:20 | 46.59677 | 16.28114 | 126° | 66km/h | 16799m | -8.2m/s | -58.8°C | 6.1% | 0hPa | 2.5V | 00:00:00 | 00:00:00 | 00:00:00 | |
| PG1ADW-2 | 2026-09-06 03:26:14 | 46.59725 | 16.27963 | 104° | 68km/h | 16847m | -8.2m/s | -59.0°C | 6.2% | 0hPa | 2.5V | 00:00:00 | 00:00:00 | 00:00:00 | |
| OE8JPQ-2 | 2026-09-06 03:26:08 | 46.59741 | 16.27820 | 109° | 64km/h | 16893m | -7.8m/s | -59.1°C | 6.2% | 0hPa | 2.6V | 00:00:00 | 00:00:00 | 00:00:00 | |
| PETON7-10 | 2026-09-06 03:26:06 | 46.59750 | 16.27788 | 122° | 69km/h | 16908m | -8.2m/s | -59.1°C | 6.3% | 0hPa | 2.6V | 00:00:00 | 00:00:00 | 00:00:00 | |
| OE5DXL-15 | 2026-09-06 03:26:03 | 46.59777 | 16.27741 | 132° | 64km/h | 16931m | -7.6m/s | -59.1°C | 6.4% | 0hPa | 2.6V | 00:00:00 | 00:00:00 | 00:00:00 | |
| OE5DRO-10 | 2026-09-06 03:26:01 | 46.59799 | 16.27704 | 130° | 64km/h | 16947m | -8.4m/s | -58.9°C | 6.3% | 0hPa | 2.6V | 00:00:00 | 00:00:00 | 00:00:00 | |
| PG1ADW-2 | 2026-09-06 03:25:54 | 46.59864 | 16.27528 | 104° | 60km/h | 17002m | -7.9m/s | -58.7°C | 6.2% | 0hPa | 2.6V | 00:00:00 | 00:00:00 | 00:00:00 | |
| PETON7-10 | 2026-09-06 03:25:51 | 46.59874 | 16.27460 | 103° | 60km/h | 17025m | -8.3m/s | -58.6°C | 6.1% | 0hPa | 2.6V | 00:00:00 | 01:39:28 | 00:00:00 | |
| OE8JPQ-2 | 2026-09-06 03:25:48 | 46.59886 | 16.27411 | 126° | 55km/h | 17050m | -8.3m/s | -58.5°C | 6.0% | 0hPa | 2.6V | 00:00:00 | 01:39:25 | 00:00:00 | |
| OE5DRO-10 | 2026-09-06 03:25:42 | 46.59949 | 16.27331 | 135° | 57km/h | 17102m | -8.1m/s | -58.6°C | 6.1% | 0hPa | 2.6V | 00:00:00 | 00:00:00 | 00:00:00 | |
| PG1ADW-2 | 2026-09-06 03:25:34 | 46.60001 | 16.27159 | 97° | 51km/h | 17168m | -8.4m/s | -58.1°C | 5.8% | 0hPa | 2.6V | 00:00:00 | 01:39:11 | 00:00:00 | |
| OE5DXL-15 | 2026-09-06 03:25:33 | 46.60003 | 16.27144 | 105° | 53km/h | 17176m | -8.1m/s | -58.1°C | 5.8% | 0hPa | 2.6V | 00:00:00 | 00:00:00 | 00:00:00 | |
| OE8JPQ-2 | 2026-09-06 03:25:28 | 46.60034 | 16.27091 | 144° | 55km/h | 17216m | -8.1m/s | -58.3°C | 5.9% | 0hPa | 2.5V | 08:22:00 | 00:00:00 | 00:00:00 | |
| PETON7-10 | 2026-09-06 03:25:21 | 46.60110 | 16.26960 | 110° | 49km/h | 17276m | -8.1m/s | -58.4°C | 6.1% | 0hPa | 2.5V | 00:00:00 | 00:00:00 | 00:00:00 | |
| OE5DRO-10 | 2026-09-06 03:25:19 | 46.60119 | 16.26918 | 104° | 49km/h | 17292m | -8.8m/s | -58.1°C | 5.9% | 0hPa | 2.5V | 08:23:00 | 00:00:00 | 00:00:00 | |
| PG1ADW-2 | 2026-09-06 03:25:14 | 46.60135 | 16.26856 | 143° | 46km/h | 17336m | -8.5m/s | -58.0°C | 5.9% | 0hPa | 2.5V | 08:23:00 | 00:00:00 | 00:00:00 | |
| OE8JPQ-2 | 2026-09-06 03:25:08 | 46.60197 | 16.26787 | 129° | 47km/h | 17389m | -8.4m/s | -58.2°C | 6.0% | 0hPa | 2.5V | 00:00:00 | 00:00:00 | 00:00:00 | |
| PETON7-10 | 2026-09-06 03:25:06 | 46.60215 | 16.26745 | 114° | 42km/h | 17407m | -8.9m/s | -58.2°C | 6.1% | 0hPa | 2.5V | 00:00:00 | 01:38:43 | 00:00:00 | |
| OE5DXL-15 | 2026-09-06 03:25:03 | 46.60227 | 16.26685 | 102° | 40km/h | 17432m | -8.4m/s | -58.2°C | 6.0% | 0hPa | 2.5V | 00:00:00 | 00:00:00 | 00:00:00 | |
| OE5DRO-10 | 2026-09-06 03:25:00 | 46.60234 | 16.26648 | 125° | 42km/h | 17457m | -8.4m/s | -58.3°C | 6.0% | 0hPa | 2.5V | 00:00:00 | 00:00:00 | 00:00:00 | |
| PG1ADW-2 | 2026-09-06 03:24:54 | 46.60276 | 16.26613 | 155° | 42km/h | 17510m | -9.0m/s | -58.4°C | 6.0% | 0hPa | 2.5V | 00:00:00 | 00:00:00 | 00:00:00 | |
| PETON7-10 | 2026-09-06 03:24:51 | 46.60309 | 16.26579 | 135° | 38km/h | 17535m | -8.7m/s | -58.1°C | 5.9% | 0hPa | 2.5V | 00:00:00 | 00:00:00 | 00:00:00 | |
| OE8JPQ-2 | 2026-09-06 03:24:48 | 46.60334 | 16.26526 | 110° | 42km/h | 17563m | -8.7m/s | -57.9°C | 5.8% | 0hPa | 2.5V | 00:00:00 | 01:38:25 | 00:00:00 | |
| OE5DRO-10 | 2026-09-06 03:24:41 | 46.60340 | 16.26436 | 127° | 38km/h | 17624m | -8.8m/s | -57.9°C | 5.7% | 0hPa | 2.5V | 00:00:00 | 00:00:00 | 00:00:00 | |
| PETON7-10 | 2026-09-06 03:24:36 | 46.60368 | 16.26405 | 136° | 44km/h | 17671m | -9.4m/s | -58.2°C | 5.7% | 0hPa | 2.5V | 00:00:00 | 00:00:00 | 00:00:00 | |
| PG1ADW-2 | 2026-09-06 03:24:34 | 46.60383 | 16.26374 | 119° | 47km/h | 17689m | -8.3m/s | -58.3°C | 5.7% | 0hPa | 2.5V | 00:00:00 | 00:00:00 | 00:00:00 | |
| OE5DXL-15 | 2026-09-06 03:24:33 | 46.60390 | 16.26354 | 111° | 46km/h | 17698m | -8.1m/s | -58.4°C | 5.7% | 0hPa | 2.5V | 00:00:00 | 00:00:00 | 00:00:00 | |
| OE8JPQ-2 | 2026-09-06 03:24:28 | 46.60392 | 16.26257 | 78° | 46km/h | 17744m | -9.5m/s | -58.6°C | 5.8% | 0hPa | 2.5V | 00:00:00 | 00:00:00 | 00:00:00 | |
| OE5DRO-10 | 2026-09-06 03:24:22 | 46.60405 | 16.26203 | 130° | 47km/h | 17798m | -8.8m/s | -59.0°C | 5.9% | 0hPa | 2.5V | 00:00:00 | 00:00:00 | 00:00:00 | |
| PETON7-10 | 2026-09-06 03:24:21 | 46.60412 | 16.26190 | 126° | 51km/h | 17807m | -8.4m/s | -58.9°C | 5.9% | 0hPa | 2.5V | 00:00:00 | 01:37:58 | 00:00:00 | |
| PG1ADW-2 | 2026-09-06 03:24:14 | 46.60435 | 16.26043 | 81° | 49km/h | 17868m | -9.1m/s | -59.3°C | 6.0% | 0hPa | 2.5V | 00:00:00 | 01:37:51 | 00:00:00 | |
| OE8JPQ-2 | 2026-09-06 03:24:08 | 46.60411 | 16.25947 | 71° | 47km/h | 17921m | -9.0m/s | -59.5°C | 6.0% | 0hPa | 2.5V | 00:00:00 | 00:00:00 | 00:00:00 | |
| PETON7-10 | 2026-09-06 03:24:06 | 46.60410 | 16.25929 | 108° | 53km/h | 17939m | -9.2m/s | -59.7°C | 6.1% | 0hPa | 2.5V | 00:00:00 | 00:00:00 | 00:00:00 | |
| OE5DXL-15 | 2026-09-06 03:24:03 | 46.60423 | 16.25894 | 120° | 57km/h | 17966m | -9.4m/s | -59.8°C | 6.2% | 0hPa | 2.5V | 00:00:00 | 00:00:00 | 00:00:00 | |
| PG1ADW-2 | 2026-09-06 03:23:54 | 46.60438 | 16.25698 | 75° | 55km/h | 18046m | -9.1m/s | -60.2°C | 6.5% | 0hPa | 2.6V | 00:00:00 | 00:00:00 | 00:00:00 | |
| PETON7-10 | 2026-09-06 03:23:51 | 46.60428 | 16.25651 | 81° | 55km/h | 18073m | -8.9m/s | -60.4°C | 6.6% | 0hPa | 2.6V | 00:00:00 | 00:00:00 | 00:00:00 | |
| OE8JPQ-2 | 2026-09-06 03:23:48 | 46.60431 | 16.25620 | 123° | 57km/h | 18100m | -9.0m/s | -60.3°C | 6.6% | 0hPa | 2.6V | 00:00:00 | 01:37:25 | 00:00:00 | |
| OE5DRO-10 | 2026-09-06 03:23:44 | 46.60463 | 16.25564 | 129° | 62km/h | 18137m | -9.9m/s | -59.7°C | 6.2% | 0hPa | 2.6V | 00:00:00 | 00:00:00 | 00:00:00 | |
| PETON7-10 | 2026-09-06 03:23:36 | 46.60502 | 16.25374 | 92° | 64km/h | 18210m | -9.6m/s | -59.6°C | 6.5% | 0hPa | 2.6V | 00:00:00 | 01:37:13 | 00:00:00 | |
| PG1ADW-2 | 2026-09-06 03:23:34 | 46.60505 | 16.25338 | 103° | 66km/h | 18229m | -9.2m/s | -59.6°C | 6.5% | 0hPa | 2.6V | 00:00:00 | 00:00:00 | 00:00:00 | |
| OE5DXL-15 | 2026-09-06 03:23:33 | 46.60509 | 16.25323 | 115° | 64km/h | 18238m | -9.0m/s | -59.6°C | 6.5% | 0hPa | 2.6V | 00:00:00 | 00:00:00 | 00:00:00 | |
| OE8JPQ-2 | 2026-09-06 03:23:28 | 46.60553 | 16.25251 | 137° | 64km/h | 18282m | -9.2m/s | -59.3°C | 6.5% | 0hPa | 2.6V | 00:00:00 | 00:00:00 | 00:00:00 | |
| OE5DRO-10 | 2026-09-06 03:23:25 | 46.60590 | 16.25192 | 128° | 64km/h | 18309m | -8.7m/s | -59.0°C | 6.3% | 0hPa | 2.5V | 00:00:00 | 00:00:00 | 00:00:00 | |
| PETON7-10 | 2026-09-06 03:23:21 | 46.60631 | 16.25086 | 107° | 58km/h | 18346m | -9.0m/s | -58.6°C | 6.0% | 0hPa | 2.5V | 08:25:00 | 00:00:00 | 00:00:00 | |
| PG1ADW-2 | 2026-09-06 03:23:14 | 46.60636 | 16.24928 | 95° | 58km/h | 18411m | -10.1m/s | -57.5°C | 5.5% | 0hPa | 2.5V | 00:00:00 | 00:00:00 | 00:00:00 | |
| OE8JPQ-2 | 2026-09-06 03:23:08 | 46.60667 | 16.24835 | 116° | 64km/h | 18474m | -9.0m/s | -57.8°C | 5.8% | 0hPa | 2.7V | 00:00:00 | 00:00:00 | 00:00:00 | |
| PETON7-10 | 2026-09-06 03:23:06 | 46.60680 | 16.24782 | 104° | 62km/h | 18491m | -9.6m/s | -58.0°C | 5.8% | 0hPa | 2.7V | 00:00:00 | 00:00:00 | 00:00:00 | |
| OE5DXL-15 | 2026-09-06 03:23:03 | 46.60687 | 16.24694 | 88° | 57km/h | 18521m | -9.7m/s | -58.2°C | 6.0% | 0hPa | 2.7V | 00:00:00 | 00:00:00 | 00:00:00 | |
| OE3JTB-15 | 2026-09-06 03:22:58 | 46.60677 | 16.24579 | 89° | 60km/h | 18567m | -9.0m/s | -58.1°C | 6.0% | 0hPa | 2.7V | 00:00:00 | 01:36:35 | 00:00:00 | |
| PG1ADW-2 | 2026-09-06 03:22:54 | 46.60692 | 16.24522 | 127° | 57km/h | 18605m | -8.9m/s | -57.8°C | 6.0% | 0hPa | 2.7V | 00:00:00 | 01:36:31 | 00:00:00 | |
| PETON7-10 | 2026-09-06 03:22:51 | 46.60719 | 16.24468 | 123° | 57km/h | 18632m | -9.8m/s | -57.1°C | 5.7% | 0hPa | 2.7V | 00:00:00 | 01:36:28 | 00:00:00 | |
| OE8JPQ-2 | 2026-09-06 03:22:48 | 46.60745 | 16.24395 | 111° | 60km/h | 18662m | -9.6m/s | -56.3°C | 5.3% | 0hPa | 2.7V | 00:00:00 | 01:36:25 | 00:00:00 | |
| OE5DRO-10 | 2026-09-06 03:22:47 | 46.60751 | 16.24367 | 107° | 58km/h | 18671m | -10.1m/s | -56.4°C | 5.3% | 0hPa | 2.7V | 00:00:00 | 00:00:00 | 00:00:00 | |
| PETON7-10 | 2026-09-06 03:22:36 | 46.60794 | 16.24193 | 146° | 62km/h | 18778m | -10.2m/s | -56.4°C | 5.3% | 0hPa | 2.7V | 00:00:00 | 00:00:00 | 00:00:00 | |
| PG1ADW-2 | 2026-09-06 03:22:34 | 46.60818 | 16.24166 | 137° | 58km/h | 18798m | -9.3m/s | -56.4°C | 5.3% | 0hPa | 2.5V | 00:00:00 | 00:00:00 | 00:00:00 | |
| OE5DXL-15 | 2026-09-06 03:22:33 | 46.60831 | 16.24147 | 132° | 57km/h | 18807m | -9.1m/s | -56.5°C | 5.4% | 0hPa | 2.5V | 08:25:00 | 00:00:00 | 00:00:00 | |
| OE3JTB-15 | 2026-09-06 03:22:29 | 46.60873 | 16.24052 | 113° | 55km/h | 18846m | -10.2m/s | -56.5°C | 5.3% | 0hPa | 2.6V | 00:00:00 | 00:00:00 | 00:00:00 | |
| OE8JPQ-2 | 2026-09-06 03:22:28 | 46.60879 | 16.24027 | 107° | 57km/h | 18856m | -9.9m/s | -56.5°C | 5.3% | 0hPa | 2.6V | 08:25:00 | 00:00:00 | 00:00:00 | |
| PETON7-10 | 2026-09-06 03:22:21 | 46.60901 | 16.23911 | 136° | 58km/h | 18926m | -10.3m/s | -56.5°C | 5.5% | 0hPa | 2.5V | 00:00:00 | 00:00:00 | 00:00:00 | |
| PG1ADW-2 | 2026-09-06 03:22:14 | 46.60982 | 16.23825 | 132° | 53km/h | 18998m | -10.5m/s | -55.9°C | 5.4% | 0hPa | 2.5V | 08:26:00 | 00:00:00 | 00:00:00 | |
| OE5DRO-10 | 2026-09-06 03:22:09 | 46.61021 | 16.23712 | 105° | 46km/h | 19050m | -11.0m/s | -56.1°C | 5.5% | 0hPa | 2.5V | 00:00:00 | 00:00:00 | 00:00:00 | |
| OE8JPQ-2 | 2026-09-06 03:22:08 | 46.61024 | 16.23693 | 104° | 44km/h | 19061m | -10.2m/s | -56.1°C | 5.5% | 0hPa | 2.5V | 00:00:00 | 00:00:00 | 00:00:00 | |
| PETON7-10 | 2026-09-06 03:22:06 | 46.61029 | 16.23668 | 116° | 47km/h | 19081m | -10.3m/s | -56.1°C | 5.5% | 0hPa | 2.5V | 00:00:00 | 01:35:43 | 00:00:00 | |
| OE5DXL-15 | 2026-09-06 03:22:03 | 46.61044 | 16.23651 | 166° | 42km/h | 19113m | -10.5m/s | -56.0°C | 5.5% | 0hPa | 2.5V | 00:00:00 | 00:00:00 | 00:00:00 | |
| OE3JTB-15 | 2026-09-06 03:21:58 | 46.61100 | 16.23623 | 150° | 37km/h | 19166m | -9.7m/s | -54.2°C | 4.9% | 0hPa | 2.5V | 00:00:00 | 00:00:00 | 00:00:00 | |
| PG1ADW-2 | 2026-09-06 03:21:54 | 46.61147 | 16.23560 | 124° | 38km/h | 19208m | -10.1m/s | -54.3°C | 4.8% | 0hPa | 2.5V | 00:00:00 | 00:00:00 | 00:00:00 | |
| PETON7-10 | 2026-09-06 03:21:51 | 46.61164 | 16.23514 | 116° | 35km/h | 19238m | -10.3m/s | -54.6°C | 4.9% | 0hPa | 2.5V | 00:00:00 | 00:00:00 | 00:00:00 | |
| OE5DRO-10 | 2026-09-06 03:21:50 | 46.61168 | 16.23503 | 116° | 37km/h | 19248m | -10.1m/s | -54.6°C | 4.9% | 0hPa | 2.6V | 00:00:00 | 00:00:00 | 00:00:00 | |
| OE8JPQ-2 | 2026-09-06 03:21:48 | 46.61174 | 16.23489 | 142° | 35km/h | 19269m | -10.1m/s | -54.7°C | 5.0% | 0hPa | 2.6V | 00:00:00 | 01:35:25 | 00:00:00 | |
| PETON7-10 | 2026-09-06 03:21:36 | 46.61278 | 16.23468 | 140° | 27km/h | 19396m | -11.0m/s | -54.1°C | 4.6% | 0hPa | 2.6V | 00:00:00 | 00:00:00 | 00:00:00 | |
| PG1ADW-2 | 2026-09-06 03:21:34 | 46.61293 | 16.23442 | 120° | 29km/h | 19418m | -11.1m/s | -54.2°C | 4.6% | 0hPa | 2.6V | 00:00:00 | 01:35:11 | 00:00:00 | |
| OE5DXL-15 | 2026-09-06 03:21:33 | 46.61297 | 16.23429 | 109° | 24km/h | 19429m | -10.9m/s | -54.3°C | 4.6% | 0hPa | 2.6V | 00:00:00 | 00:00:00 | 00:00:00 | |
| OE5DRO-10 | 2026-09-06 03:21:31 | 46.61300 | 16.23406 | 87° | 29km/h | 19451m | -10.6m/s | -54.5°C | 4.6% | 0hPa | 2.6V | 00:00:00 | 00:00:00 | 00:00:00 | |
| OE8JPQ-2 | 2026-09-06 03:21:28 | 46.61297 | 16.23393 | 259° | 27km/h | 19482m | -10.8m/s | -54.7°C | 4.7% | 0hPa | 2.5V | 00:00:00 | 00:00:00 | 00:00:00 | |
| PETON7-10 | 2026-09-06 03:21:21 | 46.61334 | 16.23401 | 155° | 27km/h | 19558m | -10.5m/s | -55.3°C | 5.0% | 0hPa | 2.7V | 00:00:00 | 01:34:58 | 00:00:00 | |
| PG1ADW-2 | 2026-09-06 03:21:14 | 46.61362 | 16.23317 | 77° | 26km/h | 19634m | -10.9m/s | -55.8°C | 5.3% | 0hPa | 2.7V | 00:00:00 | 00:00:00 | 00:00:00 | |
| OE5DRO-10 | 2026-09-06 03:21:12 | 46.61357 | 16.23299 | 51° | 26km/h | 19656m | -10.8m/s | -55.9°C | 5.4% | 0hPa | 2.6V | 00:00:00 | 00:00:00 | 00:00:00 | |
| PETON7-10 | 2026-09-06 03:21:06 | 46.61350 | 16.23290 | 189° | 31km/h | 19720m | -10.8m/s | -55.9°C | 5.5% | 0hPa | 2.6V | 08:27:00 | 00:00:00 | 00:00:00 | |
| OE5DXL-15 | 2026-09-06 03:21:03 | 46.61366 | 16.23286 | 168° | 27km/h | 19751m | -10.7m/s | -55.1°C | 5.1% | 0hPa | 2.5V | 00:00:00 | 00:00:00 | 00:00:00 | |
| PG1ADW-2 | 2026-09-06 03:20:54 | 46.61425 | 16.23209 | 111° | 24km/h | 19845m | -10.6m/s | -54.7°C | 4.9% | 0hPa | 2.6V | 00:00:00 | 00:00:00 | 00:00:00 | |
| OE5DRO-10 | 2026-09-06 03:20:53 | 46.61427 | 16.23198 | 103° | 22km/h | 19856m | -10.6m/s | -54.7°C | 4.9% | 0hPa | 2.6V | 00:00:00 | 00:00:00 | 00:00:00 | |
| PETON7-10 | 2026-09-06 03:20:51 | 46.61428 | 16.23181 | 84° | 22km/h | 19876m | -10.7m/s | -54.7°C | 4.9% | 0hPa | 2.6V | 00:00:00 | 00:00:00 | 00:00:00 | |
| PETON7-10 | 2026-09-06 03:20:36 | 46.61474 | 16.23208 | 145° | 20km/h | 20039m | -11.4m/s | -54.7°C | 4.8% | 0hPa | 2.6V | 00:00:00 | 01:34:13 | 00:00:00 | |
| PG1ADW-2 | 2026-09-06 03:20:34 | 46.61482 | 16.23195 | 110° | 24km/h | 20061m | -10.7m/s | -54.9°C | 4.9% | 0hPa | 2.6V | 00:00:00 | 00:00:00 | 00:00:00 | |
| OE5DXL-15 | 2026-09-06 03:20:33 | 46.61483 | 16.23186 | 96° | 27km/h | 20071m | -10.7m/s | -55.0°C | 4.9% | 0hPa | 2.6V | 00:00:00 | 00:00:00 | 00:00:00 | |
| OE8JPQ-2 | 2026-09-06 03:20:28 | 46.61469 | 16.23162 | 11° | 31km/h | 20127m | -11.4m/s | -55.2°C | 5.0% | 0hPa | 2.6V | 00:00:00 | 00:00:00 | 00:00:00 | |
| PETON7-10 | 2026-09-06 03:20:21 | 46.61480 | 16.23189 | 209° | 37km/h | 20206m | -11.3m/s | -55.2°C | 4.9% | 0hPa | 2.6V | 00:00:00 | 00:00:00 | 00:00:00 | |
| OE5DRO-10 | 2026-09-06 03:20:15 | 46.61532 | 16.23177 | 144° | 26km/h | 20273m | -11.7m/s | -55.8°C | 5.2% | 0hPa | 2.6V | 00:00:00 | 00:00:00 | 00:00:00 | |
| PG1ADW-2 | 2026-09-06 03:20:14 | 46.61539 | 16.23167 | 133° | 26km/h | 20285m | -10.7m/s | -55.9°C | 5.3% | 0hPa | 2.6V | 00:00:00 | 01:33:51 | 00:00:00 | |
| OE8JPQ-2 | 2026-09-06 03:20:08 | 46.61553 | 16.23089 | 73° | 24km/h | 20351m | -11.0m/s | -55.9°C | 5.4% | 0hPa | 2.5V | 00:00:00 | 00:00:00 | 00:00:00 | |
| PETON7-10 | 2026-09-06 03:20:06 | 46.61548 | 16.23071 | 57° | 20km/h | 20373m | -11.1m/s | -56.0°C | 5.4% | 0hPa | 2.5V | 00:00:00 | 00:00:00 | 00:00:00 | |
| OE5DXL-15 | 2026-09-06 03:20:03 | 46.61541 | 16.23060 | 28° | 31km/h | 20408m | -11.4m/s | -56.3°C | 5.6% | 0hPa | 2.5V | 00:00:00 | 00:00:00 | 00:00:00 | |
| OE5DRO-10 | 2026-09-06 03:19:56 | 46.61561 | 16.23040 | 135° | 38km/h | 20484m | -11.4m/s | -54.6°C | 4.9% | 0hPa | 2.5V | 00:00:00 | 00:00:00 | 00:00:00 | |
| PG1ADW-2 | 2026-09-06 03:19:54 | 46.61569 | 16.23023 | 124° | 38km/h | 20506m | -10.8m/s | -54.1°C | 4.6% | 0hPa | 2.5V | 00:00:00 | 00:00:00 | 00:00:00 | |
| PETON7-10 | 2026-09-06 03:19:51 | 46.61583 | 16.22989 | 115° | 40km/h | 20538m | -11.3m/s | -54.1°C | 4.6% | 0hPa | 2.5V | 00:00:00 | 01:33:28 | 00:00:00 | |
| OE8JPQ-2 | 2026-09-06 03:19:48 | 46.61594 | 16.22945 | 106° | 31km/h | 20571m | -11.1m/s | -54.4°C | 4.6% | 0hPa | 2.5V | 00:00:00 | 01:33:25 | 00:00:00 | |
| OE5DRO-10 | 2026-09-06 03:19:37 | 46.61571 | 16.22795 | 51° | 31km/h | 20692m | -11.6m/s | -55.5°C | 5.0% | 0hPa | 2.5V | 08:28:00 | 00:00:00 | 00:00:00 | |
| PETON7-10 | 2026-09-06 03:19:36 | 46.61565 | 16.22786 | 50° | 27km/h | 20704m | -11.6m/s | -55.6°C | 5.1% | 0hPa | 2.5V | 00:00:00 | 00:00:00 | 00:00:00 | |
| PG1ADW-2 | 2026-09-06 03:19:34 | 46.61557 | 16.22771 | 48° | 35km/h | 20727m | -11.6m/s | -55.8°C | 5.1% | 0hPa | 2.6V | 00:00:00 | 00:00:00 | 00:00:00 | |
| OE5DXL-15 | 2026-09-06 03:19:33 | 46.61554 | 16.22767 | 44° | 29km/h | 20739m | -12.0m/s | -55.9°C | 5.2% | 0hPa | 2.6V | 00:00:00 | 00:00:00 | 00:00:00 | |
| OE8JPQ-2 | 2026-09-06 03:19:28 | 46.61560 | 16.22750 | 155° | 38km/h | 20798m | -11.4m/s | -56.2°C | 5.4% | 0hPa | 2.7V | 08:28:00 | 00:00:00 | 00:00:00 | |
| PETON7-10 | 2026-09-06 03:19:21 | 46.61610 | 16.22684 | 120° | 35km/h | 20877m | -11.5m/s | -55.9°C | 5.4% | 0hPa | 2.5V | 00:00:00 | 00:00:00 | 00:00:00 | |
| OE5DRO-10 | 2026-09-06 03:19:18 | 46.61625 | 16.22631 | 107° | 27km/h | 20911m | -11.7m/s | -55.9°C | 5.4% | 0hPa | 2.5V | 00:00:00 | 00:00:00 | 00:00:00 | |
| PG1ADW-2 | 2026-09-06 03:19:14 | 46.61630 | 16.22560 | 86° | 20km/h | 20959m | -12.2m/s | -55.8°C | 5.3% | 0hPa | 2.5V | 08:29:00 | 00:00:00 | 00:00:00 | |
| OE8JPQ-2 | 2026-09-06 03:19:08 | 46.61625 | 16.22515 | 146° | 20km/h | 21031m | -11.8m/s | -55.9°C | 5.4% | 0hPa | 2.7V | 00:00:00 | 00:00:00 | 00:00:00 | |
| PETON7-10 | 2026-09-06 03:19:06 | 46.61629 | 16.22516 | 203° | 22km/h | 21055m | -11.7m/s | -55.7°C | 5.4% | 0hPa | 2.7V | 00:00:00 | 01:32:43 | 00:00:00 | |
| OE5DXL-15 | 2026-09-06 03:19:03 | 46.61643 | 16.22522 | 186° | 22km/h | 21091m | -11.8m/s | -54.9°C | 5.0% | 0hPa | 2.7V | 00:00:00 | 00:00:00 | 00:00:00 | |
| OE5DRO-10 | 2026-09-06 03:18:59 | 46.61668 | 16.22519 | 156° | 22km/h | 21138m | -11.7m/s | -54.8°C | 5.0% | 0hPa | 2.7V | 00:00:00 | 00:00:00 | 00:00:00 | |
| PG1ADW-2 | 2026-09-06 03:18:54 | 46.61690 | 16.22494 | 136° | 22km/h | 21195m | -11.2m/s | -54.9°C | 5.0% | 0hPa | 2.7V | 00:00:00 | 01:32:31 | 00:00:00 | |
| OE3JTB-15 | 2026-09-06 03:18:52 | 46.61697 | 16.22483 | 131° | 18km/h | 21219m | -12.1m/s | -54.9°C | 5.0% | 0hPa | 2.7V | 00:00:00 | 00:00:00 | 00:00:00 | |
| PETON7-10 | 2026-09-06 03:18:51 | 46.61700 | 16.22478 | 129° | 22km/h | 21230m | -11.5m/s | -54.9°C | 5.0% | 0hPa | 2.5V | 00:00:00 | 00:00:00 | 08:30:00 | |
| OE8JPQ-2 | 2026-09-06 03:18:48 | 46.61711 | 16.22459 | 132° | 18km/h | 21264m | -11.9m/s | -54.9°C | 5.0% | 0hPa | 2.6V | 00:00:00 | 01:32:25 | 00:00:00 | |
| OE5DRO-10 | 2026-09-06 03:18:40 | 46.61746 | 16.22414 | 143° | 16km/h | 21356m | -11.6m/s | -55.0°C | 5.1% | 0hPa | 2.6V | 00:00:00 | 00:00:00 | 00:00:00 | |
| PETON7-10 | 2026-09-06 03:18:36 | 46.61764 | 16.22400 | 163° | 15km/h | 21403m | -12.3m/s | -55.1°C | 5.2% | 0hPa | 2.5V | 00:00:00 | 00:00:00 | 00:00:00 | |
| PG1ADW-2 | 2026-09-06 03:18:34 | 46.61770 | 16.22397 | 171° | 24km/h | 21427m | -11.7m/s | -55.2°C | 5.2% | 0hPa | 2.5V | 00:00:00 | 00:00:00 | 00:00:00 | |
| OE5DXL-15 | 2026-09-06 03:18:33 | 46.61773 | 16.22397 | 183° | 27km/h | 21439m | -12.2m/s | -55.2°C | 5.2% | 0hPa | 2.5V | 00:00:00 | 00:00:00 | 00:00:00 | |
| OE8JPQ-2 | 2026-09-06 03:18:28 | 46.61782 | 16.22400 | 210° | 35km/h | 21498m | -11.7m/s | -54.8°C | 5.1% | 0hPa | 2.5V | 00:00:00 | 00:00:00 | 00:00:00 | |
| OE3JTB-15 | 2026-09-06 03:18:23 | 46.61799 | 16.22413 | 196° | 31km/h | 21560m | -12.6m/s | -54.4°C | 4.9% | 0hPa | 2.5V | 00:00:00 | 00:00:00 | 00:00:00 | |
| PETON7-10 | 2026-09-06 03:18:21 | 46.61815 | 16.22417 | 188° | 40km/h | 21585m | -12.5m/s | -54.4°C | 5.0% | 0hPa | 2.5V | 00:00:00 | 01:31:58 | 00:00:00 | |
| PG1ADW-2 | 2026-09-06 03:18:14 | 46.61879 | 16.22382 | 127° | 27km/h | 21672m | -12.0m/s | -54.2°C | 5.0% | 0hPa | 2.5V | 00:00:00 | 00:00:00 | 00:00:00 | |
| OE8JPQ-2 | 2026-09-06 03:18:08 | 46.61898 | 16.22292 | 106° | 20km/h | 21753m | -12.6m/s | -54.4°C | 4.9% | 0hPa | 2.7V | 00:00:00 | 00:00:00 | 00:00:00 | |
| PETON7-10 | 2026-09-06 03:18:06 | 46.61903 | 16.22278 | 145° | 18km/h | 21779m | -14.4m/s | -54.3°C | 4.7% | 0hPa | 2.7V | 00:00:00 | 00:00:00 | 00:00:00 | |
| OE5DXL-15 | 2026-09-06 03:18:03 | 46.61915 | 16.22274 | 170° | 20km/h | 21845m | -28.0m/s | -53.9°C | 4.4% | 0hPa | 2.5V | 00:00:00 | 00:00:00 | 08:30:00 | |
| OE5DRO-10 | 2026-09-06 03:18:02 | 46.61920 | 16.22273 | 163° | 18km/h | 21873m | -27.0m/s | -53.8°C | 4.5% | 0hPa | 2.7V | 00:00:00 | 00:00:00 | 00:00:00 | |
| PG1ADW-2 | 2026-09-06 03:17:54 | 46.61950 | 16.22238 | 123° | 20km/h | 21922m | 6.3m/s | -53.9°C | 4.7% | 0hPa | 2.7V | 00:00:00 | 00:00:00 | 00:00:00 | |
| PETON7-10 | 2026-09-06 03:17:51 | 46.61960 | 16.22223 | 163° | 20km/h | 21904m | 7.1m/s | -54.0°C | 4.8% | 0hPa | 2.7V | 00:00:00 | 00:00:00 | 00:00:00 | |
| OE8JPQ-2 | 2026-09-06 03:17:48 | 46.61973 | 16.22219 | 160° | 22km/h | 21886m | 4.5m/s | -54.0°C | 4.8% | 0hPa | 2.7V | 00:00:00 | 01:31:25 | 00:00:00 | |
| DB0NH | 2026-09-06 03:17:45 | 46.61986 | 16.22211 | 147° | 22km/h | 21870m | 4.4m/s | 0°C | 0% | 0hPa | 2.7V | 00:00:00 | 01:31:22 | 00:00:00 | |
| OE5DRO-10 | 2026-09-06 03:17:43 | 46.61994 | 16.22199 | 122° | 22km/h | 21857m | 5.5m/s | -54.2°C | 4.8% | 0hPa | 2.7V | 00:00:00 | 00:00:00 | 00:00:00 | |
| PETON7-10 | 2026-09-06 03:17:36 | 46.62021 | 16.22169 | 146° | 22km/h | 21816m | 5.6m/s | -54.4°C | 4.8% | 0hPa | 2.5V | 00:00:00 | 01:31:13 | 00:00:00 | |
| PG1ADW-2 | 2026-09-06 03:17:34 | 46.62028 | 16.22158 | 117° | 22km/h | 21805m | 5.1m/s | -54.4°C | 4.8% | 0hPa | 2.5V | 00:00:00 | 01:31:11 | 00:00:00 | |
| OE5DXL-15 | 2026-09-06 03:17:33 | 46.62030 | 16.22150 | 112° | 22km/h | 21799m | 7.2m/s | -54.5°C | 4.9% | 0hPa | 2.5V | 00:00:00 | 01:31:10 | 00:00:00 | |
| OE8JPQ-2 | 2026-09-06 03:17:28 | 46.62039 | 16.22107 | 110° | 20km/h | 21769m | 6.3m/s | -54.5°C | 4.9% | 0hPa | 2.5V | 00:00:00 | 00:00:00 | 00:00:00 | |
| OE3JTB-15 | 2026-09-06 03:17:25 | 46.62045 | 16.22088 | 128° | 20km/h | 21751m | 6.4m/s | -54.5°C | 5.0% | 0hPa | 2.7V | 00:00:00 | 00:00:00 | 08:30:00 | |
| OE5DRO-10 | 2026-09-06 03:17:24 | 46.62048 | 16.22083 | 126° | 22km/h | 21745m | 5.1m/s | -54.5°C | 4.9% | 0hPa | 2.5V | 00:00:00 | 00:00:00 | 00:00:00 | |
| PETON7-10 | 2026-09-06 03:17:21 | 46.62058 | 16.22061 | 122° | 20km/h | 21728m | 6.3m/s | -54.5°C | 4.9% | 0hPa | 2.5V | 00:00:00 | 00:00:00 | 00:00:00 | |
| DB0NH | 2026-09-06 03:17:15 | 46.62077 | 16.22021 | 143° | 20km/h | 21693m | 6.9m/s | 0°C | 0% | 0hPa | 2.5V | 00:00:00 | 01:30:52 | 00:00:00 | |
| PG1ADW-2 | 2026-09-06 03:17:14 | 46.62080 | 16.22018 | 160° | 20km/h | 21687m | 4.8m/s | -54.4°C | 4.9% | 0hPa | 2.5V | 00:00:00 | 00:00:00 | 00:00:00 | |
| OE8JPQ-2 | 2026-09-06 03:17:08 | 46.62104 | 16.21992 | 135° | 20km/h | 21651m | 6.0m/s | -54.5°C | 4.9% | 0hPa | 2.5V | 00:00:00 | 00:00:00 | 00:00:00 | |
| PETON7-10 | 2026-09-06 03:17:06 | 46.62111 | 16.21980 | 133° | 20km/h | 21639m | 4.5m/s | -54.6°C | 4.9% | 0hPa | 2.5V | 00:00:00 | 00:00:00 | 00:00:00 | |
| OE5DRO-10 | 2026-09-06 03:17:05 | 46.62115 | 16.21975 | 144° | 18km/h | 21633m | 5.6m/s | -54.6°C | 4.9% | 0hPa | 2.5V | 00:00:00 | 00:00:00 | 00:00:00 | |
| OE5DXL-15 | 2026-09-06 03:17:03 | 46.62125 | 16.21969 | 174° | 20km/h | 21622m | 4.5m/s | -54.6°C | 4.9% | 0hPa | 2.5V | 00:00:00 | 00:00:00 | 00:00:00 | |
| OE3JTB-15 | 2026-09-06 03:16:56 | 46.62150 | 16.21942 | 124° | 20km/h | 21580m | 6.4m/s | -54.6°C | 4.8% | 0hPa | 2.5V | 00:00:00 | 00:00:00 | 00:00:00 | |
| PG1ADW-2 | 2026-09-06 03:16:54 | 46.62158 | 16.21927 | 135° | 20km/h | 21568m | 6.5m/s | -54.6°C | 4.8% | 0hPa | 2.5V | 00:00:00 | 00:00:00 | 00:00:00 | |
| PETON7-10 | 2026-09-06 03:16:51 | 46.62167 | 16.21913 | 118° | 18km/h | 21549m | 5.8m/s | -54.7°C | 4.8% | 0hPa | 2.5V | 00:00:00 | 01:30:28 | 00:00:00 | |
| OE8JPQ-2 | 2026-09-06 03:16:48 | 46.62173 | 16.21899 | 134° | 20km/h | 21532m | 3.9m/s | -54.8°C | 4.9% | 0hPa | 2.5V | 00:00:00 | 01:30:25 | 00:00:00 | |
| OE5DRO-10 | 2026-09-06 03:16:46 | 46.62179 | 16.21887 | 126° | 20km/h | 21522m | 7.0m/s | -54.9°C | 4.9% | 0hPa | 2.5V | 00:00:00 | 00:00:00 | 08:30:00 | |
| PETON7-10 | 2026-09-06 03:16:36 | 46.62192 | 16.21820 | 90° | 22km/h | 21465m | 3.8m/s | -55.2°C | 5.1% | 0hPa | 2.7V | 00:00:00 | 00:00:00 | 08:30:00 | |
| PG1ADW-2 | 2026-09-06 03:16:34 | 46.62195 | 16.21801 | 109° | 18km/h | 21453m | 5.7m/s | -55.3°C | 5.1% | 0hPa | 2.5V | 00:00:00 | 00:00:00 | 00:00:00 | |
| OE5DXL-15 | 2026-09-06 03:16:33 | 46.62197 | 16.21790 | 114° | 18km/h | 21448m | 4.4m/s | -55.3°C | 5.1% | 0hPa | 2.5V | 00:00:00 | 00:00:00 | 00:00:00 | |
| OE8JPQ-2 | 2026-09-06 03:16:28 | 46.62201 | 16.21760 | 56° | 18km/h | 21420m | 5.8m/s | -55.1°C | 5.1% | 0hPa | 2.5V | 00:00:00 | 00:00:00 | 08:30:00 | |
| OE5DRO-10 | 2026-09-06 03:16:27 | 46.62198 | 16.21753 | 55° | 18km/h | 21414m | 6.4m/s | -55.1°C | 5.0% | 0hPa | 2.7V | 00:00:00 | 00:00:00 | 00:00:00 | |
| PETON7-10 | 2026-09-06 03:16:21 | 46.62195 | 16.21707 | 120° | 16km/h | 21377m | 5.8m/s | -55.0°C | 5.0% | 0hPa | 2.7V | 00:00:00 | 00:00:00 | 00:00:00 | |
| PG1ADW-2 | 2026-09-06 03:16:14 | 46.62198 | 16.21677 | 96° | 15km/h | 21337m | 7.3m/s | -54.9°C | 4.9% | 0hPa | 2.7V | 00:00:00 | 01:29:51 | 08:30:00 | |
| OE8JPQ-2 | 2026-09-06 03:16:08 | 46.62203 | 16.21634 | 59° | 13km/h | 21300m | 5.0m/s | -55.0°C | 5.0% | 0hPa | 2.5V | 00:00:00 | 00:00:00 | 00:00:00 | |
| PETON7-10 | 2026-09-06 03:16:06 | 46.62199 | 16.21628 | 40° | 13km/h | 21288m | 5.4m/s | -55.0°C | 5.0% | 0hPa | 2.5V | 00:00:00 | 01:29:43 | 00:00:00 | |
| OE5DXL-15 | 2026-09-06 03:16:03 | 46.62195 | 16.21616 | 76° | 13km/h | 21270m | 4.4m/s | -55.1°C | 5.0% | 0hPa | 2.5V | 00:00:00 | 00:00:00 | 00:00:00 | |
| OE3JTB-15 | 2026-09-06 03:15:58 | 46.62189 | 16.21590 | 52° | 15km/h | 21240m | 5.1m/s | -55.1°C | 5.0% | 0hPa | 2.5V | 00:00:00 | 00:00:00 | 00:00:00 | |
| PG1ADW-2 | 2026-09-06 03:15:54 | 46.62182 | 16.21584 | 59° | 13km/h | 21215m | 5.9m/s | -55.1°C | 5.0% | 0hPa | 2.7V | 00:00:00 | 00:00:00 | 00:00:00 | |
| PETON7-10 | 2026-09-06 03:15:51 | 46.62181 | 16.21572 | 95° | 13km/h | 21198m | 5.2m/s | -55.0°C | 5.0% | 0hPa | 2.7V | 00:00:00 | 00:00:00 | 00:00:00 | |
| OE5DRO-10 | 2026-09-06 03:15:49 | 46.62180 | 16.21560 | 79° | 15km/h | 21185m | 4.9m/s | -55.0°C | 4.9% | 0hPa | 2.5V | 00:00:00 | 00:00:00 | 00:00:00 | |
| OE8JPQ-2 | 2026-09-06 03:15:48 | 46.62180 | 16.21554 | 76° | 15km/h | 21179m | 6.2m/s | -55.0°C | 4.9% | 0hPa | 2.5V | 00:00:00 | 01:29:25 | 00:00:00 | |
| PETON7-10 | 2026-09-06 03:15:36 | 46.62192 | 16.21508 | 129° | 24km/h | 21110m | 5.9m/s | -55.1°C | 4.8% | 0hPa | 2.5V | 00:00:00 | 00:00:00 | 00:00:00 | |
| PG1ADW-2 | 2026-09-06 03:15:34 | 46.62199 | 16.21502 | 149° | 26km/h | 21098m | 5.8m/s | -55.2°C | 4.9% | 0hPa | 2.5V | 00:00:00 | 00:00:00 | 00:00:00 | |
| OE5DXL-15 | 2026-09-06 03:15:33 | 46.62202 | 16.21498 | 137° | 27km/h | 21092m | 5.9m/s | -55.4°C | 4.9% | 0hPa | 2.5V | 00:00:00 | 00:00:00 | 00:00:00 | |
| OE5DRO-10 | 2026-09-06 03:15:30 | 46.62214 | 16.21482 | 140° | 27km/h | 21074m | 4.9m/s | -56.0°C | 5.2% | 0hPa | 2.5V | 00:00:00 | 00:00:00 | 00:00:00 | |
| OE3JTB-15 | 2026-09-06 03:15:29 | 46.62217 | 16.21477 | 129° | 29km/h | 21068m | 7.2m/s | -56.0°C | 5.3% | 0hPa | 2.5V | 00:00:00 | 00:00:00 | 00:00:00 | |
| OE8JPQ-2 | 2026-09-06 03:15:28 | 46.62220 | 16.21471 | 120° | 29km/h | 21062m | 4.8m/s | -56.0°C | 5.3% | 0hPa | 2.5V | 00:00:00 | 00:00:00 | 00:00:00 | |
| PETON7-10 | 2026-09-06 03:15:21 | 46.62253 | 16.21413 | 124° | 29km/h | 21021m | 6.2m/s | -56.0°C | 5.3% | 0hPa | 2.7V | 00:00:00 | 01:28:58 | 00:00:00 | |
| PG1ADW-2 | 2026-09-06 03:15:14 | 46.62280 | 16.21351 | 125° | 31km/h | 20980m | 6.7m/s | -56.0°C | 5.2% | 0hPa | 2.7V | 00:00:00 | 00:00:00 | 00:00:00 | |
| OE5DRO-10 | 2026-09-06 03:15:11 | 46.62291 | 16.21324 | 127° | 31km/h | 20962m | 5.9m/s | -56.1°C | 5.2% | 0hPa | 2.5V | 00:00:00 | 00:00:00 | 00:00:00 | |
| OE8JPQ-2 | 2026-09-06 03:15:08 | 46.62305 | 16.21296 | 122° | 31km/h | 20944m | 4.2m/s | -56.1°C | 5.3% | 0hPa | 2.5V | 00:00:00 | 00:00:00 | 00:00:00 | |
| PETON7-10 | 2026-09-06 03:15:06 | 46.62314 | 16.21275 | 126° | 31km/h | 20932m | 5.3m/s | -56.1°C | 5.3% | 0hPa | 2.5V | 00:00:00 | 00:00:00 | 00:00:00 | |
| OE3JTB-15 | 2026-09-06 03:15:00 | 46.62329 | 16.21219 | 120° | 29km/h | 20897m | 5.5m/s | -56.0°C | 5.2% | 0hPa | 2.5V | 00:00:00 | 01:28:37 | 00:00:00 | |
| OE5DRO-10 | 2026-09-06 03:14:52 | 46.62355 | 16.21132 | 104° | 31km/h | 20849m | 5.4m/s | -56.1°C | 5.4% | 0hPa | 2.5V | 00:00:00 | 00:00:00 | 00:00:00 | |
| PETON7-10 | 2026-09-06 03:14:51 | 46.62356 | 16.21121 | 99° | 31km/h | 20843m | 6.8m/s | -56.1°C | 5.4% | 0hPa | 2.7V | 00:00:00 | 00:00:00 | 00:00:00 | |
| OE8JPQ-2 | 2026-09-06 03:14:48 | 46.62360 | 16.21091 | 113° | 29km/h | 20825m | 7.1m/s | -56.1°C | 5.3% | 0hPa | 2.7V | 00:00:00 | 01:28:25 | 00:00:00 | |
| PETON7-10 | 2026-09-06 03:14:36 | 46.62384 | 16.20962 | 110° | 26km/h | 20753m | 7.1m/s | -56.0°C | 5.4% | 0hPa | 2.7V | 00:00:00 | 01:28:13 | 00:00:00 | |
| PG1ADW-2 | 2026-09-06 03:14:34 | 46.62388 | 16.20939 | 98° | 24km/h | 20742m | 4.5m/s | -55.9°C | 5.4% | 0hPa | 2.7V | 00:00:00 | 00:00:00 | 00:00:00 | |
| OE5DRO-10 | 2026-09-06 03:14:33 | 46.62388 | 16.20928 | 97° | 24km/h | 20736m | 6.8m/s | -55.8°C | 5.4% | 0hPa | 2.7V | 00:00:00 | 00:00:00 | 00:00:00 | |
| OE3JTB-15 | 2026-09-06 03:14:31 | 46.62389 | 16.20911 | 88° | 22km/h | 20724m | 5.9m/s | -55.7°C | 5.3% | 0hPa | 2.7V | 00:00:00 | 00:00:00 | 00:00:00 | |
| OE8JPQ-2 | 2026-09-06 03:14:28 | 46.62388 | 16.20883 | 92° | 22km/h | 20706m | 6.9m/s | -55.5°C | 5.3% | 0hPa | 2.5V | 00:00:00 | 00:00:00 | 00:00:00 | |
| PETON7-10 | 2026-09-06 03:14:21 | 46.62401 | 16.20825 | 106° | 22km/h | 20665m | 6.1m/s | -55.2°C | 5.3% | 0hPa | 2.7V | 00:00:00 | 00:00:00 | 08:30:00 | |
| PG1ADW-2 | 2026-09-06 03:14:14 | 46.62405 | 16.20768 | 108° | 24km/h | 20624m | 4.7m/s | -54.8°C | 5.0% | 0hPa | 2.7V | 00:00:00 | 00:00:00 | 00:00:00 | |
| OE8JPQ-2 | 2026-09-06 03:14:08 | 46.62412 | 16.20723 | 83° | 22km/h | 20589m | 6.5m/s | -54.5°C | 4.9% | 0hPa | 2.5V | 00:00:00 | 00:00:00 | 00:00:00 | |
| PETON7-10 | 2026-09-06 03:14:06 | 46.62410 | 16.20706 | 88° | 22km/h | 20576m | 7.3m/s | -54.4°C | 4.8% | 0hPa | 2.5V | 00:00:00 | 00:00:00 | 00:00:00 | |
| OE3JTB-15 | 2026-09-06 03:14:01 | 46.62413 | 16.20664 | 93° | 22km/h | 20548m | 7.1m/s | -54.1°C | 4.6% | 0hPa | 2.5V | 00:00:00 | 00:00:00 | 00:00:00 | |
| OE5DRO-10 | 2026-09-06 03:13:55 | 46.62414 | 16.20612 | 86° | 22km/h | 20512m | 5.9m/s | -54.1°C | 4.4% | 0hPa | 2.5V | 00:00:00 | 00:00:00 | 08:30:00 | |
| PG1ADW-2 | 2026-09-06 03:13:54 | 46.62413 | 16.20603 | 77° | 22km/h | 20507m | 4.8m/s | -54.3°C | 4.4% | 0hPa | 2.6V | 00:00:00 | 00:00:00 | 00:00:00 | |
| PETON7-10 | 2026-09-06 03:13:51 | 46.62409 | 16.20586 | 64° | 22km/h | 20490m | 6.4m/s | -54.8°C | 4.6% | 0hPa | 2.6V | 00:00:00 | 01:27:28 | 00:00:00 | |
| OE8JPQ-2 | 2026-09-06 03:13:48 | 46.62406 | 16.20568 | 99° | 24km/h | 20473m | 6.4m/s | -55.5°C | 4.8% | 0hPa | 2.6V | 00:00:00 | 01:27:25 | 00:00:00 | |
| PETON7-10 | 2026-09-06 03:13:36 | 46.62424 | 16.20466 | 123° | 22km/h | 20404m | 4.9m/s | -56.2°C | 5.4% | 0hPa | 2.6V | 00:00:00 | 00:00:00 | 00:00:00 | |
| PG1ADW-2 | 2026-09-06 03:13:34 | 46.62431 | 16.20448 | 116° | 18km/h | 20393m | 4.6m/s | -56.2°C | 5.4% | 0hPa | 2.5V | 00:00:00 | 01:27:11 | 00:00:00 | |
| OE5DXL-15 | 2026-09-06 03:13:33 | 46.62434 | 16.20438 | 119° | 18km/h | 20388m | 4.8m/s | -56.2°C | 5.4% | 0hPa | 2.5V | 00:00:00 | 00:00:00 | 08:30:00 | |
| OE3JTB-15 | 2026-09-06 03:13:32 | 46.62438 | 16.20430 | 126° | 20km/h | 20383m | 6.5m/s | -56.1°C | 5.3% | 0hPa | 2.7V | 00:00:00 | 01:27:09 | 00:00:00 | |
| OE8JPQ-2 | 2026-09-06 03:13:28 | 46.62446 | 16.20411 | 118° | 20km/h | 20360m | 4.6m/s | -56.0°C | 5.3% | 0hPa | 2.7V | 00:00:00 | 00:00:00 | 08:30:00 | |
| PETON7-10 | 2026-09-06 03:13:21 | 46.62469 | 16.20373 | 148° | 20km/h | 20319m | 4.9m/s | -56.0°C | 5.3% | 0hPa | 2.6V | 00:00:00 | 00:00:00 | 00:00:00 | |
| OE5DRO-10 | 2026-09-06 03:13:17 | 46.62480 | 16.20357 | 139° | 22km/h | 20295m | 6.0m/s | -55.8°C | 5.3% | 0hPa | 2.6V | 00:00:00 | 00:00:00 | 00:00:00 | |
| PG1ADW-2 | 2026-09-06 03:13:14 | 46.62489 | 16.20345 | 136° | 20km/h | 20279m | 4.3m/s | -55.7°C | 5.3% | 0hPa | 2.6V | 00:00:00 | 00:00:00 | 08:30:00 | |
| OE8JPQ-2 | 2026-09-06 03:13:08 | 46.62523 | 16.20308 | 154° | 16km/h | 20243m | 6.1m/s | -55.6°C | 5.3% | 0hPa | 2.5V | 00:00:00 | 00:00:00 | 00:00:00 | |
| PETON7-10 | 2026-09-06 03:13:06 | 46.62528 | 16.20304 | 130° | 16km/h | 20231m | 6.6m/s | -55.5°C | 5.2% | 0hPa | 2.5V | 00:00:00 | 01:26:43 | 00:00:00 | |
| OE3JTB-15 | 2026-09-06 03:13:03 | 46.62536 | 16.20295 | 157° | 16km/h | 20213m | 5.0m/s | -55.4°C | 5.1% | 0hPa | 2.5V | 00:00:00 | 00:00:00 | 08:30:00 | |
| OE5DRO-10 | 2026-09-06 03:12:58 | 46.62564 | 16.20273 | 173° | 13km/h | 20183m | 4.1m/s | -55.2°C | 5.1% | 0hPa | 2.7V | 00:00:00 | 00:00:00 | 00:00:00 | |
| PG1ADW-2 | 2026-09-06 03:12:54 | 46.62573 | 16.20273 | 199° | 13km/h | 20158m | 6.0m/s | -55.1°C | 5.1% | 0hPa | 2.6V | 00:00:00 | 00:00:00 | 00:00:00 | |
| PETON7-10 | 2026-09-06 03:12:51 | 46.62583 | 16.20272 | 140° | 11km/h | 20140m | 5.5m/s | -55.0°C | 5.0% | 0hPa | 2.6V | 00:00:00 | 00:00:00 | 00:00:00 | |
| OE8JPQ-2 | 2026-09-06 03:12:48 | 46.62592 | 16.20264 | 172° | 11km/h | 20121m | 5.4m/s | -55.0°C | 5.1% | 0hPa | 2.6V | 00:00:00 | 01:26:25 | 00:00:00 | |
| OE5DRO-10 | 2026-09-06 03:12:39 | 46.62617 | 16.20271 | 182° | 11km/h | 20070m | 5.5m/s | -54.9°C | 5.1% | 0hPa | 2.6V | 00:00:00 | 00:00:00 | 00:00:00 | |
| PETON7-10 | 2026-09-06 03:12:36 | 46.62622 | 16.20277 | 226° | 13km/h | 20052m | 7.0m/s | -54.7°C | 5.0% | 0hPa | 2.6V | 00:00:00 | 00:00:00 | 00:00:00 | |
| PG1ADW-2 | 2026-09-06 03:12:34 | 46.62628 | 16.20286 | 231° | 15km/h | 20042m | 5.8m/s | -54.6°C | 5.0% | 0hPa | 2.6V | 00:00:00 | 00:00:00 | 00:00:00 | |
| OE5DXL-15 | 2026-09-06 03:12:33 | 46.62630 | 16.20290 | 236° | 16km/h | 20036m | 6.0m/s | -54.6°C | 4.9% | 0hPa | 2.6V | 00:00:00 | 00:00:00 | 00:00:00 | |
| OE8JPQ-2 | 2026-09-06 03:12:28 | 46.62643 | 16.20287 | 151° | 15km/h | 20007m | 7.5m/s | -54.4°C | 4.8% | 0hPa | 2.6V | 00:00:00 | 00:00:00 | 00:00:00 | |
| PETON7-10 | 2026-09-06 03:12:21 | 46.62662 | 16.20297 | 197° | 16km/h | 19968m | 5.9m/s | -54.1°C | 4.8% | 0hPa | 2.7V | 00:00:00 | 01:25:58 | 00:00:00 | |
| OE5DRO-10 | 2026-09-06 03:12:20 | 46.62665 | 16.20297 | 171° | 18km/h | 19962m | 5.7m/s | -54.0°C | 4.8% | 0hPa | 2.7V | 00:00:00 | 00:00:00 | 00:00:00 | |
| PG1ADW-2 | 2026-09-06 03:12:14 | 46.62690 | 16.20279 | 194° | 20km/h | 19929m | 6.2m/s | -54.1°C | 4.7% | 0hPa | 2.7V | 00:00:00 | 01:25:51 | 00:00:00 | |
| OE3JTB-15 | 2026-09-06 03:12:10 | 46.62702 | 16.20291 | 208° | 20km/h | 19908m | 4.7m/s | -54.5°C | 4.7% | 0hPa | 2.6V | 00:00:00 | 00:00:00 | 00:00:00 | |
| OE8JPQ-2 | 2026-09-06 03:12:08 | 46.62709 | 16.20291 | 151° | 22km/h | 19896m | 4.7m/s | -54.5°C | 4.7% | 0hPa | 2.6V | 00:00:00 | 00:00:00 | 00:00:00 | |
| PETON7-10 | 2026-09-06 03:12:06 | 46.62719 | 16.20282 | 153° | 22km/h | 19885m | 6.4m/s | -54.5°C | 4.7% | 0hPa | 2.6V | 00:00:00 | 00:00:00 | 08:30:00 | |
| OE5DRO-10 | 2026-09-06 03:12:01 | 46.62745 | 16.20268 | 173° | 20km/h | 19857m | 3.8m/s | -54.6°C | 4.7% | 0hPa | 2.6V | 00:00:00 | 00:00:00 | 00:00:00 | |
| PG1ADW-2 | 2026-09-06 03:11:54 | 46.62774 | 16.20234 | 128° | 22km/h | 19818m | 5.4m/s | -55.0°C | 4.8% | 0hPa | 2.6V | 00:00:00 | 00:00:00 | 00:00:00 | |
| PETON7-10 | 2026-09-06 03:11:51 | 46.62785 | 16.20218 | 135° | 20km/h | 19802m | 5.4m/s | -55.0°C | 4.8% | 0hPa | 2.6V | 00:00:00 | 00:00:00 | 00:00:00 | |
| OE8JPQ-2 | 2026-09-06 03:11:48 | 46.62793 | 16.20200 | 132° | 22km/h | 19784m | 7.3m/s | -55.1°C | 4.8% | 0hPa | 2.6V | 00:00:00 | 01:25:25 | 00:00:00 | |
| OE5DRO-10 | 2026-09-06 03:11:42 | 46.62807 | 16.20165 | 116° | 22km/h | 19751m | 5.8m/s | -56.1°C | 5.1% | 0hPa | 2.6V | 00:00:00 | 00:00:00 | 00:00:00 | |
| OE3JTB-15 | 2026-09-06 03:11:39 | 46.62813 | 16.20143 | 104° | 33km/h | 19734m | 5.6m/s | -56.3°C | 5.3% | 0hPa | 2.6V | 00:00:00 | 01:25:16 | 00:00:00 | |
| PETON7-10 | 2026-09-06 03:11:36 | 46.62816 | 16.20117 | 91° | 22km/h | 19716m | 6.3m/s | -56.3°C | 5.3% | 0hPa | 2.6V | 00:00:00 | 01:25:13 | 00:00:00 | |
| PG1ADW-2 | 2026-09-06 03:11:34 | 46.62816 | 16.20098 | 93° | 20km/h | 19705m | 6.5m/s | -56.3°C | 5.4% | 0hPa | 2.6V | 00:00:00 | 00:00:00 | 00:00:00 | |
| OE8JPQ-2 | 2026-09-06 03:11:28 | 46.62824 | 16.20054 | 117° | 18km/h | 19672m | 6.5m/s | -56.1°C | 5.3% | 0hPa | 2.6V | 00:00:00 | 00:00:00 | 00:00:00 | |
| OE5DRO-10 | 2026-09-06 03:11:23 | 46.62836 | 16.20020 | 121° | 20km/h | 19643m | 5.6m/s | -55.9°C | 5.3% | 0hPa | 2.7V | 00:00:00 | 00:00:00 | 00:00:00 | |
| PETON7-10 | 2026-09-06 03:11:21 | 46.62842 | 16.20007 | 124° | 18km/h | 19632m | 6.7m/s | -55.8°C | 5.3% | 0hPa | 2.7V | 00:00:00 | 00:00:00 | 00:00:00 | |
| PG1ADW-2 | 2026-09-06 03:11:14 | 46.62858 | 16.19970 | 111° | 24km/h | 19595m | 4.3m/s | -55.7°C | 5.2% | 0hPa | 2.6V | 00:00:00 | 00:00:00 | 00:00:00 | |
| OE8JPQ-2 | 2026-09-06 03:11:08 | 46.62876 | 16.19939 | 136° | 24km/h | 19560m | 6.1m/s | -55.5°C | 5.2% | 0hPa | 2.7V | 00:00:00 | 00:00:00 | 00:00:00 | |
| PETON7-10 | 2026-09-06 03:11:06 | 46.62885 | 16.19926 | 127° | 26km/h | 19549m | 6.9m/s | -55.4°C | 5.2% | 0hPa | 2.7V | 00:00:00 | 00:00:00 | 00:00:00 | |
| OE5DRO-10 | 2026-09-06 03:11:04 | 46.62892 | 16.19911 | 134° | 26km/h | 19539m | 5.8m/s | -55.3°C | 5.2% | 0hPa | 2.7V | 00:00:00 | 00:00:00 | 08:30:00 | |
| PG1ADW-2 | 2026-09-06 03:10:54 | 46.62939 | 16.19851 | 142° | 33km/h | 19482m | 6.9m/s | -54.9°C | 4.8% | 0hPa | 2.7V | 00:00:00 | 01:24:31 | 00:00:00 | |
| PETON7-10 | 2026-09-06 03:10:51 | 46.62955 | 16.19844 | 172° | 33km/h | 19465m | 5.7m/s | -54.8°C | 4.8% | 0hPa | 2.7V | 00:00:00 | 01:24:28 | 00:00:00 | |
| OE8JPQ-2 | 2026-09-06 03:10:48 | 46.62971 | 16.19836 | 147° | 38km/h | 19447m | 4.5m/s | -55.0°C | 4.8% | 0hPa | 2.7V | 00:00:00 | 01:24:25 | 00:00:00 | |
| OE5DRO-10 | 2026-09-06 03:10:45 | 46.62985 | 16.19809 | 122° | 40km/h | 19428m | 5.7m/s | -55.1°C | 4.9% | 0hPa | 2.7V | 00:00:00 | 00:00:00 | 00:00:00 | |
| PETON7-10 | 2026-09-06 03:10:36 | 46.63060 | 16.19745 | 145° | 42km/h | 19378m | 4.8m/s | -55.8°C | 5.3% | 0hPa | 2.7V | 00:00:00 | 00:00:00 | 00:00:00 | |
| PG1ADW-2 | 2026-09-06 03:10:34 | 46.63077 | 16.19726 | 143° | 40km/h | 19367m | 4.4m/s | -55.7°C | 5.2% | 0hPa | 2.6V | 00:00:00 | 00:00:00 | 00:00:00 | |
| OE5DXL-15 | 2026-09-06 03:10:33 | 46.63085 | 16.19717 | 145° | 40km/h | 19362m | 5.9m/s | -55.6°C | 5.2% | 0hPa | 2.6V | 00:00:00 | 00:00:00 | 00:00:00 | |
| OE8JPQ-2 | 2026-09-06 03:10:28 | 46.63124 | 16.19671 | 137° | 42km/h | 19337m | 6.0m/s | -55.4°C | 5.0% | 0hPa | 2.6V | 00:00:00 | 00:00:00 | 08:30:00 | |
| OE5DRO-10 | 2026-09-06 03:10:26 | 46.63140 | 16.19652 | 146° | 40km/h | 19326m | 4.2m/s | -55.3°C | 4.9% | 0hPa | 2.6V | 00:00:00 | 00:00:00 | 00:00:00 | |
| PETON7-10 | 2026-09-06 03:10:21 | 46.63184 | 16.19608 | 144° | 40km/h | 19301m | 5.6m/s | -55.2°C | 4.7% | 0hPa | 2.6V | 00:00:00 | 00:00:00 | 00:00:00 | |
| PG1ADW-2 | 2026-09-06 03:10:14 | 46.63242 | 16.19544 | 134° | 46km/h | 19265m | 4.1m/s | -55.1°C | 4.6% | 0hPa | 2.6V | 00:00:00 | 00:00:00 | 08:30:00 | |
| OE8JPQ-2 | 2026-09-06 03:10:08 | 46.63282 | 16.19480 | 138° | 49km/h | 19233m | 6.0m/s | -57.0°C | 5.3% | 0hPa | 2.6V | 00:00:00 | 00:00:00 | 00:00:00 | |
| PETON7-10 | 2026-09-06 03:10:06 | 46.63296 | 16.19461 | 138° | 49km/h | 19222m | 6.3m/s | -57.2°C | 5.4% | 0hPa | 2.6V | 00:00:00 | 01:23:43 | 00:00:00 | |
| OE5DXL-15 | 2026-09-06 03:10:03 | 46.63320 | 16.19422 | 127° | 49km/h | 19205m | 4.3m/s | -57.4°C | 5.6% | 0hPa | 2.6V | 00:00:00 | 00:00:00 | 00:00:00 | |
| PG1ADW-2 | 2026-09-06 03:09:54 | 46.63389 | 16.19290 | 129° | 49km/h | 19156m | 5.7m/s | -57.3°C | 5.5% | 0hPa | 2.6V | 00:00:00 | 00:00:00 | 00:00:00 | |
| PETON7-10 | 2026-09-06 03:09:51 | 46.63411 | 16.19242 | 125° | 49km/h | 19140m | 5.2m/s | -57.3°C | 5.5% | 0hPa | 2.6V | 00:00:00 | 00:00:00 | 08:30:00 | |
| OE8JPQ-2 | 2026-09-06 03:09:48 | 46.63431 | 16.19196 | 122° | 49km/h | 19123m | 4.1m/s | -57.2°C | 5.5% | 0hPa | 2.6V | 00:00:00 | 01:23:25 | 00:00:00 | |
| PETON7-10 | 2026-09-06 03:09:36 | 46.63510 | 16.19017 | 124° | 49km/h | 19057m | 6.0m/s | -57.2°C | 5.4% | 0hPa | 2.6V | 00:00:00 | 00:00:00 | 00:00:00 | |
| PG1ADW-2 | 2026-09-06 03:09:34 | 46.63525 | 16.18986 | 125° | 49km/h | 19046m | 5.5m/s | -57.2°C | 5.4% | 0hPa | 2.6V | 00:00:00 | 01:23:11 | 00:00:00 | |
| OE5DXL-15 | 2026-09-06 03:09:33 | 46.63532 | 16.18971 | 124° | 51km/h | 19041m | 5.5m/s | -57.2°C | 5.4% | 0hPa | 2.6V | 00:00:00 | 00:00:00 | 00:00:00 | |
| OE5DRO-10 | 2026-09-06 03:09:29 | 46.63558 | 16.18909 | 120° | 49km/h | 19018m | 4.6m/s | -57.5°C | 5.6% | 0hPa | 2.6V | 00:00:00 | 00:00:00 | 00:00:00 | |
| OE8JPQ-2 | 2026-09-06 03:09:28 | 46.63564 | 16.18895 | 119° | 51km/h | 19012m | 6.5m/s | -57.5°C | 5.7% | 0hPa | 2.6V | 00:00:00 | 00:00:00 | 00:00:00 | |
| PETON7-10 | 2026-09-06 03:09:21 | 46.63606 | 16.18785 | 130° | 53km/h | 18975m | 4.7m/s | -57.6°C | 5.8% | 0hPa | 2.6V | 00:00:00 | 01:22:58 | 00:00:00 | |
| PG1ADW-2 | 2026-09-06 03:09:14 | 46.63655 | 16.18677 | 124° | 49km/h | 18937m | 6.5m/s | -57.3°C | 5.6% | 0hPa | 2.6V | 00:00:00 | 00:00:00 | 00:00:00 | |
| OE5DRO-10 | 2026-09-06 03:09:10 | 46.63685 | 16.18612 | 124° | 49km/h | 18915m | 4.5m/s | -57.1°C | 5.5% | 0hPa | 2.6V | 00:00:00 | 00:00:00 | 00:00:00 | |
| OE8JPQ-2 | 2026-09-06 03:09:08 | 46.63700 | 16.18577 | 118° | 47km/h | 18903m | 4.8m/s | -57.0°C | 5.5% | 0hPa | 2.7V | 00:00:00 | 00:00:00 | 00:00:00 | |
| PETON7-10 | 2026-09-06 03:09:06 | 46.63712 | 16.18544 | 123° | 47km/h | 18891m | 5.2m/s | -56.9°C | 5.5% | 0hPa | 2.7V | 00:00:00 | 00:00:00 | 00:00:00 | |
| PG1ADW-2 | 2026-09-06 03:08:54 | 46.63788 | 16.18369 | 120° | 49km/h | 18823m | 5.2m/s | -56.6°C | 5.4% | 0hPa | 2.6V | 00:00:00 | 00:00:00 | 00:00:00 | |
| PETON7-10 | 2026-09-06 03:08:51 | 46.63806 | 16.18325 | 116° | 51km/h | 18807m | 6.4m/s | -56.5°C | 5.3% | 0hPa | 2.6V | 00:00:00 | 00:00:00 | 00:00:00 | |
| OE8JPQ-2 | 2026-09-06 03:08:48 | 46.63822 | 16.18272 | 116° | 51km/h | 18791m | 4.3m/s | -56.5°C | 5.3% | 0hPa | 2.6V | 00:00:00 | 01:22:25 | 00:00:00 | |
| PETON7-10 | 2026-09-06 03:08:36 | 46.63884 | 16.18069 | 114° | 49km/h | 18725m | 4.9m/s | -56.8°C | 5.3% | 0hPa | 2.6V | 00:00:00 | 01:22:13 | 00:00:00 | |
| OE5DRO-10 | 2026-09-06 03:08:32 | 46.63898 | 16.18003 | 98° | 55km/h | 18703m | 4.1m/s | -56.7°C | 5.2% | 0hPa | 2.6V | 00:00:00 | 00:00:00 | 00:00:00 | |
| OE8JPQ-2 | 2026-09-06 03:08:28 | 46.63911 | 16.17925 | 109° | 57km/h | 18683m | 6.3m/s | -56.8°C | 5.1% | 0hPa | 2.6V | 00:00:00 | 00:00:00 | 00:00:00 | |
| PETON7-10 | 2026-09-06 03:08:21 | 46.63932 | 16.17804 | 104° | 60km/h | 18645m | 6.3m/s | -57.7°C | 5.5% | 0hPa | 2.7V | 00:00:00 | 00:00:00 | 00:00:00 | |
| PG1ADW-2 | 2026-09-06 03:08:14 | 46.63952 | 16.17656 | 99° | 60km/h | 18607m | 6.4m/s | -58.1°C | 5.9% | 0hPa | 2.6V | 00:00:00 | 01:21:51 | 00:00:00 | |
| OE5DRO-10 | 2026-09-06 03:08:13 | 46.63953 | 16.17634 | 94° | 60km/h | 18601m | 5.4m/s | -58.1°C | 5.8% | 0hPa | 2.6V | 00:00:00 | 00:00:00 | 08:30:00 | |
| OE3JTB-15 | 2026-09-06 03:08:09 | 46.63960 | 16.17543 | 96° | 55km/h | 18580m | 6.2m/s | -58.0°C | 5.8% | 0hPa | 2.7V | 00:00:00 | 00:00:00 | 00:00:00 | |
| PETON7-10 | 2026-09-06 03:08:06 | 46.63964 | 16.17480 | 99° | 58km/h | 18565m | 4.5m/s | -57.9°C | 5.8% | 0hPa | 2.6V | 00:00:00 | 00:00:00 | 00:00:00 | |
| OE5DRO-10 | 2026-09-06 03:07:54 | 46.63968 | 16.17219 | 85° | 55km/h | 18500m | 3.7m/s | -58.0°C | 6.0% | 0hPa | 2.6V | 00:00:00 | 00:00:00 | 00:00:00 | |
| PETON7-10 | 2026-09-06 03:07:51 | 46.63967 | 16.17162 | 94° | 57km/h | 18486m | 3.0m/s | -57.9°C | 6.0% | 0hPa | 2.6V | 00:00:00 | 01:21:28 | 00:00:00 | |
| OE8JPQ-2 | 2026-09-06 03:07:48 | 46.63969 | 16.17095 | 96° | 53km/h | 18468m | 7.6m/s | -57.7°C | 5.8% | 0hPa | 2.6V | 00:00:00 | 01:21:25 | 00:00:00 | |
| OE3JTB-15 | 2026-09-06 03:07:40 | 46.63978 | 16.16947 | 97° | 57km/h | 18419m | 5.4m/s | -57.3°C | 5.6% | 0hPa | 2.6V | 00:00:00 | 00:00:00 | 00:00:00 | |
| PETON7-10 | 2026-09-06 03:07:36 | 46.63987 | 16.16855 | 99° | 51km/h | 18396m | 5.7m/s | -57.3°C | 5.6% | 0hPa | 2.6V | 00:00:00 | 00:00:00 | 08:30:00 | |
| OE5DRO-10 | 2026-09-06 03:07:35 | 46.63988 | 16.16832 | 95° | 53km/h | 18389m | 7.1m/s | -57.3°C | 5.6% | 0hPa | 2.6V | 00:00:00 | 00:00:00 | 00:00:00 | |
| PG1ADW-2 | 2026-09-06 03:07:34 | 46.63989 | 16.16814 | 90° | 55km/h | 18384m | 3.5m/s | -57.2°C | 5.5% | 0hPa | 2.6V | 00:00:00 | 00:00:00 | 00:00:00 | |
| OE5DXL-15 | 2026-09-06 03:07:33 | 46.63989 | 16.16798 | 90° | 58km/h | 18379m | 6.8m/s | -57.1°C | 5.4% | 0hPa | 2.6V | 00:00:00 | 00:00:00 | 00:00:00 | |
| OE8JPQ-2 | 2026-09-06 03:07:28 | 46.64002 | 16.16711 | 109° | 58km/h | 18342m | 4.5m/s | -57.0°C | 5.3% | 0hPa | 2.6V | 00:00:00 | 00:00:00 | 08:30:00 | |
| PETON7-10 | 2026-09-06 03:07:21 | 46.64034 | 16.16582 | 106° | 60km/h | 18296m | 8.3m/s | -57.5°C | 5.4% | 0hPa | 2.6V | 00:00:00 | 00:00:00 | 00:00:00 | |
| OE5DRO-10 | 2026-09-06 03:07:16 | 46.64068 | 16.16486 | 122° | 64km/h | 18260m | 6.4m/s | -58.0°C | 5.7% | 0hPa | 2.6V | 00:00:00 | 00:00:00 | 00:00:00 | |
| PG1ADW-2 | 2026-09-06 03:07:14 | 46.64086 | 16.16443 | 124° | 62km/h | 18249m | 6.2m/s | -58.1°C | 5.7% | 0hPa | 2.7V | 00:00:00 | 00:00:00 | 08:30:00 | |
| OE3JTB-15 | 2026-09-06 03:07:11 | 46.64113 | 16.16384 | 126° | 60km/h | 18233m | 5.0m/s | -58.1°C | 5.7% | 0hPa | 2.7V | 00:00:00 | 01:20:48 | 00:00:00 | |
| OE8JPQ-2 | 2026-09-06 03:07:08 | 46.64136 | 16.16334 | 122° | 62km/h | 18216m | 4.8m/s | -58.2°C | 5.8% | 0hPa | 2.7V | 00:00:00 | 00:00:00 | 00:00:00 | |
| PETON7-10 | 2026-09-06 03:07:06 | 46.64151 | 16.16294 | 117° | 64km/h | 18204m | 4.9m/s | -58.4°C | 5.8% | 0hPa | 2.7V | 00:00:00 | 01:20:43 | 00:00:00 | |
| OE5DRO-10 | 2026-09-06 03:06:57 | 46.64214 | 16.16098 | 117° | 57km/h | 18154m | 5.1m/s | -58.7°C | 6.0% | 0hPa | 2.7V | 00:00:00 | 00:00:00 | 00:00:00 | |
| PG1ADW-2 | 2026-09-06 03:06:54 | 46.64234 | 16.16040 | 117° | 55km/h | 18137m | 6.4m/s | -58.8°C | 5.9% | 0hPa | 2.7V | 00:00:00 | 01:20:31 | 00:00:00 | |
| PETON7-10 | 2026-09-06 03:06:51 | 46.64256 | 16.15981 | 117° | 55km/h | 18120m | 6.2m/s | -58.9°C | 6.0% | 0hPa | 2.7V | 00:00:00 | 00:00:00 | 00:00:00 | |
| OE8JPQ-2 | 2026-09-06 03:06:48 | 46.64272 | 16.15925 | 114° | 51km/h | 18103m | 5.5m/s | -58.9°C | 5.9% | 0hPa | 2.7V | 00:00:00 | 01:20:25 | 00:00:00 | |
| OE3JTB-15 | 2026-09-06 03:06:41 | 46.64310 | 16.15788 | 109° | 47km/h | 18062m | 4.1m/s | -58.7°C | 5.8% | 0hPa | 2.7V | 00:00:00 | 00:00:00 | 00:00:00 | |
| OE5DRO-10 | 2026-09-06 03:06:38 | 46.64324 | 16.15740 | 118° | 47km/h | 18046m | 4.9m/s | -59.1°C | 5.9% | 0hPa | 2.6V | 00:00:00 | 00:00:00 | 00:00:00 | |
| PETON7-10 | 2026-09-06 03:06:36 | 46.64335 | 16.15705 | 113° | 47km/h | 18034m | 4.9m/s | -59.3°C | 6.1% | 0hPa | 2.6V | 00:00:00 | 00:00:00 | 00:00:00 | |
| PG1ADW-2 | 2026-09-06 03:06:34 | 46.64345 | 16.15669 | 111° | 46km/h | 18023m | 4.5m/s | -59.4°C | 6.3% | 0hPa | 2.6V | 00:00:00 | 00:00:00 | 00:00:00 | |
| OE5DXL-15 | 2026-09-06 03:06:33 | 46.64349 | 16.15650 | 105° | 44km/h | 18018m | 6.8m/s | -59.4°C | 6.2% | 0hPa | 2.6V | 00:00:00 | 00:00:00 | 00:00:00 | |
| OE8JPQ-2 | 2026-09-06 03:06:28 | 46.64359 | 16.15569 | 103° | 46km/h | 17990m | 6.2m/s | -59.6°C | 6.3% | 0hPa | 2.6V | 00:00:00 | 00:00:00 | 00:00:00 | |
| PETON7-10 | 2026-09-06 03:06:21 | 46.64383 | 16.15452 | 108° | 44km/h | 17952m | 6.2m/s | -59.5°C | 6.2% | 0hPa | 2.6V | 00:00:00 | 01:19:58 | 00:00:00 | |
| OE5DRO-10 | 2026-09-06 03:06:19 | 46.64389 | 16.15419 | 101° | 42km/h | 17940m | 6.0m/s | -59.5°C | 6.2% | 0hPa | 2.6V | 00:00:00 | 00:00:00 | 00:00:00 | |
| PG1ADW-2 | 2026-09-06 03:06:14 | 46.64395 | 16.15348 | 99° | 42km/h | 17913m | 5.2m/s | -59.8°C | 6.5% | 0hPa | 2.6V | 00:00:00 | 00:00:00 | 00:00:00 | |
| OE3JTB-15 | 2026-09-06 03:06:11 | 46.64405 | 16.15301 | 116° | 38km/h | 17897m | 5.1m/s | -59.7°C | 6.4% | 0hPa | 2.7V | 00:00:00 | 00:00:00 | 00:00:00 | |
| OE8JPQ-2 | 2026-09-06 03:06:08 | 46.64419 | 16.15252 | 111° | 38km/h | 17880m | 5.7m/s | -59.6°C | 6.4% | 0hPa | 2.7V | 00:00:00 | 00:00:00 | 00:00:00 | |
| PETON7-10 | 2026-09-06 03:06:06 | 46.64426 | 16.15225 | 109° | 38km/h | 17870m | 5.2m/s | -59.5°C | 6.3% | 0hPa | 2.7V | 00:00:00 | 00:00:00 | 00:00:00 | |
| OE5DXL-15 | 2026-09-06 03:06:03 | 46.64432 | 16.15186 | 105° | 38km/h | 17853m | 6.8m/s | -59.4°C | 6.3% | 0hPa | 2.6V | 00:00:00 | 00:00:00 | 00:00:00 | |
| OE5DRO-10 | 2026-09-06 03:06:00 | 46.64441 | 16.15144 | 108° | 37km/h | 17835m | 4.5m/s | -59.3°C | 6.3% | 0hPa | 2.6V | 00:00:00 | 00:00:00 | 00:00:00 | |
| PG1ADW-2 | 2026-09-06 03:05:54 | 46.64466 | 16.15063 | 109° | 37km/h | 17802m | 4.1m/s | -59.2°C | 6.4% | 0hPa | 2.6V | 00:00:00 | 00:00:00 | 00:00:00 | |
| PETON7-10 | 2026-09-06 03:05:51 | 46.64474 | 16.15028 | 102° | 37km/h | 17787m | 7.1m/s | -59.1°C | 6.4% | 0hPa | 2.6V | 00:00:00 | 00:00:00 | 00:00:00 | |
| OE8JPQ-2 | 2026-09-06 03:05:48 | 46.64481 | 16.14992 | 117° | 38km/h | 17769m | 5.1m/s | -58.9°C | 6.4% | 0hPa | 2.6V | 00:00:00 | 01:19:25 | 00:00:00 | |
| OE3JTB-15 | 2026-09-06 03:05:42 | 46.64507 | 16.14919 | 115° | 37km/h | 17734m | 7.9m/s | -58.6°C | 6.1% | 0hPa | 2.6V | 00:00:00 | 01:19:19 | 00:00:00 | |
| OE5DRO-10 | 2026-09-06 03:05:41 | 46.64510 | 16.14907 | 113° | 38km/h | 17728m | 5.1m/s | -58.6°C | 6.0% | 0hPa | 2.6V | 00:00:00 | 00:00:00 | 00:00:00 | |
| PETON7-10 | 2026-09-06 03:05:36 | 46.64532 | 16.14847 | 122° | 38km/h | 17697m | 6.9m/s | -58.4°C | 5.9% | 0hPa | 2.6V | 00:00:00 | 01:19:13 | 00:00:00 | |
| OE5DXL-15 | 2026-09-06 03:05:33 | 46.64550 | 16.14808 | 122° | 38km/h | 17679m | 5.5m/s | -58.2°C | 5.9% | 0hPa | 2.6V | 00:00:00 | 00:00:00 | 00:00:00 | |
| OE8JPQ-2 | 2026-09-06 03:05:28 | 46.64574 | 16.14753 | 117° | 38km/h | 17652m | 3.7m/s | -58.1°C | 5.9% | 0hPa | 2.6V | 00:00:00 | 00:00:00 | 00:00:00 | |
| OE5DRO-10 | 2026-09-06 03:05:22 | 46.64606 | 16.14686 | 126° | 38km/h | 17622m | 5.9m/s | -58.1°C | 5.9% | 0hPa | 2.7V | 00:00:00 | 00:00:00 | 08:30:00 | |
| PETON7-10 | 2026-09-06 03:05:21 | 46.64611 | 16.14675 | 130° | 38km/h | 17617m | 4.6m/s | -58.1°C | 5.9% | 0hPa | 2.7V | 00:00:00 | 00:00:00 | 08:30:00 | |
| PG1ADW-2 | 2026-09-06 03:05:14 | 46.64648 | 16.14597 | 130° | 40km/h | 17580m | 4.9m/s | -58.2°C | 6.0% | 0hPa | 2.6V | 00:00:00 | 00:00:00 | 00:00:00 | |
| OE3JTB-15 | 2026-09-06 03:05:13 | 46.64656 | 16.14584 | 133° | 40km/h | 17574m | 6.1m/s | -58.2°C | 6.0% | 0hPa | 2.6V | 00:00:00 | 00:00:00 | 08:30:00 | |
| OE8JPQ-2 | 2026-09-06 03:05:07 | 46.64696 | 16.14519 | 128° | 40km/h | 17542m | 4.3m/s | -58.0°C | 5.8% | 0hPa | 2.7V | 00:00:00 | 00:00:00 | 00:00:00 | |
| PETON7-10 | 2026-09-06 03:05:06 | 46.64701 | 16.14508 | 125° | 38km/h | 17536m | 6.7m/s | -58.0°C | 5.9% | 0hPa | 2.7V | 00:00:00 | 00:00:00 | 00:00:00 | |
| OE5DXL-15 | 2026-09-06 03:05:03 | 46.64716 | 16.14475 | 131° | 42km/h | 17521m | 4.7m/s | -58.1°C | 5.9% | 0hPa | 2.7V | 00:00:00 | 00:00:00 | 00:00:00 | |
| PG1ADW-2 | 2026-09-06 03:04:54 | 46.64777 | 16.14377 | 140° | 42km/h | 17474m | 4.6m/s | -58.2°C | 6.0% | 0hPa | 2.7V | 00:00:00 | 00:00:00 | 00:00:00 | |
| PETON7-10 | 2026-09-06 03:04:51 | 46.64797 | 16.14344 | 124° | 44km/h | 17459m | 4.5m/s | -58.2°C | 6.0% | 0hPa | 2.7V | 00:00:00 | 01:18:28 | 00:00:00 | |
| OE8JPQ-2 | 2026-09-06 03:04:47 | 46.64820 | 16.14293 | 123° | 44km/h | 17436m | 4.3m/s | -58.1°C | 5.9% | 0hPa | 2.7V | 00:00:00 | 01:18:24 | 00:00:00 | |
| OE5DRO-10 | 2026-09-06 03:04:44 | 46.64841 | 16.14256 | 135° | 46km/h | 17420m | 4.8m/s | -58.3°C | 6.0% | 0hPa | 2.7V | 00:00:00 | 00:00:00 | 00:00:00 | |
| PETON7-10 | 2026-09-06 03:04:36 | 46.64891 | 16.14151 | 119° | 46km/h | 17376m | 6.3m/s | -58.0°C | 5.9% | 0hPa | 2.7V | 00:00:00 | 00:00:00 | 00:00:00 | |
| PG1ADW-2 | 2026-09-06 03:04:34 | 46.64901 | 16.14122 | 116° | 49km/h | 17365m | 6.5m/s | -58.0°C | 5.9% | 0hPa | 2.6V | 00:00:00 | 00:00:00 | 00:00:00 | |
| OE5DXL-15 | 2026-09-06 03:04:33 | 46.64906 | 16.14107 | 117° | 49km/h | 17360m | 5.1m/s | -58.0°C | 5.9% | 0hPa | 2.6V | 00:00:00 | 00:00:00 | 08:30:00 | |
| OE8JPQ-2 | 2026-09-06 03:04:27 | 46.64949 | 16.14027 | 133° | 49km/h | 17327m | 3.9m/s | -57.9°C | 5.8% | 0hPa | 2.7V | 00:00:00 | 00:00:00 | 08:30:00 | |
| OE5DRO-10 | 2026-09-06 03:04:25 | 46.64964 | 16.13998 | 124° | 51km/h | 17316m | 5.0m/s | -57.9°C | 5.9% | 0hPa | 2.6V | 00:00:00 | 00:00:00 | 00:00:00 | |
| PETON7-10 | 2026-09-06 03:04:21 | 46.64990 | 16.13943 | 126° | 51km/h | 17295m | 6.4m/s | -57.9°C | 5.8% | 0hPa | 2.6V | 00:00:00 | 00:00:00 | 00:00:00 | |
| PG1ADW-2 | 2026-09-06 03:04:14 | 46.65048 | 16.13831 | 125° | 49km/h | 17258m | 5.0m/s | -57.9°C | 5.9% | 0hPa | 2.6V | 00:00:00 | 01:17:51 | 08:30:00 | |
| OE3JTB-15 | 2026-09-06 03:04:13 | 46.65055 | 16.13816 | 123° | 49km/h | 17253m | 4.6m/s | -58.0°C | 5.9% | 0hPa | 2.7V | 00:00:00 | 01:17:50 | 00:00:00 | |
| OE8JPQ-2 | 2026-09-06 03:04:07 | 46.65088 | 16.13720 | 114° | 49km/h | 17221m | 4.7m/s | -57.9°C | 5.9% | 0hPa | 2.7V | 00:00:00 | 00:00:00 | 00:00:00 | |
| OE5DRO-10 | 2026-09-06 03:04:06 | 46.65093 | 16.13703 | 113° | 49km/h | 17215m | 6.3m/s | -57.9°C | 5.9% | 0hPa | 2.7V | 00:00:00 | 00:00:00 | 00:00:00 | |
| OE5DXL-15 | 2026-09-06 03:04:03 | 46.65107 | 16.13652 | 112° | 49km/h | 17199m | 5.3m/s | -57.8°C | 5.8% | 0hPa | 2.7V | 00:00:00 | 00:00:00 | 00:00:00 | |
| PG1ADW-2 | 2026-09-06 03:03:54 | 46.65157 | 16.13504 | 112° | 49km/h | 17151m | 4.9m/s | -57.6°C | 5.8% | 0hPa | 2.7V | 00:00:00 | 00:00:00 | 00:00:00 | |
| PETON7-10 | 2026-09-06 03:03:51 | 46.65170 | 16.13452 | 111° | 49km/h | 17134m | 6.4m/s | -57.7°C | 5.8% | 0hPa | 2.7V | 00:00:00 | 00:00:00 | 00:00:00 | |
| OE8JPQ-2 | 2026-09-06 03:03:47 | 46.65186 | 16.13385 | 108° | 51km/h | 17112m | 4.9m/s | -57.6°C | 5.7% | 0hPa | 2.6V | 00:00:00 | 01:17:24 | 00:00:00 | |
| OE3JTB-15 | 2026-09-06 03:03:44 | 46.65198 | 16.13336 | 114° | 47km/h | 17096m | 5.9m/s | -57.6°C | 5.7% | 0hPa | 2.6V | 00:00:00 | 00:00:00 | 00:00:00 | |
| OE5DXL-15 | 2026-09-06 03:03:33 | 46.65260 | 16.13154 | 118° | 62km/h | 17038m | 6.1m/s | -57.7°C | 5.8% | 0hPa | 2.6V | 00:00:00 | 00:00:00 | 00:00:00 | |
| OE5DRO-10 | 2026-09-06 03:03:28 | 46.65299 | 16.13064 | 121° | 62km/h | 17011m | 4.9m/s | -57.8°C | 5.8% | 0hPa | 2.6V | 00:00:00 | 00:00:00 | 00:00:00 | |
| OE8JPQ-2 | 2026-09-06 03:03:27 | 46.65306 | 16.13045 | 118° | 62km/h | 17007m | 4.1m/s | -57.8°C | 5.9% | 0hPa | 2.7V | 00:00:00 | 00:00:00 | 00:00:00 | |
| PETON7-10 | 2026-09-06 03:03:21 | 46.65351 | 16.12938 | 126° | 64km/h | 16976m | 5.3m/s | -57.9°C | 6.0% | 0hPa | 2.6V | 00:00:00 | 01:16:58 | 00:00:00 | |
| PG1ADW-2 | 2026-09-06 03:03:14 | 46.65403 | 16.12794 | 113° | 64km/h | 16941m | 5.1m/s | -57.9°C | 5.9% | 0hPa | 2.6V | 00:00:00 | 00:00:00 | 00:00:00 | |
| OE5DRO-10 | 2026-09-06 03:03:09 | 46.65445 | 16.12690 | 121° | 64km/h | 16918m | 3.5m/s | -57.7°C | 5.8% | 0hPa | 2.7V | 00:00:00 | 00:00:00 | 00:00:00 | |
| OE8JPQ-2 | 2026-09-06 03:03:07 | 46.65461 | 16.12648 | 115° | 64km/h | 16908m | 3.8m/s | -57.7°C | 5.8% | 0hPa | 2.7V | 00:00:00 | 00:00:00 | 00:00:00 | |
| PETON7-10 | 2026-09-06 03:03:06 | 46.65467 | 16.12626 | 111° | 64km/h | 16903m | 5.7m/s | -57.6°C | 5.8% | 0hPa | 2.7V | 00:00:00 | 00:00:00 | 08:30:00 | |
| OE3JTB-15 | 2026-09-06 03:03:05 | 46.65473 | 16.12603 | 110° | 64km/h | 16898m | 4.6m/s | -57.6°C | 5.7% | 0hPa | 2.6V | 00:00:00 | 00:00:00 | 00:00:00 | |
| OE5DXL-15 | 2026-09-06 03:03:03 | 46.65484 | 16.12558 | 113° | 64km/h | 16887m | 4.7m/s | -57.6°C | 5.7% | 0hPa | 2.6V | 00:00:00 | 00:00:00 | 00:00:00 | |
| PG1ADW-2 | 2026-09-06 03:02:54 | 46.65542 | 16.12370 | 106° | 64km/h | 16844m | 4.9m/s | -57.7°C | 5.7% | 0hPa | 2.7V | 00:00:00 | 01:16:31 | 00:00:00 | |
| PETON7-10 | 2026-09-06 03:02:51 | 46.65555 | 16.12302 | 108° | 64km/h | 16829m | 4.5m/s | -57.8°C | 5.8% | 0hPa | 2.7V | 00:00:00 | 00:00:00 | 00:00:00 | |
| OE5DRO-10 | 2026-09-06 03:02:50 | 46.65559 | 16.12279 | 106° | 64km/h | 16823m | 6.1m/s | -57.9°C | 5.8% | 0hPa | 2.7V | 00:00:00 | 00:00:00 | 00:00:00 | |
| OE8JPQ-2 | 2026-09-06 03:02:47 | 46.65575 | 16.12212 | 113° | 64km/h | 16808m | 4.8m/s | -58.0°C | 5.9% | 0hPa | 2.7V | 00:00:00 | 01:16:24 | 00:00:00 | |
| PETON7-10 | 2026-09-06 03:02:36 | 46.65628 | 16.11966 | 108° | 62km/h | 16755m | 4.9m/s | -57.9°C | 5.8% | 0hPa | 2.7V | 00:00:00 | 01:16:13 | 00:00:00 | |
| OE5DXL-15 | 2026-09-06 03:02:33 | 46.65642 | 16.11898 | 105° | 64km/h | 16739m | 5.9m/s | -58.0°C | 5.8% | 0hPa | 2.7V | 00:00:00 | 00:00:00 | 00:00:00 | |
| OE5DRO-10 | 2026-09-06 03:02:31 | 46.65649 | 16.11851 | 101° | 62km/h | 16729m | 5.9m/s | -58.3°C | 6.0% | 0hPa | 2.7V | 00:00:00 | 00:00:00 | 08:30:00 | |
| OE8JPQ-2 | 2026-09-06 03:02:27 | 46.65662 | 16.11759 | 103° | 62km/h | 16707m | 6.0m/s | -58.2°C | 6.0% | 0hPa | 2.7V | 00:00:00 | 00:00:00 | 00:00:00 | |
| PETON7-10 | 2026-09-06 03:02:21 | 46.65680 | 16.11628 | 105° | 64km/h | 16677m | 5.3m/s | -58.2°C | 6.1% | 0hPa | 2.7V | 00:00:00 | 00:00:00 | 00:00:00 | |
| PG1ADW-2 | 2026-09-06 03:02:14 | 46.65714 | 16.11473 | 107° | 64km/h | 16642m | 4.9m/s | -58.1°C | 6.1% | 0hPa | 2.6V | 00:00:00 | 00:00:00 | 00:00:00 | |
| OE5DRO-10 | 2026-09-06 03:02:12 | 46.65723 | 16.11430 | 108° | 66km/h | 16633m | 5.5m/s | -58.1°C | 6.1% | 0hPa | 2.7V | 00:00:00 | 00:00:00 | 00:00:00 | |
| OE8JPQ-2 | 2026-09-06 03:02:07 | 46.65748 | 16.11316 | 108° | 64km/h | 16606m | 5.8m/s | -57.9°C | 5.9% | 0hPa | 2.7V | 00:00:00 | 00:00:00 | 00:00:00 | |
| PETON7-10 | 2026-09-06 03:02:06 | 46.65753 | 16.11293 | 109° | 66km/h | 16601m | 4.5m/s | -57.9°C | 6.0% | 0hPa | 2.7V | 00:00:00 | 00:00:00 | 00:00:00 | |
| OE5DXL-15 | 2026-09-06 03:02:03 | 46.65771 | 16.11227 | 117° | 64km/h | 16587m | 3.5m/s | -57.9°C | 6.0% | 0hPa | 2.7V | 00:00:00 | 00:00:00 | 00:00:00 | |
| PG1ADW-2 | 2026-09-06 03:01:54 | 46.65830 | 16.11030 | 113° | 64km/h | 16538m | 5.3m/s | -57.7°C | 5.9% | 0hPa | 2.7V | 00:00:00 | 00:00:00 | 00:00:00 | |
| OE5DRO-10 | 2026-09-06 03:01:53 | 46.65837 | 16.11008 | 114° | 64km/h | 16533m | 5.7m/s | -57.8°C | 5.9% | 0hPa | 2.7V | 00:00:00 | 00:00:00 | 00:00:00 | |
| PETON7-10 | 2026-09-06 03:01:51 | 46.65850 | 16.10964 | 116° | 64km/h | 16523m | 5.7m/s | -57.8°C | 5.9% | 0hPa | 2.7V | 00:00:00 | 01:15:28 | 00:00:00 | |
| OE8JPQ-2 | 2026-09-06 03:01:47 | 46.65880 | 16.10883 | 119° | 64km/h | 16502m | 5.2m/s | -57.7°C | 5.8% | 0hPa | 2.7V | 00:00:00 | 01:15:24 | 00:00:00 | |
| PETON7-10 | 2026-09-06 03:01:36 | 46.65951 | 16.10646 | 110° | 62km/h | 16445m | 3.8m/s | -57.6°C | 5.8% | 0hPa | 2.7V | 00:00:00 | 00:00:00 | 00:00:00 | |
| OE5DRO-10 | 2026-09-06 03:01:34 | 46.65962 | 16.10603 | 115° | 64km/h | 16435m | 4.1m/s | -57.7°C | 5.9% | 0hPa | 2.6V | 00:00:00 | 00:00:00 | 00:00:00 | |
| OE5DXL-15 | 2026-09-06 03:01:33 | 46.65969 | 16.10582 | 115° | 66km/h | 16429m | 6.1m/s | -57.7°C | 5.8% | 0hPa | 2.6V | 00:00:00 | 00:00:00 | 00:00:00 | |
| OE8JPQ-2 | 2026-09-06 03:01:27 | 46.66007 | 16.10460 | 117° | 66km/h | 16400m | 3.7m/s | -58.0°C | 6.1% | 0hPa | 2.7V | 00:00:00 | 00:00:00 | 08:30:00 | |
| PETON7-10 | 2026-09-06 03:01:21 | 46.66053 | 16.10338 | 120° | 68km/h | 16370m | 4.9m/s | -58.0°C | 6.1% | 0hPa | 2.6V | 00:00:00 | 00:00:00 | 00:00:00 | |
| OE5DRO-10 | 2026-09-06 03:01:15 | 46.66099 | 16.10199 | 115° | 68km/h | 16338m | 4.6m/s | -58.0°C | 6.0% | 0hPa | 2.6V | 00:00:00 | 00:00:00 | 00:00:00 | |
| PG1ADW-2 | 2026-09-06 03:01:14 | 46.66106 | 16.10177 | 117° | 69km/h | 16332m | 6.6m/s | -58.0°C | 5.9% | 0hPa | 2.6V | 00:00:00 | 00:00:00 | 08:30:00 | |
| OE8JPQ-2 | 2026-09-06 03:01:07 | 46.66156 | 16.10025 | 112° | 68km/h | 16297m | 5.8m/s | -58.0°C | 6.1% | 0hPa | 2.7V | 00:00:00 | 00:00:00 | 00:00:00 | |
| PETON7-10 | 2026-09-06 03:01:06 | 46.66163 | 16.09998 | 110° | 69km/h | 16292m | 4.0m/s | -58.0°C | 6.1% | 0hPa | 2.7V | 00:00:00 | 01:14:43 | 00:00:00 | |
| OE3JTB-15 | 2026-09-06 03:01:05 | 46.66170 | 16.09972 | 111° | 68km/h | 16287m | 5.7m/s | -57.9°C | 6.1% | 0hPa | 2.7V | 00:00:00 | 01:14:42 | 00:00:00 | |
| OE5DXL-15 | 2026-09-06 03:01:03 | 46.66184 | 16.09923 | 113° | 68km/h | 16276m | 5.1m/s | -57.8°C | 6.0% | 0hPa | 2.7V | 00:00:00 | 00:00:00 | 00:00:00 | |
| OE5DRO-10 | 2026-09-06 03:00:56 | 46.66230 | 16.09763 | 110° | 68km/h | 16241m | 5.2m/s | -57.7°C | 5.9% | 0hPa | 2.7V | 00:00:00 | 00:00:00 | 00:00:00 | |
| PG1ADW-2 | 2026-09-06 03:00:54 | 46.66244 | 16.09713 | 113° | 68km/h | 16232m | 4.5m/s | -57.8°C | 5.9% | 0hPa | 2.7V | 00:00:00 | 00:00:00 | 00:00:00 | |
| PETON7-10 | 2026-09-06 03:00:51 | 46.66263 | 16.09651 | 119° | 68km/h | 16216m | 5.0m/s | -58.1°C | 6.1% | 0hPa | 2.7V | 00:00:00 | 00:00:00 | 08:30:00 | |
| OE8JPQ-2 | 2026-09-06 03:00:47 | 46.66289 | 16.09568 | 113° | 71km/h | 16197m | 5.8m/s | -58.3°C | 6.3% | 0hPa | 2.7V | 00:00:00 | 01:14:24 | 00:00:00 | |
| OE5DRO-10 | 2026-09-06 03:00:37 | 46.66369 | 16.09342 | 115° | 75km/h | 16145m | 5.8m/s | -58.4°C | 6.3% | 0hPa | 2.7V | 00:00:00 | 00:00:00 | 00:00:00 | |
| PETON7-10 | 2026-09-06 03:00:36 | 46.66376 | 16.09317 | 113° | 73km/h | 16139m | 5.5m/s | -58.5°C | 6.4% | 0hPa | 2.7V | 00:00:00 | 00:00:00 | 00:00:00 | |
| PG1ADW-2 | 2026-09-06 03:00:34 | 46.66392 | 16.09269 | 119° | 75km/h | 16130m | 4.8m/s | -58.4°C | 6.4% | 0hPa | 2.7V | 00:00:00 | 00:00:00 | 00:00:00 | |
| OE5DXL-15 | 2026-09-06 03:00:33 | 46.66401 | 16.09246 | 122° | 73km/h | 16125m | 4.1m/s | -58.4°C | 6.4% | 0hPa | 2.7V | 00:00:00 | 00:00:00 | 00:00:00 | |
| OE8JPQ-2 | 2026-09-06 03:00:27 | 46.66459 | 16.09104 | 116° | 73km/h | 16093m | 6.0m/s | -58.1°C | 6.2% | 0hPa | 2.7V | 00:00:00 | 00:00:00 | 00:00:00 | |
| PETON7-10 | 2026-09-06 03:00:21 | 46.66512 | 16.08962 | 123° | 73km/h | 16061m | 6.9m/s | -57.8°C | 6.0% | 0hPa | 2.6V | 00:00:00 | 01:13:58 | 00:00:00 | |
| OE5DRO-10 | 2026-09-06 03:00:18 | 46.66542 | 16.08888 | 118° | 69km/h | 16044m | 3.3m/s | -57.7°C | 6.1% | 0hPa | 2.6V | 00:00:00 | 00:00:00 | 00:00:00 | |
| PG1ADW-2 | 2026-09-06 03:00:14 | 46.66577 | 16.08795 | 120° | 69km/h | 16022m | 5.2m/s | -57.9°C | 6.1% | 0hPa | 2.6V | 00:00:00 | 01:13:51 | 00:00:00 | |
| OE3JTB-15 | 2026-09-06 03:00:07 | 46.66646 | 16.08642 | 125° | 71km/h | 15987m | 5.8m/s | -58.1°C | 6.4% | 0hPa | 2.7V | 00:00:00 | 00:00:00 | 00:00:00 | |
| PETON7-10 | 2026-09-06 03:00:06 | 46.66657 | 16.08622 | 129° | 69km/h | 15982m | 4.8m/s | -58.0°C | 6.4% | 0hPa | 2.7V | 00:00:00 | 00:00:00 | 00:00:00 | |
| OE5DRO-10 | 2026-09-06 02:59:59 | 46.66730 | 16.08484 | 123° | 73km/h | 15943m | 5.4m/s | -58.0°C | 6.4% | 0hPa | 2.6V | 00:00:00 | 00:00:00 | 00:00:00 | |
| PG1ADW-2 | 2026-09-06 02:59:54 | 46.66782 | 16.08380 | 129° | 75km/h | 15915m | 4.5m/s | -57.9°C | 6.3% | 0hPa | 2.6V | 00:00:00 | 00:00:00 | 00:00:00 | |
| PETON7-10 | 2026-09-06 02:59:51 | 46.66817 | 16.08315 | 126° | 75km/h | 15900m | 5.9m/s | -57.8°C | 6.2% | 0hPa | 2.6V | 00:00:00 | 00:00:00 | 00:00:00 | |
| OE8JPQ-2 | 2026-09-06 02:59:47 | 46.66857 | 16.08224 | 126° | 75km/h | 15878m | 5.3m/s | -57.6°C | 6.1% | 0hPa | 2.6V | 00:00:00 | 01:13:24 | 00:00:00 | |
| OE5DRO-10 | 2026-09-06 02:59:40 | 46.66929 | 16.08061 | 115° | 77km/h | 15838m | 6.8m/s | -57.6°C | 6.1% | 0hPa | 2.6V | 00:00:00 | 00:00:00 | 08:30:00 | |
| OE3JTB-15 | 2026-09-06 02:59:38 | 46.66945 | 16.08012 | 116° | 77km/h | 15827m | 5.4m/s | -57.6°C | 6.1% | 0hPa | 2.6V | 00:00:00 | 01:13:15 | 00:00:00 | |
| PETON7-10 | 2026-09-06 02:59:36 | 46.66962 | 16.07962 | 119° | 77km/h | 15816m | 4.9m/s | -57.7°C | 6.1% | 0hPa | 2.6V | 00:00:00 | 01:13:13 | 00:00:00 | |
| PG1ADW-2 | 2026-09-06 02:59:34 | 46.66981 | 16.07914 | 121° | 77km/h | 15805m | 5.7m/s | -57.8°C | 6.1% | 0hPa | 2.6V | 00:00:00 | 00:00:00 | 00:00:00 | |
| OE5DXL-15 | 2026-09-06 02:59:33 | 46.66990 | 16.07890 | 120° | 78km/h | 15799m | 5.5m/s | -57.9°C | 6.2% | 0hPa | 2.6V | 00:00:00 | 00:00:00 | 00:00:00 | |
| OE8JPQ-2 | 2026-09-06 02:59:27 | 46.67046 | 16.07746 | 121° | 78km/h | 15766m | 4.9m/s | -58.5°C | 6.6% | 0hPa | 2.6V | 00:00:00 | 00:00:00 | 00:00:00 | |
| PETON7-10 | 2026-09-06 02:59:21 | 46.67099 | 16.07591 | 117° | 78km/h | 15734m | 5.0m/s | -58.7°C | 6.7% | 0hPa | 2.6V | 00:00:00 | 00:00:00 | 00:00:00 | |
| PG1ADW-2 | 2026-09-06 02:59:14 | 46.67162 | 16.07413 | 119° | 82km/h | 15696m | 5.5m/s | -59.1°C | 6.8% | 0hPa | 2.7V | 00:00:00 | 00:00:00 | 00:00:00 | |
| OE3JTB-15 | 2026-09-06 02:59:09 | 46.67211 | 16.07282 | 120° | 82km/h | 15669m | 6.0m/s | -59.3°C | 6.9% | 0hPa | 2.7V | 00:00:00 | 00:00:00 | 00:00:00 | |
| OE8JPQ-2 | 2026-09-06 02:59:07 | 46.67232 | 16.07234 | 123° | 80km/h | 15658m | 5.6m/s | -59.3°C | 6.9% | 0hPa | 2.6V | 00:00:00 | 00:00:00 | 00:00:00 | |
| PETON7-10 | 2026-09-06 02:59:06 | 46.67243 | 16.07209 | 120° | 80km/h | 15652m | 4.9m/s | -59.4°C | 7.0% | 0hPa | 2.6V | 00:00:00 | 00:00:00 | 00:00:00 | |
| OE5DRO-10 | 2026-09-06 02:59:02 | 46.67279 | 16.07107 | 119° | 82km/h | 15633m | 5.7m/s | -59.6°C | 7.1% | 0hPa | 2.6V | 00:00:00 | 00:00:00 | 00:00:00 | |
| PG1ADW-2 | 2026-09-06 02:58:54 | 46.67362 | 16.06892 | 117° | 82km/h | 15589m | 5.6m/s | -59.9°C | 7.4% | 0hPa | 2.6V | 00:00:00 | 01:12:31 | 00:00:00 | |
| PETON7-10 | 2026-09-06 02:58:51 | 46.67388 | 16.06815 | 116° | 84km/h | 15574m | 4.8m/s | -59.9°C | 7.4% | 0hPa | 2.6V | 00:00:00 | 01:12:28 | 00:00:00 | |
| OE8JPQ-2 | 2026-09-06 02:58:47 | 46.67427 | 16.06710 | 120° | 84km/h | 15552m | 4.4m/s | -60.0°C | 7.4% | 0hPa | 2.6V | 00:00:00 | 01:12:24 | 00:00:00 | |
| OE5DRO-10 | 2026-09-06 02:58:43 | 46.67471 | 16.06602 | 118° | 84km/h | 15530m | 4.5m/s | -60.1°C | 7.5% | 0hPa | 2.6V | 00:00:00 | 00:00:00 | 00:00:00 | |
| OE3JTB-15 | 2026-09-06 02:58:40 | 46.67500 | 16.06520 | 120° | 88km/h | 15515m | 5.4m/s | -60.2°C | 7.6% | 0hPa | 2.6V | 00:00:00 | 00:00:00 | 00:00:00 | |
| PETON7-10 | 2026-09-06 02:58:36 | 46.67540 | 16.06414 | 120° | 86km/h | 15495m | 5.9m/s | -60.3°C | 7.6% | 0hPa | 2.6V | 00:00:00 | 00:00:00 | 08:30:00 | |
| PG1ADW-2 | 2026-09-06 02:58:34 | 46.67562 | 16.06360 | 124° | 88km/h | 15484m | 6.1m/s | -60.4°C | 7.7% | 0hPa | 2.7V | 00:00:00 | 00:00:00 | 00:00:00 | |
| OE5DXL-15 | 2026-09-06 02:58:33 | 46.67575 | 16.06335 | 127° | 89km/h | 15478m | 4.9m/s | -60.5°C | 7.7% | 0hPa | 2.7V | 00:00:00 | 00:00:00 | 00:00:00 | |
| OE8JPQ-2 | 2026-09-06 02:58:27 | 46.67650 | 16.06182 | 124° | 89km/h | 15446m | 6.4m/s | -60.6°C | 7.9% | 0hPa | 2.7V | 00:00:00 | 00:00:00 | 08:30:00 | |
| OE5DRO-10 | 2026-09-06 02:58:24 | 46.67684 | 16.06101 | 122° | 91km/h | 15430m | 4.1m/s | -60.6°C | 8.0% | 0hPa | 2.6V | 00:00:00 | 00:00:00 | 00:00:00 | |
| PETON7-10 | 2026-09-06 02:58:21 | 46.67718 | 16.06015 | 119° | 91km/h | 15416m | 5.0m/s | -60.7°C | 8.2% | 0hPa | 2.6V | 00:00:00 | 00:00:00 | 00:00:00 | |
| PG1ADW-2 | 2026-09-06 02:58:14 | 46.67810 | 16.05819 | 125° | 91km/h | 15379m | 6.3m/s | -60.7°C | 8.3% | 0hPa | 2.6V | 00:00:00 | 00:00:00 | 08:30:00 | |
| OE3JTB-15 | 2026-09-06 02:58:11 | 46.67847 | 16.05734 | 123° | 91km/h | 15363m | 4.6m/s | -60.7°C | 8.4% | 0hPa | 2.7V | 00:00:00 | 01:11:48 | 00:00:00 | |
| OE8JPQ-2 | 2026-09-06 02:58:07 | 46.67897 | 16.05623 | 127° | 91km/h | 15341m | 4.9m/s | -60.8°C | 8.3% | 0hPa | 2.7V | 00:00:00 | 00:00:00 | 00:00:00 | |
| PETON7-10 | 2026-09-06 02:58:06 | 46.67911 | 16.05595 | 127° | 89km/h | 15336m | 5.9m/s | -60.8°C | 8.4% | 0hPa | 2.7V | 00:00:00 | 01:11:43 | 00:00:00 | |
| OE5DRO-10 | 2026-09-06 02:58:05 | 46.67925 | 16.05568 | 125° | 91km/h | 15331m | 4.3m/s | -60.8°C | 8.4% | 0hPa | 2.7V | 00:00:00 | 00:00:00 | 00:00:00 | |
| PG1ADW-2 | 2026-09-06 02:57:54 | 46.68058 | 16.05259 | 121° | 95km/h | 15276m | 3.8m/s | -60.8°C | 9.0% | 0hPa | 2.7V | 00:00:00 | 00:00:00 | 00:00:00 | |
| PETON7-10 | 2026-09-06 02:57:51 | 46.68090 | 16.05173 | 118° | 97km/h | 15263m | 4.0m/s | -60.8°C | 9.0% | 0hPa | 2.7V | 00:00:00 | 00:00:00 | 00:00:00 | |
| OE8JPQ-2 | 2026-09-06 02:57:47 | 46.68140 | 16.05053 | 126° | 99km/h | 15242m | 4.8m/s | -60.9°C | 9.1% | 0hPa | 2.7V | 00:00:00 | 01:11:24 | 00:00:00 | |
| OE5DRO-10 | 2026-09-06 02:57:46 | 46.68155 | 16.05024 | 128° | 99km/h | 15237m | 4.7m/s | -60.9°C | 9.0% | 0hPa | 2.7V | 00:00:00 | 00:00:00 | 00:00:00 | |
| OE3JTB-15 | 2026-09-06 02:57:42 | 46.68208 | 16.04914 | 120° | 100km/h | 15218m | 4.0m/s | -61.0°C | 9.3% | 0hPa | 2.7V | 00:00:00 | 00:00:00 | 00:00:00 | |
| PETON7-10 | 2026-09-06 02:57:36 | 46.68285 | 16.04728 | 126° | 100km/h | 15189m | 4.4m/s | -60.9°C | 9.3% | 0hPa | 2.7V | 00:00:00 | 00:00:00 | 00:00:00 | |
| PG1ADW-2 | 2026-09-06 02:57:34 | 46.68313 | 16.04668 | 124° | 102km/h | 15180m | 5.6m/s | -60.9°C | 9.3% | 0hPa | 2.7V | 00:00:00 | 01:11:11 | 00:00:00 | |
| OE5DXL-15 | 2026-09-06 02:57:33 | 46.68327 | 16.04637 | 122° | 100km/h | 15175m | 4.7m/s | -61.0°C | 9.3% | 0hPa | 2.7V | 00:00:00 | 00:00:00 | 00:00:00 | |
| OE8JPQ-2 | 2026-09-06 02:57:27 | 46.68401 | 16.04437 | 120° | 102km/h | 15146m | 4.4m/s | -61.1°C | 9.5% | 0hPa | 2.7V | 00:00:00 | 00:00:00 | 00:00:00 | |
| PETON7-10 | 2026-09-06 02:57:21 | 46.68473 | 16.04241 | 115° | 102km/h | 15118m | 4.6m/s | -61.4°C | 9.9% | 0hPa | 2.7V | 00:00:00 | 01:10:58 | 00:00:00 | |
| PG1ADW-2 | 2026-09-06 02:57:14 | 46.68552 | 16.04000 | 118° | 100km/h | 15085m | 4.2m/s | -61.9°C | 10.6% | 0hPa | 2.7V | 00:00:00 | 00:00:00 | 00:00:00 | |
| OE3JTB-15 | 2026-09-06 02:57:13 | 46.68563 | 16.03968 | 116° | 99km/h | 15079m | 5.4m/s | -62.0°C | 10.8% | 0hPa | 2.7V | 00:00:00 | 00:00:00 | 00:00:00 | |
| OE5DRO-10 | 2026-09-06 02:57:08 | 46.68621 | 16.03806 | 116° | 99km/h | 15056m | 3.7m/s | -62.0°C | 10.8% | 0hPa | 2.7V | 00:00:00 | 00:00:00 | 00:00:00 | |
| OE8JPQ-2 | 2026-09-06 02:57:07 | 46.68632 | 16.03773 | 116° | 99km/h | 15051m | 6.1m/s | -62.0°C | 10.8% | 0hPa | 2.7V | 00:00:00 | 00:00:00 | 00:00:00 | |
| PETON7-10 | 2026-09-06 02:57:06 | 46.68643 | 16.03740 | 118° | 100km/h | 15046m | 4.2m/s | -62.2°C | 11.0% | 0hPa | 2.7V | 00:00:00 | 00:00:00 | 00:00:00 | |
| PG1ADW-2 | 2026-09-06 02:56:54 | 46.68792 | 16.03353 | 119° | 99km/h | 14989m | 4.0m/s | -62.7°C | 12.1% | 0hPa | 2.7V | 00:00:00 | 00:00:00 | 00:00:00 | |
| PETON7-10 | 2026-09-06 02:56:51 | 46.68826 | 16.03257 | 117° | 99km/h | 14974m | 5.8m/s | -62.7°C | 12.0% | 0hPa | 2.7V | 00:00:00 | 00:00:00 | 00:00:00 | |
| OE5DRO-10 | 2026-09-06 02:56:49 | 46.68848 | 16.03196 | 118° | 100km/h | 14963m | 5.6m/s | -62.8°C | 12.1% | 0hPa | 2.7V | 00:00:00 | 00:00:00 | 08:30:00 | |
| OE8JPQ-2 | 2026-09-06 02:56:47 | 46.68870 | 16.03132 | 118° | 102km/h | 14953m | 5.8m/s | -62.9°C | 12.0% | 0hPa | 2.7V | 00:00:00 | 01:10:24 | 00:00:00 | |
| OE3JTB-15 | 2026-09-06 02:56:44 | 46.68906 | 16.03033 | 117° | 100km/h | 14938m | 3.8m/s | -62.9°C | 12.2% | 0hPa | 2.7V | 00:00:00 | 01:10:21 | 00:00:00 | |
| PETON7-10 | 2026-09-06 02:56:36 | 46.68989 | 16.02764 | 113° | 100km/h | 14896m | 6.1m/s | -62.9°C | 12.5% | 0hPa | 2.7V | 00:00:00 | 01:10:13 | 00:00:00 | |
| PG1ADW-2 | 2026-09-06 02:56:34 | 46.69007 | 16.02695 | 112° | 102km/h | 14885m | 6.0m/s | -63.0°C | 12.8% | 0hPa | 2.7V | 00:00:00 | 00:00:00 | 00:00:00 | |
| OE5DXL-15 | 2026-09-06 02:56:33 | 46.69017 | 16.02662 | 113° | 102km/h | 14880m | 4.1m/s | -63.0°C | 13.1% | 0hPa | 2.7V | 00:00:00 | 00:00:00 | 00:00:00 | |
| OE5DRO-10 | 2026-09-06 02:56:30 | 46.69044 | 16.02556 | 111° | 102km/h | 14865m | 5.4m/s | -63.0°C | 13.3% | 0hPa | 2.7V | 00:00:00 | 00:00:00 | 00:00:00 | |
| OE8JPQ-2 | 2026-09-06 02:56:27 | 46.69070 | 16.02447 | 108° | 102km/h | 14850m | 3.5m/s | -62.9°C | 13.4% | 0hPa | 2.7V | 00:00:00 | 00:00:00 | 00:00:00 | |
| PETON7-10 | 2026-09-06 02:56:21 | 46.69121 | 16.02244 | 114° | 104km/h | 14819m | 5.9m/s | -62.8°C | 13.3% | 0hPa | 2.7V | 00:00:00 | 00:00:00 | 08:30:00 | |
| OE3JTB-15 | 2026-09-06 02:56:15 | 46.69170 | 16.02026 | 106° | 102km/h | 14787m | 3.8m/s | -62.7°C | 14.0% | 0hPa | 2.7V | 00:00:00 | 00:00:00 | 08:30:00 | |
| PG1ADW-2 | 2026-09-06 02:56:14 | 46.69177 | 16.01988 | 105° | 104km/h | 14782m | 5.2m/s | -62.6°C | 14.0% | 0hPa | 2.7V | 00:00:00 | 01:09:51 | 00:00:00 | |
| OE5DRO-10 | 2026-09-06 02:56:11 | 46.69201 | 16.01877 | 110° | 104km/h | 14768m | 4.9m/s | -62.6°C | 14.3% | 0hPa | 2.7V | 00:00:00 | 00:00:00 | 00:00:00 | |
| OE8JPQ-2 | 2026-09-06 02:56:07 | 46.69232 | 16.01729 | 106° | 102km/h | 14748m | 4.7m/s | -62.7°C | 14.7% | 0hPa | 2.7V | 00:00:00 | 00:00:00 | 00:00:00 | |
| PETON7-10 | 2026-09-06 02:56:06 | 46.69239 | 16.01692 | 105° | 102km/h | 14743m | 5.8m/s | -62.8°C | 15.1% | 0hPa | 2.7V | 00:00:00 | 00:00:00 | 00:00:00 | |
| PG1ADW-2 | 2026-09-06 02:55:54 | 46.69325 | 16.01254 | 110° | 97km/h | 14682m | 6.4m/s | -62.8°C | 16.4% | 0hPa | 2.7V | 00:00:00 | 00:00:00 | 00:00:00 | |
| OE5DRO-10 | 2026-09-06 02:55:52 | 46.69342 | 16.01186 | 113° | 97km/h | 14671m | 6.6m/s | -62.9°C | 16.7% | 0hPa | 2.7V | 00:00:00 | 00:00:00 | 00:00:00 | |
| PETON7-10 | 2026-09-06 02:55:51 | 46.69352 | 16.01152 | 113° | 97km/h | 14665m | 3.3m/s | -63.0°C | 17.2% | 0hPa | 2.7V | 00:00:00 | 01:09:28 | 00:00:00 | |
| OE8JPQ-2 | 2026-09-06 02:55:47 | 46.69382 | 16.01012 | 105° | 97km/h | 14644m | 6.1m/s | -63.0°C | 17.7% | 0hPa | 2.7V | 00:00:00 | 01:09:24 | 00:00:00 | |
| OE3JTB-15 | 2026-09-06 02:55:46 | 46.69388 | 16.00977 | 106° | 104km/h | 14639m | 4.0m/s | -63.0°C | 18.1% | 0hPa | 2.7V | 00:00:00 | 00:00:00 | 00:00:00 | |
| PETON7-10 | 2026-09-06 02:55:36 | 46.69476 | 16.00651 | 113° | 91km/h | 14584m | 6.3m/s | -63.5°C | 21.8% | 0hPa | 2.7V | 00:00:00 | 00:00:00 | 00:00:00 | |
| OE8JPQ-2 | 2026-09-06 02:55:27 | 46.69559 | 16.00367 | 116° | 91km/h | 14529m | 8.0m/s | -64.7°C | 24.6% | 0hPa | 2.7V | 00:00:00 | 00:00:00 | 08:30:00 | |
| PETON7-10 | 2026-09-06 02:55:21 | 46.69629 | 16.00206 | 122° | 93km/h | 14491m | 5.7m/s | -64.6°C | 26.4% | 0hPa | 2.7V | 00:00:00 | 00:00:00 | 00:00:00 | |
| PG1ADW-2 | 2026-09-06 02:55:14 | 46.69719 | 16.00010 | 129° | 93km/h | 14453m | 5.2m/s | -64.2°C | 27.4% | 0hPa | 2.7V | 00:00:00 | 00:00:00 | 08:30:00 | |
| OE8JPQ-2 | 2026-09-06 02:55:07 | 46.69809 | 15.99812 | 125° | 95km/h | 14411m | 7.4m/s | -64.2°C | 28.8% | 0hPa | 2.7V | 00:00:00 | 00:00:00 | 00:00:00 | |
| PETON7-10 | 2026-09-06 02:55:06 | 46.69823 | 15.99784 | 126° | 95km/h | 14405m | 5.8m/s | -64.2°C | 29.0% | 0hPa | 2.7V | 00:00:00 | 01:08:43 | 00:00:00 | |
| OE5DXL-15 | 2026-09-06 02:55:03 | 46.69865 | 15.99706 | 131° | 99km/h | 14388m | 7.7m/s | -64.3°C | 29.7% | 0hPa | 2.7V | 00:00:00 | 00:00:00 | 00:00:00 | |
| OE5DRO-10 | 2026-09-06 02:54:55 | 46.69990 | 15.99484 | 128° | 99km/h | 14342m | 5.2m/s | -64.3°C | 30.6% | 0hPa | 2.7V | 00:00:00 | 00:00:00 | 00:00:00 | |
| PG1ADW-2 | 2026-09-06 02:54:54 | 46.70004 | 15.99459 | 131° | 100km/h | 14337m | 6.1m/s | -64.3°C | 31.2% | 0hPa | 2.7V | 00:00:00 | 01:08:31 | 00:00:00 | |
| PETON7-10 | 2026-09-06 02:54:51 | 46.70052 | 15.99386 | 134° | 100km/h | 14319m | 6.4m/s | -64.3°C | 31.3% | 0hPa | 2.7V | 00:00:00 | 00:00:00 | 00:00:00 | |
| OE8JPQ-2 | 2026-09-06 02:54:47 | 46.70121 | 15.99282 | 136° | 106km/h | 14296m | 5.6m/s | -64.4°C | 32.7% | 0hPa | 2.7V | 00:00:00 | 01:08:24 | 00:00:00 | |
| OE5DRO-10 | 2026-09-06 02:54:36 | 46.70327 | 15.99002 | 139° | 115km/h | 14238m | 6.8m/s | -64.7°C | 34.9% | 0hPa | 2.7V | 00:00:00 | 00:00:00 | 00:00:00 | |
| PG1ADW-2 | 2026-09-06 02:54:34 | 46.70370 | 15.98947 | 139° | 115km/h | 14226m | 5.8m/s | -64.8°C | 35.9% | 0hPa | 2.7V | 00:00:00 | 00:00:00 | 00:00:00 | |
| OE5DXL-15 | 2026-09-06 02:54:33 | 46.70391 | 15.98920 | 139° | 117km/h | 14221m | 3.9m/s | -64.8°C | 36.2% | 0hPa | 2.7V | 00:00:00 | 00:00:00 | 00:00:00 | |
| OE8JPQ-2 | 2026-09-06 02:54:27 | 46.70515 | 15.98756 | 136° | 117km/h | 14189m | 3.6m/s | -65.0°C | 38.8% | 0hPa | 2.7V | 00:00:00 | 00:00:00 | 00:00:00 | |
| PETON7-10 | 2026-09-06 02:54:21 | 46.70640 | 15.98570 | 135° | 119km/h | 14156m | 4.1m/s | -65.1°C | 38.8% | 0hPa | 2.7V | 00:00:00 | 01:07:58 | 00:00:00 | |
| OE5DRO-10 | 2026-09-06 02:54:17 | 46.70726 | 15.98453 | 134° | 120km/h | 14133m | 4.2m/s | -65.3°C | 40.5% | 0hPa | 2.7V | 00:00:00 | 00:00:00 | 00:00:00 | |
| PG1ADW-2 | 2026-09-06 02:54:14 | 46.70784 | 15.98360 | 133° | 120km/h | 14116m | 5.0m/s | -65.2°C | 41.3% | 0hPa | 2.7V | 00:00:00 | 00:00:00 | 00:00:00 | |
| OE8JPQ-2 | 2026-09-06 02:54:07 | 46.70921 | 15.98120 | 128° | 120km/h | 14075m | 4.5m/s | -65.1°C | 41.6% | 0hPa | 2.7V | 00:00:00 | 00:00:00 | 00:00:00 | |
| PETON7-10 | 2026-09-06 02:54:06 | 46.70940 | 15.98084 | 127° | 120km/h | 14070m | 6.7m/s | -65.1°C | 41.7% | 0hPa | 2.7V | 00:00:00 | 00:00:00 | 08:30:00 | |
| OE5DRO-10 | 2026-09-06 02:53:58 | 46.71087 | 15.97799 | 129° | 119km/h | 14027m | 6.6m/s | -64.9°C | 43.1% | 0hPa | 2.7V | 00:00:00 | 00:00:00 | 08:30:00 | |
| PG1ADW-2 | 2026-09-06 02:53:54 | 46.71162 | 15.97661 | 129° | 119km/h | 14005m | 5.6m/s | -64.8°C | 44.3% | 0hPa | 2.7V | 00:00:00 | 00:00:00 | 00:00:00 | |
| PETON7-10 | 2026-09-06 02:53:51 | 46.71221 | 15.97560 | 131° | 117km/h | 13990m | 4.5m/s | -64.8°C | 45.0% | 0hPa | 2.7V | 00:00:00 | 00:00:00 | 00:00:00 | |
| OE8JPQ-2 | 2026-09-06 02:53:47 | 46.71296 | 15.97429 | 130° | 119km/h | 13971m | 3.6m/s | -64.8°C | 46.1% | 0hPa | 2.7V | 00:00:00 | 01:07:24 | 00:00:00 | |
| OE5DRO-10 | 2026-09-06 02:53:39 | 46.71444 | 15.97157 | 128° | 119km/h | 13928m | 4.9m/s | -64.6°C | 47.8% | 0hPa | 2.7V | 00:00:00 | 00:00:00 | 00:00:00 | |
| PETON7-10 | 2026-09-06 02:53:36 | 46.71497 | 15.97052 | 127° | 119km/h | 13912m | 5.9m/s | -64.5°C | 48.4% | 0hPa | 2.7V | 00:00:00 | 01:07:13 | 00:00:00 | |
| PG1ADW-2 | 2026-09-06 02:53:34 | 46.71534 | 15.96980 | 126° | 115km/h | 13902m | 5.6m/s | -64.7°C | 49.7% | 0hPa | 2.7V | 00:00:00 | 01:07:11 | 00:00:00 | |
| OE5DXL-15 | 2026-09-06 02:53:33 | 46.71551 | 15.96944 | 126° | 115km/h | 13897m | 3.6m/s | -64.8°C | 50.6% | 0hPa | 2.7V | 00:00:00 | 00:00:00 | 00:00:00 | |
| OE8JPQ-2 | 2026-09-06 02:53:27 | 46.71659 | 15.96736 | 127° | 113km/h | 13865m | 5.1m/s | -64.6°C | 52.0% | 0hPa | 2.7V | 00:00:00 | 00:00:00 | 00:00:00 | |
| PETON7-10 | 2026-09-06 02:53:21 | 46.71764 | 15.96529 | 128° | 113km/h | 13835m | 5.0m/s | -64.8°C | 55.1% | 0hPa | 2.7V | 00:00:00 | 00:00:00 | 00:00:00 | |
| OE5DRO-10 | 2026-09-06 02:53:20 | 46.71782 | 15.96495 | 129° | 115km/h | 13829m | 4.7m/s | -64.8°C | 56.0% | 0hPa | 2.7V | 00:00:00 | 00:00:00 | 00:00:00 | |
| PG1ADW-2 | 2026-09-06 02:53:14 | 46.71883 | 15.96303 | 126° | 120km/h | 13797m | 5.1m/s | -65.1°C | 60.1% | 0hPa | 2.7V | 00:00:00 | 00:00:00 | 00:00:00 | |
| OE8JPQ-2 | 2026-09-06 02:53:07 | 46.72003 | 15.96062 | 129° | 122km/h | 13760m | 4.4m/s | -65.3°C | 62.6% | 0hPa | 2.7V | 00:00:00 | 00:00:00 | 00:00:00 | |
| PETON7-10 | 2026-09-06 02:53:06 | 46.72021 | 15.96028 | 130° | 122km/h | 13753m | 8.2m/s | -65.3°C | 62.7% | 0hPa | 2.7V | 00:00:00 | 00:00:00 | 00:00:00 | |
| OE5DXL-15 | 2026-09-06 02:53:03 | 46.72077 | 15.95926 | 129° | 128km/h | 13733m | 8.4m/s | -65.3°C | 64.1% | 0hPa | 2.7V | 00:00:00 | 00:00:00 | 00:00:00 | |
| OE5DRO-10 | 2026-09-06 02:53:01 | 46.72115 | 15.95853 | 127° | 126km/h | 13718m | 5.6m/s | -65.3°C | 64.0% | 0hPa | 2.7V | 00:00:00 | 00:00:00 | 00:00:00 | |
| PG1ADW-2 | 2026-09-06 02:52:54 | 46.72247 | 15.95597 | 129° | 128km/h | 13673m | 7.8m/s | -65.2°C | 62.4% | 0hPa | 2.7V | 00:00:00 | 00:00:00 | 00:00:00 | |
| PETON7-10 | 2026-09-06 02:52:51 | 46.72304 | 15.95493 | 129° | 130km/h | 13654m | 9.0m/s | -65.2°C | 63.5% | 0hPa | 2.7V | 00:00:00 | 01:06:28 | 00:00:00 | |
| OE8JPQ-2 | 2026-09-06 02:52:47 | 46.72385 | 15.95355 | 132° | 131km/h | 13629m | 8.0m/s | -65.5°C | 66.4% | 0hPa | 2.7V | 00:00:00 | 01:06:24 | 00:00:00 | |
| OE5DRO-10 | 2026-09-06 02:52:42 | 46.72493 | 15.95168 | 129° | 128km/h | 13595m | 3.8m/s | -65.7°C | 69.0% | 0hPa | 2.7V | 00:00:00 | 00:00:00 | 00:00:00 | |
| PETON7-10 | 2026-09-06 02:52:36 | 46.72620 | 15.94945 | 130° | 126km/h | 13553m | 6.6m/s | -66.1°C | 72.0% | 0hPa | 2.7V | 00:00:00 | 00:00:00 | 00:00:00 | |
| PG1ADW-2 | 2026-09-06 02:52:34 | 46.72662 | 15.94868 | 127° | 122km/h | 13540m | 6.6m/s | -66.2°C | 72.3% | 0hPa | 2.7V | 00:00:00 | 00:00:00 | 00:00:00 | |
| OE5DXL-15 | 2026-09-06 02:52:33 | 46.72682 | 15.94828 | 126° | 120km/h | 13534m | 4.8m/s | -66.3°C | 72.8% | 0hPa | 2.7V | 00:00:00 | 00:00:00 | 00:00:00 | |
| OE8JPQ-2 | 2026-09-06 02:52:27 | 46.72801 | 15.94610 | 130° | 119km/h | 13499m | 9.2m/s | -66.4°C | 72.9% | 0hPa | 2.7V | 00:00:00 | 00:00:00 | 08:30:00 | |
| OE5DRO-10 | 2026-09-06 02:52:23 | 46.72877 | 15.94468 | 127° | 117km/h | 13472m | 8.6m/s | -66.4°C | 72.3% | 0hPa | 2.7V | 00:00:00 | 00:00:00 | 00:00:00 | |
| PETON7-10 | 2026-09-06 02:52:21 | 46.72914 | 15.94396 | 128° | 117km/h | 13461m | 2.5m/s | -66.4°C | 72.4% | 0hPa | 2.7V | 00:00:00 | 00:00:00 | 00:00:00 | |
| PG1ADW-2 | 2026-09-06 02:52:14 | 46.73047 | 15.94162 | 132° | 113km/h | 13414m | 4.7m/s | -66.2°C | 71.1% | 0hPa | 2.7V | 00:00:00 | 01:05:51 | 08:30:00 | |
| OE8JPQ-2 | 2026-09-06 02:52:07 | 46.73181 | 15.93943 | 132° | 117km/h | 13370m | 3.6m/s | -66.2°C | 70.1% | 0hPa | 2.7V | 00:00:00 | 00:00:00 | 00:00:00 | |
| PETON7-10 | 2026-09-06 02:52:06 | 46.73201 | 15.93911 | 132° | 115km/h | 13364m | 8.4m/s | -66.1°C | 70.0% | 0hPa | 2.7V | 00:00:00 | 01:05:43 | 00:00:00 | |
| OE5DRO-10 | 2026-09-06 02:52:04 | 46.73240 | 15.93844 | 130° | 115km/h | 13350m | 4.8m/s | -66.1°C | 71.0% | 0hPa | 2.7V | 00:00:00 | 00:00:00 | 00:00:00 | |
| PG1ADW-2 | 2026-09-06 02:51:54 | 46.73429 | 15.93540 | 131° | 117km/h | 13300m | 4.6m/s | -65.7°C | 69.4% | 0hPa | 2.7V | 00:00:00 | 00:00:00 | 00:00:00 | |
| PETON7-10 | 2026-09-06 02:51:51 | 46.73491 | 15.93435 | 132° | 117km/h | 13282m | 5.4m/s | -65.6°C | 69.4% | 0hPa | 2.7V | 00:00:00 | 00:00:00 | 08:30:00 | |
| OE8JPQ-2 | 2026-09-06 02:51:47 | 46.73574 | 15.93308 | 137° | 115km/h | 13259m | 6.7m/s | -65.4°C | 68.6% | 0hPa | 2.7V | 00:00:00 | 01:05:24 | 00:00:00 | |
| OE5DRO-10 | 2026-09-06 02:51:45 | 46.73614 | 15.93254 | 135° | 117km/h | 13247m | 7.0m/s | -65.3°C | 69.8% | 0hPa | 2.7V | 00:00:00 | 00:00:00 | 00:00:00 | |
| PETON7-10 | 2026-09-06 02:51:36 | 46.73787 | 15.92967 | 136° | 119km/h | 13188m | 9.5m/s | -64.7°C | 65.1% | 0hPa | 2.7V | 00:00:00 | 00:00:00 | 00:00:00 | |
| PG1ADW-2 | 2026-09-06 02:51:34 | 46.73832 | 15.92906 | 137° | 119km/h | 13174m | 4.4m/s | -64.6°C | 65.5% | 0hPa | 2.7V | 00:00:00 | 00:00:00 | 00:00:00 | |
| OE5DXL-15 | 2026-09-06 02:51:33 | 46.73853 | 15.92875 | 135° | 119km/h | 13168m | 8.5m/s | -64.5°C | 65.2% | 0hPa | 2.7V | 00:00:00 | 00:00:00 | 00:00:00 | |
| OE8JPQ-2 | 2026-09-06 02:51:27 | 46.73970 | 15.92684 | 133° | 120km/h | 13125m | 8.1m/s | -64.1°C | 63.0% | 0hPa | 2.7V | 00:00:00 | 00:00:00 | 00:00:00 | |
| OE5DRO-10 | 2026-09-06 02:51:26 | 46.73990 | 15.92652 | 132° | 120km/h | 13117m | 6.5m/s | -64.0°C | 62.3% | 0hPa | 2.7V | 00:00:00 | 00:00:00 | 00:00:00 | |
| PETON7-10 | 2026-09-06 02:51:21 | 46.74088 | 15.92482 | 132° | 120km/h | 13081m | 5.4m/s | -63.8°C | 62.7% | 0hPa | 2.7V | 00:00:00 | 01:04:58 | 00:00:00 | |
| PG1ADW-2 | 2026-09-06 02:51:14 | 46.74231 | 15.92256 | 137° | 120km/h | 13044m | 6.6m/s | -63.4°C | 62.4% | 0hPa | 2.7V | 00:00:00 | 00:00:00 | 00:00:00 | |
| OE8JPQ-2 | 2026-09-06 02:51:07 | 46.74372 | 15.92025 | 128° | 120km/h | 13000m | 5.7m/s | -63.4°C | 61.0% | 0hPa | 2.7V | 00:00:00 | 00:00:00 | 00:00:00 | |
| PETON7-10 | 2026-09-06 02:51:06 | 46.74391 | 15.91990 | 130° | 119km/h | 12994m | 4.5m/s | -63.5°C | 61.5% | 0hPa | 2.7V | 00:00:00 | 00:00:00 | 00:00:00 | |
| PG1ADW-2 | 2026-09-06 02:50:54 | 46.74643 | 15.91610 | 136° | 120km/h | 12915m | 3.5m/s | -62.9°C | 59.6% | 0hPa | 2.7V | 00:00:00 | 01:04:31 | 00:00:00 | |
| PETON7-10 | 2026-09-06 02:50:51 | 46.74706 | 15.91517 | 133° | 120km/h | 12893m | 4.8m/s | -62.7°C | 59.6% | 0hPa | 2.7V | 00:00:00 | 00:00:00 | 00:00:00 | |
| OE5DRO-10 | 2026-09-06 02:50:48 | 46.74769 | 15.91417 | 133° | 119km/h | 12872m | 6.9m/s | -62.6°C | 60.9% | 0hPa | 2.7V | 00:00:00 | 00:00:00 | 00:00:00 | |
| OE8JPQ-2 | 2026-09-06 02:50:47 | 46.74789 | 15.91385 | 135° | 119km/h | 12866m | 4.1m/s | -62.5°C | 61.4% | 0hPa | 2.7V | 00:00:00 | 01:04:24 | 00:00:00 | |
| PETON7-10 | 2026-09-06 02:50:36 | 46.75014 | 15.91027 | 133° | 117km/h | 12787m | 6.3m/s | -62.3°C | 61.4% | 0hPa | 2.7V | 00:00:00 | 01:04:13 | 00:00:00 | |
| PG1ADW-2 | 2026-09-06 02:50:34 | 46.75053 | 15.90960 | 129° | 117km/h | 12775m | 5.6m/s | -62.2°C | 60.9% | 0hPa | 2.7V | 00:00:00 | 00:00:00 | 00:00:00 | |
| OE5DXL-15 | 2026-09-06 02:50:33 | 46.75070 | 15.90926 | 125° | 117km/h | 12768m | 9.9m/s | -62.2°C | 61.4% | 0hPa | 2.7V | 00:00:00 | 00:00:00 | 00:00:00 | |
| OE5DRO-10 | 2026-09-06 02:50:29 | 46.75143 | 15.90796 | 133° | 117km/h | 12744m | 3.8m/s | -62.0°C | 62.0% | 0hPa | 2.7V | 00:00:00 | 00:00:00 | 00:00:00 | |
| OE8JPQ-2 | 2026-09-06 02:50:27 | 46.75183 | 15.90733 | 133° | 117km/h | 12732m | 6.6m/s | -61.9°C | 61.6% | 0hPa | 2.7V | 00:00:00 | 00:00:00 | 00:00:00 | |
| PETON7-10 | 2026-09-06 02:50:21 | 46.75298 | 15.90534 | 130° | 119km/h | 12696m | 6.0m/s | -61.6°C | 59.0% | 0hPa | 2.7V | 00:00:00 | 00:00:00 | 00:00:00 | |
| PG1ADW-2 | 2026-09-06 02:50:14 | 46.75435 | 15.90301 | 131° | 117km/h | 12659m | 4.5m/s | -61.2°C | 57.2% | 0hPa | 2.7V | 00:00:00 | 00:00:00 | 00:00:00 | |
| OE5DRO-10 | 2026-09-06 02:50:10 | 46.75511 | 15.90173 | 133° | 117km/h | 12639m | 5.0m/s | -61.0°C | 56.0% | 0hPa | 2.7V | 00:00:00 | 00:00:00 | 00:00:00 | |
| OE8JPQ-2 | 2026-09-06 02:50:07 | 46.75569 | 15.90075 | 131° | 117km/h | 12623m | 4.8m/s | -60.9°C | 55.3% | 0hPa | 2.7V | 00:00:00 | 00:00:00 | 00:00:00 | |
| PETON7-10 | 2026-09-06 02:50:06 | 46.75588 | 15.90043 | 130° | 117km/h | 12617m | 6.5m/s | -60.8°C | 54.9% | 0hPa | 2.7V | 00:00:00 | 00:00:00 | 00:00:00 | |
| OE5DXL-15 | 2026-09-06 02:50:03 | 46.75645 | 15.89946 | 134° | 115km/h | 12601m | 4.0m/s | -60.7°C | 54.7% | 0hPa | 2.7V | 00:00:00 | 00:00:00 | 00:00:00 | |
| OE3JTB-15 | 2026-09-06 02:49:56 | 46.75782 | 15.89723 | 131° | 113km/h | 12566m | 5.7m/s | -60.4°C | 54.0% | 0hPa | 2.7V | 00:00:00 | 00:00:00 | 00:00:00 | |
| PG1ADW-2 | 2026-09-06 02:49:53 | 46.75840 | 15.89625 | 133° | 113km/h | 12550m | 3.8m/s | -60.3°C | 53.6% | 0hPa | 2.7V | 00:00:00 | 00:00:00 | 00:00:00 | |
| PETON7-10 | 2026-09-06 02:49:51 | 46.75882 | 15.89562 | 135° | 113km/h | 12540m | 5.4m/s | -60.3°C | 53.2% | 0hPa | 2.7V | 00:00:00 | 01:03:28 | 00:00:00 | |
| OE8JPQ-2 | 2026-09-06 02:49:47 | 46.75961 | 15.89437 | 131° | 111km/h | 12519m | 5.4m/s | -60.3°C | 53.2% | 0hPa | 2.7V | 00:00:00 | 01:03:24 | 00:00:00 | |
| PETON7-10 | 2026-09-06 02:49:36 | 46.76171 | 15.89100 | 130° | 110km/h | 12462m | 6.0m/s | -59.8°C | 53.3% | 0hPa | 2.7V | 00:00:00 | 00:00:00 | 08:30:00 | |
| PG1ADW-2 | 2026-09-06 02:49:33 | 46.76228 | 15.89011 | 133° | 108km/h | 12443m | 7.2m/s | -59.6°C | 53.3% | 0hPa | 2.7V | 00:00:00 | 01:03:10 | 00:00:00 | |
| OE5DRO-10 | 2026-09-06 02:49:32 | 46.76247 | 15.88981 | 134° | 108km/h | 12436m | 5.8m/s | -59.6°C | 53.6% | 0hPa | 2.7V | 00:00:00 | 00:00:00 | 00:00:00 | |
| OE8JPQ-2 | 2026-09-06 02:49:27 | 46.76345 | 15.88834 | 133° | 104km/h | 12401m | 6.4m/s | -59.4°C | 54.4% | 0hPa | 2.7V | 00:00:00 | 00:00:00 | 08:30:00 | |
| PETON7-10 | 2026-09-06 02:49:21 | 46.76459 | 15.88661 | 133° | 104km/h | 12362m | 3.2m/s | -59.3°C | 57.0% | 0hPa | 2.7V | 00:00:00 | 00:00:00 | 00:00:00 | |
| OE5DRO-10 | 2026-09-06 02:49:13 | 46.76600 | 15.88432 | 136° | 104km/h | 12308m | 6.3m/s | -59.0°C | 57.5% | 0hPa | 2.7V | 00:00:00 | 00:00:00 | 00:00:00 | |
| OE8JPQ-2 | 2026-09-06 02:49:06 | 46.76731 | 15.88245 | 134° | 104km/h | 12264m | 5.5m/s | -58.5°C | 56.6% | 0hPa | 2.7V | 00:00:00 | 00:00:00 | 00:00:00 | |
| OE5DXL-15 | 2026-09-06 02:49:03 | 46.76788 | 15.88160 | 137° | 102km/h | 12244m | 11.0m/s | -58.3°C | 54.2% | 0hPa | 2.7V | 00:00:00 | 00:00:00 | 00:00:00 | |
| OE5DRO-10 | 2026-09-06 02:48:54 | 46.76947 | 15.87906 | 132° | 102km/h | 12182m | 5.5m/s | -57.9°C | 55.4% | 0hPa | 2.7V | 00:00:00 | 00:00:00 | 00:00:00 | |
| PG1ADW-2 | 2026-09-06 02:48:53 | 46.76965 | 15.87878 | 134° | 102km/h | 12177m | 2.6m/s | -57.8°C | 55.7% | 0hPa | 2.7V | 00:00:00 | 00:00:00 | 00:00:00 | |
| PETON7-10 | 2026-09-06 02:48:51 | 46.77001 | 15.87821 | 131° | 102km/h | 12168m | 5.8m/s | -57.7°C | 54.0% | 0hPa | 2.7V | 00:00:00 | 00:00:00 | 00:00:00 | |
| OE8JPQ-2 | 2026-09-06 02:48:46 | 46.77091 | 15.87676 | 132° | 100km/h | 12139m | 5.4m/s | -57.6°C | 52.8% | 0hPa | 2.7V | 00:00:00 | 01:02:23 | 00:00:00 | |
| PETON7-10 | 2026-09-06 02:48:36 | 46.77263 | 15.87409 | 135° | 100km/h | 12087m | 5.1m/s | -57.1°C | 50.2% | 0hPa | 2.7V | 00:00:00 | 00:00:00 | 00:00:00 | |
| OE5DRO-10 | 2026-09-06 02:48:35 | 46.77281 | 15.87383 | 136° | 100km/h | 12082m | 5.6m/s | -57.1°C | 49.6% | 0hPa | 2.7V | 00:00:00 | 00:00:00 | 00:00:00 | |
| PG1ADW-2 | 2026-09-06 02:48:33 | 46.77318 | 15.87330 | 136° | 100km/h | 12071m | 6.8m/s | -57.0°C | 48.9% | 0hPa | 2.7V | 00:00:00 | 00:00:00 | 00:00:00 | |
| OE8JPQ-2 | 2026-09-06 02:48:26 | 46.77442 | 15.87147 | 133° | 97km/h | 12034m | 4.1m/s | -56.6°C | 46.2% | 0hPa | 2.7V | 00:00:00 | 00:00:00 | 00:00:00 | |
| PETON7-10 | 2026-09-06 02:48:21 | 46.77528 | 15.87017 | 134° | 100km/h | 12008m | 6.1m/s | -56.4°C | 44.4% | 0hPa | 2.7V | 00:00:00 | 01:01:58 | 00:00:00 | |
| OE5DRO-10 | 2026-09-06 02:48:16 | 46.77616 | 15.86881 | 136° | 102km/h | 11981m | 4.6m/s | -56.1°C | 43.1% | 0hPa | 2.7V | 00:00:00 | 00:00:00 | 08:30:00 | |
| PG1ADW-2 | 2026-09-06 02:48:13 | 46.77669 | 15.86802 | 134° | 102km/h | 11966m | 4.8m/s | -56.0°C | 42.6% | 0hPa | 2.7V | 00:00:00 | 01:01:50 | 00:00:00 | |
| PETON7-10 | 2026-09-06 02:48:06 | 46.77792 | 15.86612 | 137° | 102km/h | 11928m | 4.4m/s | -55.7°C | 42.7% | 0hPa | 2.7V | 00:00:00 | 00:00:00 | 00:00:00 | |
| OE5DXL-15 | 2026-09-06 02:48:03 | 46.77848 | 15.86534 | 136° | 102km/h | 11912m | 5.2m/s | -55.6°C | 43.8% | 0hPa | 2.7V | 00:00:00 | 00:00:00 | 00:00:00 | |
| OE5DRO-10 | 2026-09-06 02:47:57 | 46.77953 | 15.86367 | 132° | 102km/h | 11880m | 4.6m/s | -55.3°C | 45.0% | 0hPa | 2.7V | 00:00:00 | 00:00:00 | 00:00:00 | |
| PG1ADW-2 | 2026-09-06 02:47:53 | 46.78023 | 15.86257 | 135° | 100km/h | 11861m | 3.8m/s | -55.1°C | 45.1% | 0hPa | 2.7V | 00:00:00 | 00:00:00 | 00:00:00 | |
| PETON7-10 | 2026-09-06 02:47:51 | 46.78059 | 15.86204 | 135° | 100km/h | 11851m | 4.1m/s | -55.0°C | 44.9% | 0hPa | 2.7V | 00:00:00 | 00:00:00 | 00:00:00 | |
| OE5DRO-10 | 2026-09-06 02:47:38 | 46.78286 | 15.85848 | 133° | 100km/h | 11786m | 4.5m/s | -54.4°C | 45.8% | 0hPa | 2.7V | 00:00:00 | 00:00:00 | 00:00:00 | |
| OE8JPQ-2 | 2026-09-06 02:47:36 | 46.78319 | 15.85795 | 132° | 100km/h | 11776m | 2.7m/s | -54.3°C | 45.8% | 0hPa | 2.7V | 00:00:00 | 01:01:13 | 00:00:00 | |
| PG1ADW-2 | 2026-09-06 02:47:33 | 46.78371 | 15.85711 | 133° | 100km/h | 11761m | 5.2m/s | -54.2°C | 45.0% | 0hPa | 2.7V | 00:00:00 | 00:00:00 | 00:00:00 | |
| PETON7-10 | 2026-09-06 02:47:21 | 46.78571 | 15.85384 | 132° | 100km/h | 11696m | 5.8m/s | -53.6°C | 42.6% | 0hPa | 2.7V | 00:00:00 | 00:00:00 | 08:30:00 | |
| OE5DRO-10 | 2026-09-06 02:47:19 | 46.78605 | 15.85327 | 131° | 99km/h | 11686m | 6.1m/s | -53.5°C | 42.0% | 0hPa | 2.7V | 00:00:00 | 00:00:00 | 00:00:00 | |
| OE8JPQ-2 | 2026-09-06 02:47:16 | 46.78657 | 15.85244 | 137° | 99km/h | 11671m | 4.3m/s | -53.4°C | 40.9% | 0hPa | 2.7V | 00:00:00 | 00:00:00 | 00:00:00 | |
| PG1ADW-2 | 2026-09-06 02:47:13 | 46.78710 | 15.85167 | 132° | 99km/h | 11658m | 2.7m/s | -53.3°C | 40.6% | 0hPa | 2.7V | 00:00:00 | 00:00:00 | 00:00:00 | |
| PETON7-10 | 2026-09-06 02:47:06 | 46.78824 | 15.84970 | 133° | 97km/h | 11621m | 5.7m/s | -52.9°C | 38.2% | 0hPa | 2.7V | 00:00:00 | 00:00:00 | 00:00:00 | |
| OE5DXL-15 | 2026-09-06 02:47:03 | 46.78872 | 15.84893 | 132° | 100km/h | 11606m | 4.9m/s | -52.8°C | 37.6% | 0hPa | 2.7V | 00:00:00 | 00:00:00 | 00:00:00 | |
| OE5DRO-10 | 2026-09-06 02:47:00 | 46.78921 | 15.84812 | 130° | 100km/h | 11591m | 4.3m/s | -52.6°C | 37.2% | 0hPa | 2.7V | 00:00:00 | 00:00:00 | 00:00:00 | |
| OE8JPQ-2 | 2026-09-06 02:46:56 | 46.78985 | 15.84697 | 128° | 100km/h | 11571m | 4.8m/s | -52.5°C | 35.1% | 0hPa | 2.7V | 00:00:00 | 00:00:00 | 00:00:00 | |
| PG1ADW-2 | 2026-09-06 02:46:53 | 46.79031 | 15.84616 | 132° | 100km/h | 11556m | 6.4m/s | -52.3°C | 33.7% | 0hPa | 2.7V | 00:00:00 | 01:00:30 | 00:00:00 | |
| PETON7-10 | 2026-09-06 02:46:51 | 46.79064 | 15.84562 | 133° | 102km/h | 11545m | 6.3m/s | -52.3°C | 32.7% | 0hPa | 2.7V | 00:00:00 | 01:00:28 | 00:00:00 | |
| OE5DRO-10 | 2026-09-06 02:46:41 | 46.79230 | 15.84278 | 131° | 102km/h | 11494m | 4.9m/s | -51.8°C | 30.1% | 0hPa | 2.7V | 00:00:00 | 00:00:00 | 00:00:00 | |
| PETON7-10 | 2026-09-06 02:46:36 | 46.79317 | 15.84132 | 130° | 100km/h | 11471m | 5.0m/s | -51.6°C | 29.6% | 0hPa | 2.7V | 00:00:00 | 00:00:00 | 00:00:00 | |
| OE5DXL-15 | 2026-09-06 02:46:33 | 46.79365 | 15.84050 | 131° | 100km/h | 11456m | 4.3m/s | -51.5°C | 29.1% | 0hPa | 2.9V | 00:00:00 | 00:00:00 | 08:30:00 | |
| OE5DRO-10 | 2026-09-06 02:46:22 | 46.79552 | 15.83741 | 131° | 100km/h | 11401m | 4.1m/s | -51.0°C | 28.2% | 0hPa | 2.7V | 00:00:00 | 00:00:00 | 00:00:00 | |
| PETON7-10 | 2026-09-06 02:46:21 | 46.79569 | 15.83712 | 131° | 100km/h | 11397m | 4.7m/s | -50.9°C | 28.0% | 0hPa | 2.7V | 00:00:00 | 00:00:00 | 00:00:00 | |
| OE8JPQ-2 | 2026-09-06 02:46:16 | 46.79652 | 15.83568 | 132° | 100km/h | 11372m | 4.6m/s | -50.7°C | 28.1% | 0hPa | 2.7V | 00:00:00 | 00:00:00 | 08:30:00 | |
| PG1ADW-2 | 2026-09-06 02:46:13 | 46.79704 | 15.83485 | 135° | 100km/h | 11357m | 6.7m/s | -50.5°C | 27.8% | 0hPa | 2.7V | 00:00:00 | 00:00:00 | 08:30:00 | |
| PETON7-10 | 2026-09-06 02:46:06 | 46.79821 | 15.83291 | 130° | 100km/h | 11322m | 3.4m/s | -50.3°C | 31.9% | 0hPa | 2.7V | 00:00:00 | 00:59:43 | 00:00:00 | |
| OE5DXL-15 | 2026-09-06 02:46:03 | 46.79870 | 15.83207 | 130° | 102km/h | 11308m | 5.6m/s | -50.2°C | 33.5% | 0hPa | 2.7V | 00:00:00 | 00:00:00 | 00:00:00 | |
| PG1ADW-2 | 2026-09-06 02:45:53 | 46.80036 | 15.82923 | 131° | 102km/h | 11262m | 4.9m/s | -49.8°C | 34.9% | 0hPa | 2.7V | 00:00:00 | 00:00:00 | 00:00:00 | |
| PETON7-10 | 2026-09-06 02:45:51 | 46.80071 | 15.82866 | 133° | 100km/h | 11253m | 5.4m/s | -49.7°C | 34.9% | 0hPa | 2.7V | 00:00:00 | 00:00:00 | 00:00:00 | |
| OE5DRO-10 | 2026-09-06 02:45:44 | 46.80184 | 15.82672 | 131° | 104km/h | 11219m | 4.6m/s | -49.4°C | 35.4% | 0hPa | 2.7V | 00:00:00 | 00:00:00 | 00:00:00 | |
| PETON7-10 | 2026-09-06 02:45:36 | 46.80320 | 15.82439 | 134° | 106km/h | 11181m | 3.7m/s | -49.1°C | 35.0% | 0hPa | 2.7V | 00:00:00 | 00:00:00 | 00:00:00 | |
| PG1ADW-2 | 2026-09-06 02:45:33 | 46.80372 | 15.82356 | 133° | 108km/h | 11167m | 5.8m/s | -49.0°C | 35.1% | 0hPa | 2.7V | 00:00:00 | 00:59:10 | 00:00:00 | |
| OE3JTB-15 | 2026-09-06 02:45:32 | 46.80390 | 15.82327 | 131° | 110km/h | 11162m | 4.1m/s | -49.0°C | 35.1% | 0hPa | 2.7V | 00:00:00 | 00:59:09 | 00:00:00 | |
| OE5DRO-10 | 2026-09-06 02:45:25 | 46.80512 | 15.82117 | 132° | 110km/h | 11129m | 3.1m/s | -48.8°C | 35.7% | 0hPa | 2.7V | 00:00:00 | 00:00:00 | 08:30:00 | |
| PETON7-10 | 2026-09-06 02:45:21 | 46.80585 | 15.81996 | 132° | 110km/h | 11110m | 4.9m/s | -48.7°C | 36.7% | 0hPa | 2.7V | 00:00:00 | 00:58:58 | 00:00:00 | |
| PG1ADW-2 | 2026-09-06 02:45:13 | 46.80732 | 15.81751 | 133° | 111km/h | 11074m | 5.3m/s | -48.5°C | 39.0% | 0hPa | 2.7V | 00:00:00 | 00:00:00 | 00:00:00 | |
| OE8JPQ-2 | 2026-09-06 02:45:08 | 46.80826 | 15.81601 | 130° | 110km/h | 11051m | 3.9m/s | -48.5°C | 40.3% | 0hPa | 2.9V | 00:00:00 | 00:00:00 | 00:00:00 | |
| PETON7-10 | 2026-09-06 02:45:06 | 46.80861 | 15.81538 | 130° | 111km/h | 11042m | 3.4m/s | -48.4°C | 40.4% | 0hPa | 2.9V | 00:00:00 | 00:00:00 | 08:30:00 | |
| OE3JTB-15 | 2026-09-06 02:45:01 | 46.80954 | 15.81384 | 130° | 111km/h | 11020m | 4.3m/s | -48.3°C | 40.5% | 0hPa | 2.9V | 00:00:00 | 00:00:00 | 00:00:00 | |
| PG1ADW-2 | 2026-09-06 02:44:53 | 46.81098 | 15.81130 | 131° | 111km/h | 10987m | 4.1m/s | -48.0°C | 40.3% | 0hPa | 2.7V | 00:00:00 | 00:00:00 | 00:00:00 | |
| PETON7-10 | 2026-09-06 02:44:51 | 46.81134 | 15.81066 | 130° | 111km/h | 10977m | 4.8m/s | -48.0°C | 40.3% | 0hPa | 2.7V | 00:00:00 | 00:00:00 | 00:00:00 | |
| OE8JPQ-2 | 2026-09-06 02:44:47 | 46.81207 | 15.80944 | 133° | 111km/h | 10960m | 3.6m/s | -47.8°C | 41.0% | 0hPa | 2.7V | 00:00:00 | 00:58:24 | 00:00:00 | |
| PETON7-10 | 2026-09-06 02:44:36 | 46.81409 | 15.80599 | 131° | 113km/h | 10909m | 4.4m/s | -47.4°C | 43.2% | 0hPa | 2.7V | 00:00:00 | 00:58:13 | 00:00:00 | |
| PG1ADW-2 | 2026-09-06 02:44:33 | 46.81465 | 15.80503 | 130° | 113km/h | 10895m | 3.9m/s | -47.3°C | 43.3% | 0hPa | 2.7V | 00:00:00 | 00:00:00 | 00:00:00 | |
| OE3JTB-15 | 2026-09-06 02:44:32 | 46.81484 | 15.80470 | 130° | 113km/h | 10890m | 5.6m/s | -47.2°C | 43.3% | 0hPa | 2.7V | 00:00:00 | 00:00:00 | 00:00:00 | |
| OE5DRO-10 | 2026-09-06 02:44:28 | 46.81557 | 15.80346 | 133° | 113km/h | 10872m | 3.7m/s | -47.0°C | 43.7% | 0hPa | 2.7V | 00:00:00 | 00:00:00 | 00:00:00 | |
| OE8JPQ-2 | 2026-09-06 02:44:27 | 46.81575 | 15.80316 | 132° | 113km/h | 10868m | 5.7m/s | -47.0°C | 43.4% | 0hPa | 2.9V | 00:00:00 | 00:00:00 | 00:00:00 | |
| PETON7-10 | 2026-09-06 02:44:21 | 46.81688 | 15.80125 | 134° | 113km/h | 10839m | 4.8m/s | -46.8°C | 43.5% | 0hPa | 2.9V | 00:00:00 | 00:00:00 | 00:00:00 | |
| PG1ADW-2 | 2026-09-06 02:44:13 | 46.81842 | 15.79878 | 132° | 111km/h | 10800m | 4.6m/s | -46.6°C | 46.7% | 0hPa | 2.9V | 00:00:00 | 00:57:50 | 00:00:00 | |
| OE5DRO-10 | 2026-09-06 02:44:09 | 46.81916 | 15.79756 | 132° | 111km/h | 10781m | 5.6m/s | -46.5°C | 46.2% | 0hPa | 2.7V | 00:00:00 | 00:00:00 | 00:00:00 | |
| OE8JPQ-2 | 2026-09-06 02:44:07 | 46.81954 | 15.79695 | 133° | 115km/h | 10771m | 5.6m/s | -46.4°C | 45.9% | 0hPa | 2.7V | 00:00:00 | 00:00:00 | 00:00:00 | |
| PETON7-10 | 2026-09-06 02:44:06 | 46.81974 | 15.79664 | 132° | 111km/h | 10767m | 3.0m/s | -46.3°C | 46.0% | 0hPa | 2.7V | 00:00:00 | 00:00:00 | 00:00:00 | |
| OE3JTB-15 | 2026-09-06 02:44:03 | 46.82030 | 15.79564 | 130° | 111km/h | 10754m | 5.5m/s | -46.2°C | 45.3% | 0hPa | 2.7V | 00:00:00 | 00:57:40 | 00:00:00 | |
| PG1ADW-2 | 2026-09-06 02:43:53 | 46.82215 | 15.79257 | 132° | 113km/h | 10708m | 5.1m/s | -45.8°C | 44.4% | 0hPa | 2.7V | 00:00:00 | 00:00:00 | 00:00:00 | |
| PETON7-10 | 2026-09-06 02:43:51 | 46.82251 | 15.79195 | 131° | 113km/h | 10698m | 5.3m/s | -45.7°C | 44.2% | 0hPa | 2.7V | 00:00:00 | 00:57:28 | 00:00:00 | |
| OE5DRO-10 | 2026-09-06 02:43:50 | 46.82269 | 15.79165 | 131° | 113km/h | 10693m | 4.1m/s | -45.7°C | 44.1% | 0hPa | 2.7V | 00:00:00 | 00:00:00 | 00:00:00 | |
| PETON7-10 | 2026-09-06 02:43:36 | 46.82532 | 15.78726 | 133° | 113km/h | 10625m | 4.3m/s | -45.1°C | 41.7% | 0hPa | 2.7V | 00:00:00 | 00:00:00 | 00:00:00 | |
| OE3JTB-15 | 2026-09-06 02:43:34 | 46.82572 | 15.78666 | 135° | 113km/h | 10615m | 3.6m/s | -45.0°C | 41.8% | 0hPa | 2.9V | 00:00:00 | 00:00:00 | 08:30:00 | |
| PG1ADW-2 | 2026-09-06 02:43:33 | 46.82591 | 15.78636 | 132° | 113km/h | 10611m | 4.5m/s | -44.9°C | 41.7% | 0hPa | 2.9V | 00:00:00 | 00:00:00 | 00:00:00 | |
| OE5DRO-10 | 2026-09-06 02:43:31 | 46.82629 | 15.78569 | 130° | 113km/h | 10602m | 5.0m/s | -44.8°C | 41.4% | 0hPa | 2.9V | 00:00:00 | 00:00:00 | 00:00:00 | |
| PETON7-10 | 2026-09-06 02:43:21 | 46.82815 | 15.78254 | 129° | 113km/h | 10554m | 4.2m/s | -44.4°C | 41.0% | 0hPa | 2.9V | 00:00:00 | 00:00:00 | 00:00:00 | |
| PG1ADW-2 | 2026-09-06 02:43:13 | 46.82967 | 15.77998 | 130° | 110km/h | 10513m | 6.5m/s | -44.1°C | 39.9% | 0hPa | 2.9V | 00:00:00 | 00:00:00 | 08:30:00 | |
| OE5DRO-10 | 2026-09-06 02:43:12 | 46.82985 | 15.77967 | 129° | 110km/h | 10507m | 6.1m/s | -44.0°C | 39.7% | 0hPa | 2.9V | 00:00:00 | 00:00:00 | 00:00:00 | |
| OE8JPQ-2 | 2026-09-06 02:43:11 | 46.83001 | 15.77936 | 130° | 110km/h | 10502m | 4.2m/s | -43.9°C | 39.8% | 0hPa | 2.9V | 00:00:00 | 00:56:48 | 00:00:00 | |
| PETON7-10 | 2026-09-06 02:43:06 | 46.83096 | 15.77782 | 131° | 110km/h | 10476m | 5.2m/s | -43.7°C | 39.2% | 0hPa | 2.9V | 00:00:00 | 00:56:43 | 00:00:00 | |
| OE3JTB-15 | 2026-09-06 02:43:05 | 46.83114 | 15.77751 | 131° | 110km/h | 10470m | 6.8m/s | -43.6°C | 39.2% | 0hPa | 2.9V | 00:00:00 | 00:00:00 | 00:00:00 | |
| OE5DXL-15 | 2026-09-06 02:43:03 | 46.83150 | 15.77691 | 130° | 110km/h | 10459m | 5.7m/s | -43.6°C | 39.9% | 0hPa | 2.9V | 00:00:00 | 00:00:00 | 00:00:00 | |
| PG1ADW-2 | 2026-09-06 02:42:53 | 46.83330 | 15.77380 | 131° | 110km/h | 10408m | 5.9m/s | -43.1°C | 39.0% | 0hPa | 2.9V | 00:00:00 | 00:56:30 | 00:00:00 | |
| OE8JPQ-2 | 2026-09-06 02:42:51 | 46.83367 | 15.77319 | 132° | 110km/h | 10398m | 5.9m/s | -43.1°C | 38.5% | 0hPa | 2.9V | 00:00:00 | 00:00:00 | 00:00:00 | |
| PETON7-10 | 2026-09-06 02:42:36 | 46.83636 | 15.76858 | 132° | 110km/h | 10322m | 4.3m/s | -42.3°C | 35.8% | 0hPa | 2.7V | 00:00:00 | 00:00:00 | 00:00:00 | |
| OE5DRO-10 | 2026-09-06 02:42:34 | 46.83673 | 15.76795 | 131° | 110km/h | 10313m | 4.6m/s | -42.3°C | 34.9% | 0hPa | 2.7V | 00:00:00 | 00:00:00 | 08:30:00 | |
| PG1ADW-2 | 2026-09-06 02:42:33 | 46.83691 | 15.76764 | 132° | 110km/h | 10308m | 4.5m/s | -42.2°C | 34.9% | 0hPa | 2.7V | 00:00:00 | 00:00:00 | 00:00:00 | |
| OE8JPQ-2 | 2026-09-06 02:42:31 | 46.83727 | 15.76703 | 130° | 110km/h | 10298m | 3.5m/s | -42.1°C | 34.1% | 0hPa | 2.7V | 00:00:00 | 00:00:00 | 00:00:00 | |
| PETON7-10 | 2026-09-06 02:42:21 | 46.83911 | 15.76400 | 134° | 110km/h | 10251m | 5.9m/s | -41.7°C | 30.5% | 0hPa | 2.7V | 00:00:00 | 00:55:58 | 00:00:00 | |
| OE5DRO-10 | 2026-09-06 02:42:15 | 46.84022 | 15.76215 | 131° | 108km/h | 10220m | 6.7m/s | -41.4°C | 28.9% | 0hPa | 2.7V | 00:00:00 | 00:00:00 | 00:00:00 | |
| PG1ADW-2 | 2026-09-06 02:42:13 | 46.84057 | 15.76156 | 131° | 108km/h | 10210m | 4.8m/s | -41.3°C | 28.6% | 0hPa | 2.7V | 00:00:00 | 00:00:00 | 00:00:00 | |
| OE8JPQ-2 | 2026-09-06 02:42:11 | 46.84094 | 15.76095 | 132° | 104km/h | 10200m | 4.3m/s | -41.3°C | 28.2% | 0hPa | 2.9V | 00:00:00 | 00:55:48 | 00:00:00 | |
| PETON7-10 | 2026-09-06 02:42:06 | 46.84183 | 15.75943 | 129° | 108km/h | 10174m | 6.5m/s | -41.0°C | 27.1% | 0hPa | 2.9V | 00:00:00 | 00:00:00 | 00:00:00 | |
| OE5DXL-15 | 2026-09-06 02:42:03 | 46.84233 | 15.75852 | 131° | 106km/h | 10158m | 5.8m/s | -40.9°C | 26.8% | 0hPa | 2.9V | 00:00:00 | 00:00:00 | 08:30:00 | |
| OE5DRO-10 | 2026-09-06 02:41:56 | 46.84356 | 15.75642 | 130° | 104km/h | 10120m | 5.0m/s | -40.6°C | 26.6% | 0hPa | 2.9V | 00:00:00 | 00:00:00 | 00:00:00 | |
| PG1ADW-2 | 2026-09-06 02:41:53 | 46.84409 | 15.75550 | 132° | 104km/h | 10105m | 4.7m/s | -40.5°C | 27.3% | 0hPa | 2.9V | 00:00:00 | 00:00:00 | 00:00:00 | |
| PETON7-10 | 2026-09-06 02:41:51 | 46.84445 | 15.75490 | 130° | 102km/h | 10095m | 4.4m/s | -40.4°C | 27.6% | 0hPa | 2.9V | 00:00:00 | 00:00:00 | 00:00:00 | |
| OE5DRO-10 | 2026-09-06 02:41:37 | 46.84680 | 15.75086 | 131° | 102km/h | 10017m | 6.1m/s | -39.9°C | 28.3% | 0hPa | 2.9V | 00:00:00 | 00:00:00 | 00:00:00 | |
| PETON7-10 | 2026-09-06 02:41:36 | 46.84695 | 15.75057 | 126° | 102km/h | 10011m | 5.7m/s | -39.8°C | 28.3% | 0hPa | 2.9V | 00:00:00 | 00:55:13 | 00:00:00 | |
| PG1ADW-2 | 2026-09-06 02:41:33 | 46.84744 | 15.74964 | 133° | 100km/h | 9995m | 3.6m/s | -39.7°C | 28.1% | 0hPa | 2.9V | 00:00:00 | 00:55:10 | 00:00:00 | |
| PETON7-10 | 2026-09-06 02:41:21 | 46.84940 | 15.74615 | 126° | 95km/h | 9918m | 6.0m/s | -39.0°C | 27.9% | 0hPa | 2.9V | 00:00:00 | 00:00:00 | 00:00:00 | |
| OE5DRO-10 | 2026-09-06 02:41:18 | 46.84985 | 15.74528 | 129° | 91km/h | 9897m | 9.9m/s | -38.9°C | 27.2% | 0hPa | 2.7V | 00:00:00 | 00:00:00 | 00:00:00 | |
| OE8JPQ-2 | 2026-09-06 02:41:13 | 46.85058 | 15.74378 | 120° | 91km/h | 9860m | 8.7m/s | -38.9°C | 24.9% | 0hPa | 2.7V | 00:00:00 | 00:00:00 | 08:30:00 | |
| OE3JTB-15 | 2026-09-06 02:41:08 | 46.85123 | 15.74245 | 127° | 86km/h | 9831m | 5.5m/s | -38.6°C | 21.5% | 0hPa | 2.9V | 00:00:00 | 00:54:45 | 00:00:00 | |
| PETON7-10 | 2026-09-06 02:41:06 | 46.85150 | 15.74193 | 129° | 86km/h | 9821m | 5.8m/s | -38.5°C | 21.0% | 0hPa | 2.9V | 00:00:00 | 00:00:00 | 00:00:00 | |
| OE5DXL-15 | 2026-09-06 02:41:03 | 46.85192 | 15.74120 | 128° | 86km/h | 9799m | 5.6m/s | -38.3°C | 21.3% | 0hPa | 2.9V | 00:00:00 | 00:00:00 | 00:00:00 | |
| OE5DRO-10 | 2026-09-06 02:40:59 | 46.85241 | 15.74011 | 123° | 84km/h | 9778m | 6.3m/s | -38.1°C | 20.6% | 0hPa | 2.9V | 00:00:00 | 00:00:00 | 00:00:00 | |
| PG1ADW-2 | 2026-09-06 02:40:53 | 46.85317 | 15.73860 | 124° | 86km/h | 9744m | 5.6m/s | -37.8°C | 18.6% | 0hPa | 2.9V | 00:00:00 | 00:00:00 | 00:00:00 | |
| PETON7-10 | 2026-09-06 02:40:51 | 46.85340 | 15.73806 | 121° | 86km/h | 9730m | 6.9m/s | -37.6°C | 18.4% | 0hPa | 2.9V | 00:00:00 | 00:54:28 | 00:00:00 | |
| OE5DRO-10 | 2026-09-06 02:40:40 | 46.85476 | 15.73529 | 128° | 86km/h | 9654m | 7.4m/s | -37.0°C | 18.1% | 0hPa | 2.9V | 00:00:00 | 00:00:00 | 00:00:00 | |
| OE3JTB-15 | 2026-09-06 02:40:39 | 46.85490 | 15.73502 | 124° | 86km/h | 9648m | 5.1m/s | -36.9°C | 18.5% | 0hPa | 2.9V | 00:00:00 | 00:00:00 | 00:00:00 | |
| PETON7-10 | 2026-09-06 02:40:36 | 46.85526 | 15.73418 | 126° | 86km/h | 9634m | 8.0m/s | -36.8°C | 18.8% | 0hPa | 2.7V | 00:00:00 | 00:00:00 | 08:30:00 | |
| PG1ADW-2 | 2026-09-06 02:40:33 | 46.85567 | 15.73347 | 129° | 86km/h | 9614m | 3.9m/s | -36.6°C | 19.0% | 0hPa | 2.7V | 00:00:00 | 00:00:00 | 00:00:00 | |
| PETON7-10 | 2026-09-06 02:40:21 | 46.85720 | 15.73042 | 127° | 86km/h | 9545m | 5.6m/s | -36.0°C | 19.8% | 0hPa | 2.7V | 00:00:00 | 00:00:00 | 00:00:00 | |
| PG1ADW-2 | 2026-09-06 02:40:13 | 46.85827 | 15.72839 | 130° | 88km/h | 9505m | 5.4m/s | -35.6°C | 21.1% | 0hPa | 2.7V | 00:00:00 | 00:53:50 | 08:30:00 | |
| OE3JTB-15 | 2026-09-06 02:40:10 | 46.85869 | 15.72766 | 127° | 89km/h | 9490m | 3.6m/s | -35.4°C | 21.3% | 0hPa | 2.9V | 00:00:00 | 00:00:00 | 00:00:00 | |
| PETON7-10 | 2026-09-06 02:40:06 | 46.85917 | 15.72659 | 122° | 88km/h | 9469m | 5.4m/s | -35.2°C | 21.1% | 0hPa | 2.9V | 00:00:00 | 00:53:43 | 00:00:00 | |
| OE5DXL-15 | 2026-09-06 02:40:03 | 46.85957 | 15.72579 | 132° | 91km/h | 9451m | 9.6m/s | -35.0°C | 20.9% | 0hPa | 2.9V | 00:00:00 | 00:00:00 | 00:00:00 | |
| OE5DRO-10 | 2026-09-06 02:40:02 | 46.85972 | 15.72556 | 133° | 91km/h | 9442m | 8.9m/s | -35.0°C | 21.0% | 0hPa | 2.9V | 00:00:00 | 00:00:00 | 00:00:00 | |
| PG1ADW-2 | 2026-09-06 02:39:53 | 46.86098 | 15.72330 | 128° | 93km/h | 9383m | 4.6m/s | -34.4°C | 20.9% | 0hPa | 2.9V | 00:00:00 | 00:00:00 | 00:00:00 | |
| PETON7-10 | 2026-09-06 02:39:51 | 46.86125 | 15.72274 | 124° | 91km/h | 9370m | 7.0m/s | -34.3°C | 20.4% | 0hPa | 2.9V | 00:00:00 | 00:00:00 | 00:00:00 | |
| OE8JPQ-2 | 2026-09-06 02:39:49 | 46.86153 | 15.72215 | 128° | 93km/h | 9358m | 4.1m/s | -34.2°C | 20.5% | 0hPa | 2.9V | 00:00:00 | 00:00:00 | 00:00:00 | |
| OE5DRO-10 | 2026-09-06 02:39:43 | 46.86245 | 15.72059 | 126° | 93km/h | 9323m | 4.9m/s | -33.9°C | 21.1% | 0hPa | 2.9V | 00:00:00 | 00:00:00 | 08:30:00 | |
| PETON7-10 | 2026-09-06 02:39:36 | 46.86342 | 15.71875 | 133° | 95km/h | 9283m | 5.5m/s | -33.7°C | 23.0% | 0hPa | 2.7V | 00:00:00 | 00:00:00 | 00:00:00 | |
| PG1ADW-2 | 2026-09-06 02:39:33 | 46.86387 | 15.71794 | 128° | 95km/h | 9265m | 4.1m/s | -33.6°C | 22.5% | 0hPa | 2.7V | 00:00:00 | 00:00:00 | 00:00:00 | |
| OE8JPQ-2 | 2026-09-06 02:39:26 | 46.86488 | 15.71601 | 128° | 95km/h | 9231m | 4.2m/s | -33.3°C | 21.9% | 0hPa | 2.7V | 00:00:00 | 00:53:03 | 00:00:00 | |
| OE5DRO-10 | 2026-09-06 02:39:24 | 46.86517 | 15.71545 | 127° | 95km/h | 9221m | 5.6m/s | -33.2°C | 21.8% | 0hPa | 2.7V | 00:00:00 | 00:00:00 | 00:00:00 | |
| PETON7-10 | 2026-09-06 02:39:21 | 46.86561 | 15.71461 | 130° | 95km/h | 9207m | 3.5m/s | -33.2°C | 22.6% | 0hPa | 2.7V | 00:00:00 | 00:52:58 | 00:00:00 | |
| PG1ADW-2 | 2026-09-06 02:39:13 | 46.86680 | 15.71236 | 129° | 91km/h | 9168m | 3.6m/s | -32.9°C | 23.1% | 0hPa | 2.7V | 00:00:00 | 00:00:00 | 00:00:00 | |
| OE3JTB-15 | 2026-09-06 02:39:12 | 46.86693 | 15.71212 | 130° | 91km/h | 9164m | 4.7m/s | -32.8°C | 23.0% | 0hPa | 2.9V | 00:00:00 | 00:00:00 | 08:30:00 | |
| OE8JPQ-2 | 2026-09-06 02:39:06 | 46.86781 | 15.71050 | 127° | 91km/h | 9133m | 5.8m/s | -32.5°C | 23.2% | 0hPa | 2.7V | 00:00:00 | 00:00:00 | 00:00:00 | |
| OE5DRO-10 | 2026-09-06 02:39:05 | 46.86795 | 15.71022 | 125° | 89km/h | 9127m | 4.3m/s | -32.5°C | 23.5% | 0hPa | 2.9V | 00:00:00 | 00:00:00 | 00:00:00 | |
| OE5DXL-15 | 2026-09-06 02:39:03 | 46.86822 | 15.70968 | 130° | 89km/h | 9117m | 4.0m/s | -32.4°C | 23.8% | 0hPa | 2.9V | 00:00:00 | 00:00:00 | 00:00:00 | |
| PG1ADW-2 | 2026-09-06 02:38:53 | 46.86962 | 15.70696 | 132° | 88km/h | 9065m | 8.7m/s | -31.9°C | 25.0% | 0hPa | 2.7V | 00:00:00 | 00:52:30 | 00:00:00 | |
| PETON7-10 | 2026-09-06 02:38:51 | 46.86992 | 15.70647 | 133° | 88km/h | 9049m | 7.2m/s | -31.8°C | 25.7% | 0hPa | 2.7V | 00:00:00 | 00:00:00 | 00:00:00 | |
| OE8JPQ-2 | 2026-09-06 02:38:46 | 46.87060 | 15.70525 | 130° | 91km/h | 9025m | 5.9m/s | -31.7°C | 28.0% | 0hPa | 2.7V | 00:00:00 | 00:00:00 | 00:00:00 | |
| OE3JTB-15 | 2026-09-06 02:38:43 | 46.87104 | 15.70451 | 129° | 93km/h | 9010m | 5.6m/s | -31.6°C | 28.6% | 0hPa | 2.7V | 00:00:00 | 00:00:00 | 00:00:00 | |
| PETON7-10 | 2026-09-06 02:38:36 | 46.87208 | 15.70277 | 135° | 93km/h | 8963m | 7.7m/s | -31.2°C | 27.4% | 0hPa | 2.7V | 00:00:00 | 00:52:13 | 00:00:00 | |
| OE5DXL-15 | 2026-09-06 02:38:33 | 46.87254 | 15.70204 | 127° | 95km/h | 8944m | 3.8m/s | -31.1°C | 27.6% | 0hPa | 2.7V | 00:00:00 | 00:00:00 | 00:00:00 | |
| OE5DRO-10 | 2026-09-06 02:38:27 | 46.87337 | 15.70034 | 129° | 93km/h | 8907m | 5.7m/s | -30.8°C | 26.3% | 0hPa | 2.7V | 00:00:00 | 00:00:00 | 00:00:00 | |
| OE8JPQ-2 | 2026-09-06 02:38:26 | 46.87351 | 15.70008 | 126° | 93km/h | 8901m | 5.1m/s | -30.7°C | 26.2% | 0hPa | 2.7V | 00:00:00 | 00:52:03 | 00:00:00 | |
| PETON7-10 | 2026-09-06 02:38:21 | 46.87422 | 15.69866 | 127° | 95km/h | 8868m | 5.3m/s | -30.4°C | 25.7% | 0hPa | 2.7V | 00:00:00 | 00:00:00 | 08:30:00 | |
| OE5DRO-10 | 2026-09-06 02:38:08 | 46.87600 | 15.69503 | 125° | 97km/h | 8797m | 7.3m/s | -29.7°C | 25.1% | 0hPa | 2.9V | 00:00:00 | 00:00:00 | 00:00:00 | |
| PETON7-10 | 2026-09-06 02:38:06 | 46.87630 | 15.69444 | 129° | 97km/h | 8782m | 8.9m/s | -29.7°C | 25.5% | 0hPa | 2.9V | 00:00:00 | 00:00:00 | 00:00:00 | |
| OE5DXL-15 | 2026-09-06 02:38:03 | 46.87675 | 15.69357 | 126° | 97km/h | 8757m | 7.3m/s | -29.5°C | 26.0% | 0hPa | 2.9V | 00:00:00 | 00:00:00 | 00:00:00 | |
| PG1ADW-2 | 2026-09-06 02:37:53 | 46.87827 | 15.69082 | 125° | 99km/h | 8690m | 6.0m/s | -29.0°C | 26.5% | 0hPa | 2.9V | 00:00:00 | 00:00:00 | 00:00:00 | |
| OE5DRO-10 | 2026-09-06 02:37:49 | 46.87885 | 15.68970 | 132° | 97km/h | 8659m | 4.2m/s | -28.8°C | 26.7% | 0hPa | 2.9V | 00:00:00 | 00:00:00 | 00:00:00 | |
| OE8JPQ-2 | 2026-09-06 02:37:46 | 46.87933 | 15.68883 | 128° | 97km/h | 8643m | 4.3m/s | -28.6°C | 26.7% | 0hPa | 2.7V | 00:00:00 | 00:00:00 | 00:00:00 | |
| OE3JTB-15 | 2026-09-06 02:37:44 | 46.87965 | 15.68827 | 131° | 97km/h | 8628m | 6.1m/s | -28.6°C | 26.5% | 0hPa | 2.7V | 00:00:00 | 00:00:00 | 00:00:00 | |
| PG1ADW-2 | 2026-09-06 02:37:33 | 46.88134 | 15.68528 | 129° | 97km/h | 8570m | 6.8m/s | -28.0°C | 27.6% | 0hPa | 2.9V | 00:00:00 | 00:51:10 | 00:00:00 | |
| OE5DRO-10 | 2026-09-06 02:37:30 | 46.88182 | 15.68441 | 130° | 97km/h | 8551m | 6.7m/s | -27.9°C | 28.1% | 0hPa | 2.9V | 00:00:00 | 00:00:00 | 00:00:00 | |
| PETON7-10 | 2026-09-06 02:37:24 | 46.88279 | 15.68294 | 135° | 99km/h | 8521m | 6.9m/s | -27.7°C | 30.2% | 0hPa | 2.9V | 00:00:00 | 00:51:01 | 00:00:00 | |
| OE8JPQ-2 | 2026-09-06 02:37:18 | 46.88378 | 15.68126 | 125° | 97km/h | 8483m | 4.1m/s | -27.5°C | 33.0% | 0hPa | 2.9V | 00:00:00 | 00:50:55 | 00:00:00 | |
| OE3JTB-15 | 2026-09-06 02:37:15 | 46.88423 | 15.68037 | 134° | 97km/h | 8462m | 5.3m/s | -27.4°C | 33.5% | 0hPa | 2.9V | 00:00:00 | 00:00:00 | 00:00:00 | |
| PG1ADW-2 | 2026-09-06 02:37:13 | 46.88458 | 15.67989 | 137° | 97km/h | 8450m | 6.5m/s | -27.3°C | 33.1% | 0hPa | 2.9V | 00:00:00 | 00:00:00 | 08:30:00 | |
| OE5DRO-10 | 2026-09-06 02:37:11 | 46.88493 | 15.67934 | 131° | 97km/h | 8437m | 6.8m/s | -27.2°C | 33.2% | 0hPa | 2.9V | 00:00:00 | 00:00:00 | 00:00:00 | |
| PETON7-10 | 2026-09-06 02:37:09 | 46.88529 | 15.67874 | 132° | 97km/h | 8423m | 7.0m/s | -27.1°C | 34.0% | 0hPa | 2.9V | 00:00:00 | 00:00:00 | 00:00:00 | |
| OE5DXL-15 | 2026-09-06 02:37:03 | 46.88621 | 15.67718 | 134° | 99km/h | 8391m | 3.7m/s | -26.8°C | 34.6% | 0hPa | 2.9V | 00:00:00 | 00:00:00 | 00:00:00 | |
| OE8JPQ-2 | 2026-09-06 02:36:58 | 46.88705 | 15.67589 | 131° | 99km/h | 8367m | 5.7m/s | -26.7°C | 36.5% | 0hPa | 2.9V | 00:00:00 | 00:00:00 | 08:30:00 | |
| PETON7-10 | 2026-09-06 02:36:53 | 46.88774 | 15.67442 | 130° | 95km/h | 8341m | 7.9m/s | -26.5°C | 37.1% | 0hPa | 2.9V | 00:00:00 | 00:00:00 | 00:00:00 | |
| OE5DRO-10 | 2026-09-06 02:36:52 | 46.88791 | 15.67415 | 137° | 99km/h | 8333m | 7.5m/s | -26.4°C | 37.0% | 0hPa | 2.9V | 00:00:00 | 00:00:00 | 08:30:00 | |
| OE3JTB-15 | 2026-09-06 02:36:46 | 46.88899 | 15.67260 | 130° | 99km/h | 8286m | 6.6m/s | -26.0°C | 36.3% | 0hPa | 2.9V | 00:00:00 | 00:50:23 | 00:00:00 | |
| OE8JPQ-2 | 2026-09-06 02:36:38 | 46.89033 | 15.67043 | 132° | 102km/h | 8238m | 4.8m/s | -25.6°C | 36.5% | 0hPa | 2.9V | 00:00:00 | 00:00:00 | 00:00:00 | |
| OE5DRO-10 | 2026-09-06 02:36:33 | 46.89117 | 15.66916 | 132° | 99km/h | 8214m | 4.1m/s | -25.4°C | 36.7% | 0hPa | 2.9V | 00:00:00 | 00:00:00 | 00:00:00 | |
| OE8JPQ-2 | 2026-09-06 02:36:18 | 46.89382 | 15.66526 | 136° | 99km/h | 8142m | 6.1m/s | -24.7°C | 36.2% | 0hPa | 2.9V | 00:00:00 | 00:49:55 | 00:00:00 | |
| OE3JTB-15 | 2026-09-06 02:36:17 | 46.89400 | 15.66499 | 135° | 99km/h | 8137m | 3.7m/s | -24.6°C | 36.2% | 0hPa | 2.9V | 00:00:00 | 00:00:00 | 00:00:00 | |
| OE5DRO-10 | 2026-09-06 02:36:14 | 46.89455 | 15.66421 | 139° | 97km/h | 8116m | 8.3m/s | -24.5°C | 35.5% | 0hPa | 2.9V | 00:00:00 | 00:00:00 | 00:00:00 | |
| PG1ADW-2 | 2026-09-06 02:36:13 | 46.89474 | 15.66396 | 139° | 97km/h | 8110m | 4.3m/s | -24.4°C | 35.8% | 0hPa | 2.9V | 00:00:00 | 00:49:50 | 00:00:00 | |
| OE5DXL-15 | 2026-09-06 02:36:03 | 46.89642 | 15.66142 | 132° | 97km/h | 8044m | 9.4m/s | -23.8°C | 30.4% | 0hPa | 2.9V | 00:00:00 | 00:00:00 | 00:00:00 | |
| OE8JPQ-2 | 2026-09-06 02:35:58 | 46.89722 | 15.66012 | 132° | 95km/h | 8009m | 6.5m/s | -23.5°C | 31.1% | 0hPa | 2.7V | 00:00:00 | 00:00:00 | 00:00:00 | |
| OE5DRO-10 | 2026-09-06 02:35:55 | 46.89774 | 15.65925 | 134° | 97km/h | 7988m | 9.3m/s | -23.4°C | 32.7% | 0hPa | 2.9V | 00:00:00 | 00:00:00 | 00:00:00 | |
| OE3JTB-15 | 2026-09-06 02:35:48 | 46.89896 | 15.65749 | 134° | 97km/h | 7937m | 7.8m/s | -22.9°C | 30.4% | 0hPa | 2.7V | 00:00:00 | 00:00:00 | 00:00:00 | |
| PG1ADW-2 | 2026-09-06 02:35:45 | 46.89941 | 15.65671 | 128° | 99km/h | 7918m | 5.1m/s | -22.8°C | 30.2% | 0hPa | 2.7V | 00:00:00 | 00:00:00 | 00:00:00 | |
| OE8JPQ-2 | 2026-09-06 02:35:36 | 46.90087 | 15.65430 | 133° | 99km/h | 7854m | 7.4m/s | -22.2°C | 27.6% | 0hPa | 2.7V | 00:00:00 | 00:00:00 | 00:00:00 | |
| OE5DXL-15 | 2026-09-06 02:35:33 | 46.90140 | 15.65348 | 133° | 97km/h | 7834m | 5.6m/s | -22.0°C | 27.4% | 0hPa | 2.7V | 00:00:00 | 00:00:00 | 00:00:00 | |
| PG1ADW-2 | 2026-09-06 02:35:25 | 46.90273 | 15.65132 | 130° | 97km/h | 7785m | 4.9m/s | -21.5°C | 27.2% | 0hPa | 2.7V | 00:00:00 | 00:00:00 | 00:00:00 | |
| PETON7-10 | 2026-09-06 02:35:19 | 46.90368 | 15.64986 | 131° | 95km/h | 7745m | 8.4m/s | -21.2°C | 27.0% | 0hPa | 2.7V | 00:00:00 | 00:48:56 | 00:00:00 | |
| OE5DRO-10 | 2026-09-06 02:35:17 | 46.90404 | 15.64924 | 132° | 95km/h | 7731m | 4.3m/s | -21.1°C | 27.8% | 0hPa | 2.7V | 00:00:00 | 00:00:00 | 00:00:00 | |
| OE8JPQ-2 | 2026-09-06 02:35:15 | 46.90440 | 15.64863 | 130° | 93km/h | 7718m | 7.3m/s | -21.0°C | 28.1% | 0hPa | 2.7V | 00:00:00 | 00:48:52 | 00:00:00 | |
| PG1ADW-2 | 2026-09-06 02:35:04 | 46.90621 | 15.64591 | 128° | 93km/h | 7644m | 5.1m/s | -20.4°C | 27.4% | 0hPa | 2.7V | 00:00:00 | 00:00:00 | 00:00:00 | |
| OE5DXL-15 | 2026-09-06 02:35:03 | 46.90635 | 15.64563 | 128° | 93km/h | 7640m | 4.7m/s | -20.4°C | 27.3% | 0hPa | 2.9V | 00:00:00 | 00:00:00 | 00:00:00 | |
| PETON7-10 | 2026-09-06 02:35:02 | 46.90651 | 15.64536 | 131° | 93km/h | 7634m | 6.5m/s | -20.3°C | 27.2% | 0hPa | 2.9V | 00:00:00 | 00:00:00 | 00:00:00 | |
| OE5DRO-10 | 2026-09-06 02:34:58 | 46.90718 | 15.64441 | 134° | 93km/h | 7611m | 4.4m/s | -20.1°C | 27.2% | 0hPa | 2.9V | 00:00:00 | 00:00:00 | 00:00:00 | |
| OE8JPQ-2 | 2026-09-06 02:34:55 | 46.90767 | 15.64367 | 137° | 95km/h | 7593m | 4.5m/s | -20.0°C | 27.0% | 0hPa | 2.9V | 00:00:00 | 00:00:00 | 00:00:00 | |
| PETON7-10 | 2026-09-06 02:34:47 | 46.90897 | 15.64170 | 133° | 95km/h | 7547m | 6.7m/s | -19.6°C | 26.3% | 0hPa | 2.9V | 00:00:00 | 00:00:00 | 00:00:00 | |
| PG1ADW-2 | 2026-09-06 02:34:44 | 46.90943 | 15.64095 | 136° | 95km/h | 7522m | 8.0m/s | 0°C | 0% | 0hPa | 2.9V | 00:00:00 | 00:48:21 | 00:00:00 | |
| OE5DRO-10 | 2026-09-06 02:34:39 | 46.91025 | 15.63967 | 132° | 95km/h | 7484m | 5.6m/s | -19.0°C | 25.0% | 0hPa | 2.9V | 00:00:00 | 00:00:00 | 00:00:00 | |
| OE8JPQ-2 | 2026-09-06 02:34:35 | 46.91095 | 15.63863 | 136° | 91km/h | 7462m | 4.1m/s | -18.8°C | 24.5% | 0hPa | 2.9V | 00:00:00 | 00:00:00 | 00:00:00 | |
| OE5DXL-15 | 2026-09-06 02:34:33 | 46.91130 | 15.63817 | 140° | 89km/h | 7450m | 6.7m/s | -18.7°C | 24.2% | 0hPa | 2.9V | 00:00:00 | 00:00:00 | 00:00:00 | |
| PETON7-10 | 2026-09-06 02:34:32 | 46.91146 | 15.63795 | 136° | 93km/h | 7443m | 7.2m/s | -18.6°C | 24.2% | 0hPa | 2.9V | 00:00:00 | 00:48:09 | 00:00:00 | |
| PG1ADW-2 | 2026-09-06 02:34:24 | 46.91273 | 15.63589 | 128° | 89km/h | 7392m | 7.8m/s | 0°C | 0% | 0hPa | 2.9V | 00:00:00 | 00:00:00 | 00:00:00 | |
| OE5DRO-10 | 2026-09-06 02:34:20 | 46.91336 | 15.63487 | 137° | 88km/h | 7356m | 8.4m/s | -17.8°C | 22.8% | 0hPa | 2.9V | 00:00:00 | 00:00:00 | 00:00:00 | |
| PETON7-10 | 2026-09-06 02:34:17 | 46.91386 | 15.63418 | 137° | 88km/h | 7337m | 4.9m/s | -17.7°C | 23.1% | 0hPa | 2.9V | 00:00:00 | 00:00:00 | 08:30:00 | |
| OE8JPQ-2 | 2026-09-06 02:34:15 | 46.91416 | 15.63375 | 137° | 86km/h | 7326m | 4.7m/s | -17.6°C | 23.4% | 0hPa | 2.7V | 00:00:00 | 00:47:52 | 00:00:00 | |
| PG1ADW-2 | 2026-09-06 02:34:04 | 46.91582 | 15.63112 | 123° | 82km/h | 7244m | 6.9m/s | 0°C | 0% | 0hPa | 2.7V | 00:00:00 | 00:00:00 | 00:00:00 | |
| PETON7-10 | 2026-09-06 02:34:02 | 46.91610 | 15.63066 | 138° | 86km/h | 7229m | 7.4m/s | -17.0°C | 25.3% | 0hPa | 2.7V | 00:00:00 | 00:00:00 | 00:00:00 | |
| OE5DRO-10 | 2026-09-06 02:34:01 | 46.91626 | 15.63045 | 137° | 86km/h | 7222m | 6.2m/s | -16.9°C | 25.5% | 0hPa | 2.7V | 00:00:00 | 00:00:00 | 08:30:00 | |
| OE8JPQ-2 | 2026-09-06 02:33:55 | 46.91710 | 15.62905 | 140° | 88km/h | 7183m | 5.1m/s | -16.6°C | 25.4% | 0hPa | 2.9V | 00:00:00 | 00:00:00 | 08:30:00 | |
| PETON7-10 | 2026-09-06 02:33:47 | 46.91820 | 15.62712 | 137° | 86km/h | 7124m | 8.7m/s | -16.3°C | 27.6% | 0hPa | 2.7V | 00:00:00 | 00:47:24 | 00:00:00 | |
| OE3JTB-15 | 2026-09-06 02:33:46 | 46.91836 | 15.62690 | 140° | 77km/h | 7116m | 7.7m/s | -16.3°C | 28.0% | 0hPa | 2.7V | 00:00:00 | 00:00:00 | 08:30:00 | |
| OE5DRO-10 | 2026-09-06 02:33:42 | 46.91894 | 15.62597 | 122° | 82km/h | 7084m | 9.8m/s | -16.0°C | 28.3% | 0hPa | 2.9V | 00:00:00 | 00:00:00 | 00:00:00 | |
| OE8JPQ-2 | 2026-09-06 02:33:35 | 46.91997 | 15.62430 | 134° | 78km/h | 7047m | 7.7m/s | -15.8°C | 30.2% | 0hPa | 2.9V | 00:00:00 | 00:00:00 | 00:00:00 | |
| OE5DXL-15 | 2026-09-06 02:33:33 | 46.92024 | 15.62384 | 130° | 78km/h | 7032m | 7.5m/s | 0°C | 0% | 0hPa | 2.9V | 00:00:00 | 00:47:10 | 00:00:00 | |
| PETON7-10 | 2026-09-06 02:33:32 | 46.92039 | 15.62359 | 135° | 75km/h | 7025m | 7.2m/s | -15.7°C | 29.8% | 0hPa | 2.9V | 00:00:00 | 00:00:00 | 00:00:00 | |
| OE5DRO-10 | 2026-09-06 02:33:23 | 46.92153 | 15.62162 | 122° | 77km/h | 6967m | 5.4m/s | -15.3°C | 30.0% | 0hPa | 2.9V | 00:00:00 | 00:00:00 | 00:00:00 | |
| PETON7-10 | 2026-09-06 02:33:17 | 46.92225 | 15.62043 | 137° | 77km/h | 6936m | 9.3m/s | -15.1°C | 30.6% | 0hPa | 2.9V | 00:00:00 | 00:00:00 | 00:00:00 | |
| OE8JPQ-2 | 2026-09-06 02:33:15 | 46.92254 | 15.62000 | 131° | 77km/h | 6921m | 5.9m/s | -15.0°C | 30.7% | 0hPa | 2.9V | 00:00:00 | 00:46:52 | 00:00:00 | |
| OE3JTB-15 | 2026-09-06 02:33:12 | 46.92288 | 15.61939 | 128° | 80km/h | 6904m | 7.2m/s | -14.8°C | 30.8% | 0hPa | 2.9V | 00:00:00 | 00:00:00 | 00:00:00 | |
| OE5DRO-10 | 2026-09-06 02:33:04 | 46.92390 | 15.61759 | 115° | 75km/h | 6856m | 6.0m/s | -14.5°C | 30.8% | 0hPa | 2.9V | 00:00:00 | 00:00:00 | 00:00:00 | |
| OE5DXL-15 | 2026-09-06 02:33:03 | 46.92398 | 15.61736 | 122° | 71km/h | 6851m | 4.4m/s | 0°C | 0% | 0hPa | 2.9V | 00:00:00 | 00:00:00 | 00:00:00 | |
| PETON7-10 | 2026-09-06 02:33:02 | 46.92408 | 15.61715 | 127° | 73km/h | 6845m | 7.5m/s | -14.4°C | 31.2% | 0hPa | 2.9V | 00:00:00 | 00:46:39 | 00:00:00 | |
| OE8JPQ-2 | 2026-09-06 02:32:55 | 46.92501 | 15.61587 | 123° | 80km/h | 6796m | 5.6m/s | -14.0°C | 30.9% | 0hPa | 2.9V | 00:00:00 | 00:00:00 | 00:00:00 | |
| PETON7-10 | 2026-09-06 02:32:47 | 46.92596 | 15.61417 | 137° | 80km/h | 6745m | 6.4m/s | -13.5°C | 30.5% | 0hPa | 2.9V | 00:00:00 | 00:00:00 | 00:00:00 | |
| OE5DRO-10 | 2026-09-06 02:32:45 | 46.92628 | 15.61369 | 130° | 80km/h | 6734m | 6.2m/s | -13.4°C | 30.3% | 0hPa | 2.9V | 00:00:00 | 00:00:00 | 00:00:00 | |
| OE8JPQ-2 | 2026-09-06 02:32:34 | 46.92779 | 15.61121 | 136° | 82km/h | 6658m | 4.5m/s | -13.0°C | 31.7% | 0hPa | 2.9V | 00:00:00 | 00:00:00 | 00:00:00 | |
| PETON7-10 | 2026-09-06 02:32:30 | 46.92832 | 15.61036 | 130° | 77km/h | 6638m | 5.0m/s | -12.9°C | 0% | 0hPa | 2.9V | 00:00:00 | 00:00:00 | 00:00:00 | |
| OE8JPQ-2 | 2026-09-06 02:32:14 | 46.93027 | 15.60672 | 132° | 75km/h | 6545m | 4.8m/s | 0°C | 0% | 0hPa | 2.9V | 00:00:00 | 00:45:51 | 00:00:00 | |
| PETON7-10 | 2026-09-06 02:32:11 | 46.93062 | 15.60613 | 123° | 73km/h | 6530m | 3.5m/s | 0°C | 0% | 0hPa | 2.9V | 00:00:00 | 00:45:48 | 00:00:00 | |
| OE5DRO-10 | 2026-09-06 02:32:07 | 46.93112 | 15.60528 | 144° | 75km/h | 6509m | 7.3m/s | -12.3°C | 35.9% | 0hPa | 2.9V | 00:00:00 | 00:00:00 | 00:00:00 | |
| OE3JTB-15 | 2026-09-06 02:31:57 | 46.93226 | 15.60322 | 132° | 75km/h | 6454m | 8.6m/s | 0°C | 0% | 0hPa | 2.9V | 00:00:00 | 00:00:00 | 00:00:00 | |
| PETON7-10 | 2026-09-06 02:31:55 | 46.93247 | 15.60276 | 117° | 80km/h | 6437m | 5.3m/s | 0°C | 0% | 0hPa | 2.9V | 00:00:00 | 00:00:00 | 08:30:00 | |
| OE8JPQ-2 | 2026-09-06 02:31:54 | 46.93256 | 15.60253 | 122° | 75km/h | 6431m | 6.9m/s | 0°C | 0% | 0hPa | 2.9V | 00:00:00 | 00:00:00 | 00:00:00 | |
| OE5DRO-10 | 2026-09-06 02:31:48 | 46.93339 | 15.60137 | 127° | 78km/h | 6392m | 7.2m/s | -11.2°C | 33.0% | 0hPa | 2.9V | 00:00:00 | 00:00:00 | 00:00:00 | |
| PETON7-10 | 2026-09-06 02:31:37 | 46.93469 | 15.59881 | 138° | 75km/h | 6327m | 5.2m/s | 0°C | 0% | 0hPa | 2.9V | 00:00:00 | 00:00:00 | 00:00:00 | |
| OE5DRO-10 | 2026-09-06 02:31:29 | 46.93572 | 15.59717 | 125° | 75km/h | 6281m | 3.7m/s | -10.4°C | 32.2% | 0hPa | 2.9V | 00:00:00 | 00:00:00 | 00:00:00 | |
| PETON7-10 | 2026-09-06 02:31:22 | 46.93648 | 15.59546 | 128° | 77km/h | 6242m | 8.4m/s | 0°C | 0% | 0hPa | 2.9V | 00:00:00 | 00:44:59 | 00:00:00 | |
| OE8JPQ-2 | 2026-09-06 02:31:16 | 46.93709 | 15.59408 | 120° | 86km/h | 6209m | 4.5m/s | 0°C | 0% | 0hPa | 2.9V | 00:00:00 | 00:00:00 | 00:00:00 | |
| OE3JTB-15 | 2026-09-06 02:31:11 | 46.93769 | 15.59303 | 125° | 75km/h | 6186m | 4.2m/s | 0°C | 0% | 0hPa | 2.9V | 00:00:00 | 00:00:00 | 00:00:00 | |
| OE5DRO-10 | 2026-09-06 02:31:10 | 46.93779 | 15.59282 | 124° | 82km/h | 6182m | 5.4m/s | -9.8°C | 33.8% | 0hPa | 2.9V | 00:00:00 | 00:00:00 | 08:30:00 | |
| PETON7-10 | 2026-09-06 02:31:07 | 46.93817 | 15.59199 | 122° | 82km/h | 6169m | 4.0m/s | 0°C | 0% | 0hPa | 2.7V | 00:00:00 | 00:00:00 | 00:00:00 | |
| OE8JPQ-2 | 2026-09-06 02:30:56 | 46.93926 | 15.58909 | 121° | 71km/h | 6109m | 7.2m/s | 0°C | 0% | 0hPa | 2.7V | 00:00:00 | 00:44:33 | 00:00:00 | |
| PETON7-10 | 2026-09-06 02:30:52 | 46.93970 | 15.58808 | 124° | 77km/h | 6085m | 9.2m/s | 0°C | 0% | 0hPa | 2.7V | 00:00:00 | 00:00:00 | 00:00:00 | |
| OE5DRO-10 | 2026-09-06 02:30:51 | 46.93981 | 15.58782 | 122° | 78km/h | 6077m | 7.2m/s | -9.9°C | 34.7% | 0hPa | 2.7V | 00:00:00 | 00:00:00 | 00:00:00 | |
| OE3JTB-15 | 2026-09-06 02:30:42 | 46.94086 | 15.58570 | 122° | 80km/h | 6032m | 5.7m/s | 0°C | 0% | 0hPa | 2.7V | 00:00:00 | 00:44:19 | 00:00:00 | |
| PETON7-10 | 2026-09-06 02:30:36 | 46.94141 | 15.58426 | 115° | 82km/h | 6009m | 3.4m/s | 0°C | 0% | 0hPa | 2.7V | 00:00:00 | 00:44:13 | 00:00:00 | |
| OE8JPQ-2 | 2026-09-06 02:30:35 | 46.94149 | 15.58401 | 119° | 84km/h | 6004m | 5.8m/s | 0°C | 0% | 0hPa | 2.7V | 00:00:00 | 00:00:00 | 00:00:00 | |
| OE5DRO-10 | 2026-09-06 02:30:32 | 46.94193 | 15.58322 | 135° | 82km/h | 5983m | 5.2m/s | -9.5°C | 29.6% | 0hPa | 2.7V | 00:00:00 | 00:00:00 | 00:00:00 | |
| OE8JPQ-2 | 2026-09-06 02:30:14 | 46.94387 | 15.57850 | 124° | 75km/h | 5884m | 4.6m/s | 0°C | 0% | 0hPa | 2.7V | 00:00:00 | 00:00:00 | 00:00:00 | |
| OE5DRO-10 | 2026-09-06 02:30:13 | 46.94397 | 15.57830 | 129° | 77km/h | 5880m | 4.4m/s | -9.4°C | 5.3% | 0hPa | 2.7V | 00:00:00 | 00:00:00 | 00:00:00 | |
| OE3JTB-15 | 2026-09-06 02:30:09 | 46.94440 | 15.57734 | 123° | 71km/h | 5856m | 7.2m/s | 0°C | 0% | 0hPa | 2.9V | 00:00:00 | 00:00:00 | 00:00:00 | |
| OE5DRO-10 | 2026-09-06 02:29:54 | 46.94572 | 15.57362 | 128° | 78km/h | 5761m | 4.5m/s | -8.7°C | 6.2% | 0hPa | 2.9V | 00:00:00 | 00:00:00 | 00:00:00 | |
| OE5DRO-10 | 2026-09-06 02:29:35 | 46.94765 | 15.56900 | 123° | 71km/h | 5645m | 6.1m/s | -8.3°C | 7.0% | 0hPa | 2.9V | 00:00:00 | 00:00:00 | 00:00:00 | |
| PETON7-10 | 2026-09-06 02:29:24 | 46.94862 | 15.56671 | 127° | 75km/h | 5591m | 2.5m/s | 0°C | 0% | 0hPa | 2.9V | 00:00:00 | 00:43:01 | 00:00:00 | |
| OE5DRO-10 | 2026-09-06 02:29:16 | 46.94940 | 15.56477 | 140° | 71km/h | 5550m | 4.3m/s | -7.6°C | 7.5% | 0hPa | 2.9V | 00:00:00 | 00:00:00 | 00:00:00 | |
| PETON7-10 | 2026-09-06 02:29:09 | 46.94999 | 15.56318 | 129° | 69km/h | 5509m | 6.8m/s | 0°C | 0% | 0hPa | 0V | 00:00:00 | 00:00:00 | 00:00:00 | |
| OE5DRO-10 | 2026-09-06 02:28:57 | 46.95121 | 15.56053 | 133° | 71km/h | 5450m | 7.0m/s | 0°C | 0% | 0hPa | 0V | 00:00:00 | 00:00:00 | 00:00:00 | |
| OE8JPQ-2 | 2026-09-06 02:28:53 | 46.95155 | 15.55973 | 118° | 73km/h | 5425m | 6.6m/s | 0°C | 0% | 0hPa | 0V | 00:00:00 | 00:00:00 | 00:00:00 | |
| OE5DRO-10 | 2026-09-06 02:28:38 | 46.95313 | 15.55637 | 122° | 68km/h | 5342m | 6.3m/s | 0°C | 0% | 0hPa | 0V | 00:00:00 | 00:00:00 | 00:00:00 | |
| OE8JPQ-2 | 2026-09-06 02:28:31 | 46.95372 | 15.55486 | 133° | 69km/h | 5301m | 3.5m/s | 0°C | 0% | 0hPa | 0V | 00:00:00 | 00:00:00 | 00:00:00 | |
| OE5DRO-10 | 2026-09-06 02:28:19 | 46.95480 | 15.55240 | 115° | 73km/h | 5230m | 2.2m/s | 0°C | 0% | 0hPa | 0V | 00:00:00 | 00:00:00 | 00:00:00 | |
| OE8JPQ-2 | 2026-09-06 02:28:11 | 46.95558 | 15.55060 | 136° | 62km/h | 5178m | 7.4m/s | 0°C | 0% | 0hPa | 0V | 00:00:00 | 00:41:48 | 00:00:00 | |
| OE3JTB-15 | 2026-09-06 02:28:03 | 46.95624 | 15.54914 | 111° | 68km/h | 5129m | 3.1m/s | 0°C | 0% | 0hPa | 0V | 00:00:00 | 00:41:40 | 00:00:00 | |
| OM5KV | 2026-09-06 02:28:01 | 46.95633 | 15.54879 | 125° | 38km/h | 5121m | 5.1m/s | -5.6°C | 0% | 0hPa | 0V | 00:00:00 | 00:00:00 | 00:00:00 | |
| OM5KV | 2026-09-06 02:27:58 | 46.95651 | 15.54853 | 135° | 62km/h | 5110m | 8.3m/s | -5.6°C | 0% | 0hPa | 0V | 00:00:00 | 00:00:00 | 00:00:00 | |
| OM5KV | 2026-09-06 02:27:56 | 46.95678 | 15.54778 | 117° | 80km/h | 5095m | 4.1m/s | -5.5°C | 0% | 0hPa | 0V | 00:00:00 | 00:00:00 | 00:00:00 | |
| OM5KV | 2026-09-06 02:27:53 | 46.95708 | 15.54727 | 134° | 49km/h | 5076m | 6.5m/s | -5.4°C | 0% | 0hPa | 0V | 00:00:00 | 00:00:00 | 00:00:00 | |
| OM5KV | 2026-09-06 02:27:47 | 46.95756 | 15.54607 | 139° | 80km/h | 5040m | 4.5m/s | -5.1°C | 0% | 0hPa | 0V | 00:00:00 | 00:00:00 | 00:00:00 | |
| OM5KV | 2026-09-06 02:27:41 | 46.95815 | 15.54474 | 147° | 71km/h | 5005m | 3.2m/s | -5.1°C | 0% | 0hPa | 0V | 00:00:00 | 00:00:00 | 00:00:00 | |
| OM5KV | 2026-09-06 02:27:37 | 46.95839 | 15.54405 | 118° | 78km/h | 4979m | 6.4m/s | -4.9°C | 0% | 0hPa | 0V | 00:00:00 | 00:00:00 | 00:00:00 | |
| OM5KV | 2026-09-06 02:27:35 | 46.95865 | 15.54355 | 137° | 78km/h | 4967m | 5.1m/s | -4.8°C | 0% | 0hPa | 0V | 00:00:00 | 00:00:00 | 00:00:00 | |
| OM5KV | 2026-09-06 02:27:30 | 46.95904 | 15.54251 | 128° | 84km/h | 4937m | 6.0m/s | -4.8°C | 0% | 0hPa | 0V | 00:00:00 | 00:00:00 | 00:00:00 | |
| OM5KV | 2026-09-06 02:27:24 | 46.95957 | 15.54145 | 130° | 73km/h | 4900m | 8.4m/s | -4.7°C | 0% | 0hPa | 0V | 00:00:00 | 00:00:00 | 00:00:00 | |
| S52SK | 2026-09-06 02:27:22 | 46.95984 | 15.54111 | 140° | 64km/h | 4886m | 6.8m/s | 0°C | 0% | 0hPa | 0V | 00:00:00 | 00:00:00 | 00:00:00 | |
| OM5KV | 2026-09-06 02:27:17 | 46.96018 | 15.54047 | 146° | 64km/h | 4858m | 6.4m/s | -4.6°C | 0% | 0hPa | 0V | 00:00:00 | 00:00:00 | 00:00:00 | |
| S52SK | 2026-09-06 02:27:16 | 46.96032 | 15.54027 | 131° | 89km/h | 4852m | 5.1m/s | 0°C | 0% | 0hPa | 0V | 00:00:00 | 00:00:00 | 00:00:00 | |
| OM5KV | 2026-09-06 02:27:10 | 46.96080 | 15.53909 | 146° | 46km/h | 4812m | 5.0m/s | -4.5°C | 0% | 0hPa | 0V | 00:00:00 | 00:00:00 | 00:00:00 | |
| OM5KV | 2026-09-06 02:27:05 | 46.96103 | 15.53819 | 116° | 62km/h | 4785m | 8.4m/s | -4.3°C | 0% | 0hPa | 0V | 00:00:00 | 00:00:00 | 00:00:00 | |
| OM5KV | 2026-09-06 02:27:02 | 46.96135 | 15.53775 | 131° | 71km/h | 4766m | 5.6m/s | -4.1°C | 0% | 0hPa | 0V | 00:00:00 | 00:00:00 | 00:00:00 | |
| OE8JPQ-2 | 2026-09-06 02:26:42 | 46.96228 | 15.53415 | 136° | 57km/h | 4632m | 3.9m/s | 0°C | 0% | 0hPa | 0V | 00:00:00 | 00:00:00 | 00:00:00 | |
| OM5KV | 2026-09-06 02:26:41 | 46.96228 | 15.53415 | 136° | 53km/h | 4632m | 4.0m/s | -3.0°C | 0% | 0hPa | 0V | 00:00:00 | 00:00:00 | 00:00:00 | |
| OM5KV | 2026-09-06 02:26:40 | 46.96238 | 15.53398 | 123° | 69km/h | 4627m | 6.8m/s | -3.0°C | 0% | 0hPa | 0V | 00:00:00 | 00:00:00 | 00:00:00 | |
| OE8JPQ-2 | 2026-09-06 02:26:20 | 46.96342 | 15.52996 | 104° | 58km/h | 4506m | 5.2m/s | 0°C | 0% | 0hPa | 0V | 00:00:00 | 00:00:00 | 00:00:00 | |
| S52SK | 2026-09-06 02:26:19 | 46.96349 | 15.52970 | 122° | 77km/h | 4500m | 7.5m/s | 0°C | 0% | 0hPa | 0V | 00:00:00 | 00:00:00 | 00:00:00 | |
| OM5KV | 2026-09-06 02:26:18 | 46.96359 | 15.52950 | 132° | 55km/h | 4493m | 6.6m/s | -1.8°C | 0% | 0hPa | 0V | 00:00:00 | 00:00:00 | 00:00:00 | |
| S52SK | 2026-09-06 02:26:13 | 46.96383 | 15.52866 | 107° | 46km/h | 4464m | 8.4m/s | 0°C | 0% | 0hPa | 0V | 00:00:00 | 00:00:00 | 00:00:00 | |
| S52SK | 2026-09-06 02:26:08 | 46.96417 | 15.52779 | 123° | 53km/h | 4439m | 3.7m/s | 0°C | 0% | 0hPa | 0V | 00:00:00 | 00:00:00 | 00:00:00 | |
| OM5KV | 2026-09-06 02:26:05 | 46.96422 | 15.52725 | 107° | 44km/h | 4429m | 6.0m/s | -1.5°C | 0% | 0hPa | 0V | 00:00:00 | 00:00:00 | 00:00:00 | |
| OM5KV | 2026-09-06 02:25:59 | 46.96455 | 15.52609 | 129° | 58km/h | 4385m | 10.2m/s | -1.3°C | 0% | 0hPa | 0V | 00:00:00 | 00:00:00 | 00:00:00 | |
| OM5KV | 2026-09-06 02:25:58 | 46.96468 | 15.52591 | 141° | 75km/h | 4378m | 3.2m/s | -1.3°C | 0% | 0hPa | 0V | 00:00:00 | 00:00:00 | 00:00:00 | |
| OE8JPQ-2 | 2026-09-06 02:25:39 | 46.96610 | 15.52249 | 118° | 68km/h | 4253m | 9.2m/s | 0°C | 0% | 0hPa | 0V | 00:00:00 | 00:00:00 | 00:00:00 |